Provisional Data: North Branch Muddy Creek near Muddy Creek Forks, PA


Please select a monitoring station.
Please select start date.
Please select start date.

Toggle Unit: C/F Toggle Unit: C/F
Sample Time Temperature (C) Temperature (F) Specific Conductivity (mS/cm) pH   Turbidity (NTU+) DO (mg/L)
12/23/2022 12:00:00 AM 5.94 42.692 0.138 4.79 182.6 12.17
12/23/2022 12:15:00 AM 6.04 42.872 0.141 4.8 155.1 12.13
12/23/2022 12:30:00 AM 6.11 42.998 0.14 4.81 208.8 12.09
12/23/2022 12:45:00 AM 6.11 42.998 0.142 4.85 233.1 12.06
12/23/2022 1:00:00 AM 6.1 42.98 0.14 4.94 307.6 12.05
12/23/2022 1:15:00 AM 6.1 42.98 0.137 4.99 242.5 12.05
12/23/2022 1:30:00 AM 6.13 43.034 0.133 4.92 340 12.05
12/23/2022 1:45:00 AM 6.15 43.07 0.129 4.89 343 12.03
12/23/2022 2:00:00 AM 6.18 43.124 0.126 4.89 311.2 12.02
12/23/2022 2:15:00 AM 6.2 43.16 0.122 4.87 408.6 12.02
12/23/2022 2:30:00 AM 6.21 43.178 0.119 4.87 349.9 12.02
12/23/2022 2:45:00 AM 6.23 43.214 0.115 4.89 387.3 12.01
12/23/2022 3:00:00 AM 6.26 43.268 0.111 4.85 454.7 11.99
12/23/2022 3:15:00 AM 6.3 43.34 0.109 4.86 434.7 11.98
12/23/2022 3:30:00 AM 6.32 43.376 0.107 4.88 484.2 11.96
12/23/2022 3:45:00 AM 6.35 43.43 0.105 4.91 486.9 11.94
12/23/2022 4:00:00 AM 6.36 43.448 0.104 4.9 427.2 11.93
12/23/2022 4:15:00 AM 6.37 43.466 0.102 4.87 451.5 11.93
12/23/2022 4:30:00 AM 6.37 43.466 0.102 4.84 441.7 11.9
12/23/2022 4:45:00 AM 6.38 43.484 0.102 4.9 413.1 11.91
12/23/2022 5:00:00 AM 6.4 43.52 0.102 4.94 380.9 11.89
12/23/2022 5:15:00 AM 6.42 43.556 0.102 4.83 359.1 11.89
12/23/2022 5:30:00 AM 6.44 43.592 0.102 4.82 337.2 11.88
12/23/2022 5:45:00 AM 6.45 43.61 0.102 4.84 290.2 11.87
12/23/2022 6:00:00 AM 6.47 43.646 0.102 4.86 273.2 11.84
12/23/2022 6:15:00 AM 6.48 43.664 0.102 4.88 293.8 11.84
12/23/2022 6:30:00 AM 6.49 43.682 0.102 4.8 261.9 11.84
12/23/2022 6:45:00 AM 6.5 43.7 0.103 4.83 211.7 11.81
12/23/2022 7:00:00 AM 6.51 43.718 0.103 4.81 193.2 11.79
12/23/2022 7:15:00 AM 6.52 43.736 0.103 4.85 182.3 11.77
12/23/2022 7:30:00 AM 6.53 43.754 0.104 4.84 176.2 11.77
12/23/2022 7:45:00 AM 6.55 43.79 0.105 4.82 177.4 11.77
12/23/2022 8:00:00 AM 6.56 43.808 0.106 4.83 170.5 11.75
12/23/2022 8:15:00 AM 6.57 43.826 0.106 4.83 155 11.73
12/23/2022 8:30:00 AM 6.58 43.844 0.107 4.8 139.6 11.73
12/23/2022 8:45:00 AM 6.59 43.862 0.108 4.84 124.2 11.72
12/23/2022 9:00:00 AM 6.6 43.88 0.109 4.8 116 11.72
12/23/2022 9:15:00 AM 6.61 43.898 0.11 4.88 97.74 11.71
12/23/2022 9:30:00 AM 6.61 43.898 0.111 4.9 101.9 11.7
12/23/2022 9:45:00 AM 6.61 43.898 0.111 4.86 90.14 11.71
12/23/2022 10:00:00 AM 6.6 43.88 0.112 4.82 87.05 11.71
12/23/2022 10:15:00 AM 6.58 43.844 0.113 4.79 83.84 11.71
12/23/2022 10:30:00 AM 6.57 43.826 0.114 4.74 78.92 11.72
12/23/2022 10:45:00 AM 6.53 43.754 0.115 4.79 80.35 11.72
12/23/2022 11:00:00 AM 6.49 43.682 0.116 4.72 73.13 11.72
12/23/2022 11:15:00 AM 6.45 43.61 0.117 4.81 72.23 11.75
12/23/2022 11:30:00 AM 6.42 43.556 0.118 4.78 73.07 11.78
12/23/2022 11:45:00 AM 6.4 43.52 0.119 4.76 63.65 11.8
12/23/2022 12:00:00 PM 6.33 43.394 0.12 4.77 73.3 11.83
12/23/2022 12:15:00 PM 6.32 43.376 0.12 4.8 62.59 11.87
12/23/2022 12:30:00 PM 6.31 43.358 0.121 4.83 52.34 11.88
12/23/2022 12:45:00 PM 6.23 43.214 0.122 4.81 61.04 11.93
12/23/2022 1:00:00 PM 6.21 43.178 0.123 4.83 65.2 11.97
12/23/2022 1:15:00 PM 6.16 43.088 0.124 4.85 57.99 12
12/23/2022 1:30:00 PM 6.1 42.98 0.125 4.9 65.18 12.03
12/23/2022 1:45:00 PM 6.03 42.854 0.126 4.9 55.05 12.06
12/23/2022 2:00:00 PM 5.94 42.692 0.127 4.92 58.77 12.07
12/23/2022 2:15:00 PM 5.87 42.566 0.127 4.91 63.03 12.12
12/23/2022 2:30:00 PM 5.75 42.35 0.128 4.95 53.3 12.15
12/23/2022 2:45:00 PM 5.63 42.134 0.129 4.97 61.9 12.17
12/23/2022 3:00:00 PM 5.52 41.936 0.13 4.99 55.18 12.22
12/23/2022 3:15:00 PM 5.42 41.756 0.13 5.01 59.36 12.23
12/23/2022 3:30:00 PM 5.29 41.522 0.131 5.02 54.11 12.27
12/23/2022 3:45:00 PM 5.18 41.324 0.131 4.94 58.02 12.3
12/23/2022 4:00:00 PM 5.06 41.108 0.132 4.94 53.76 12.32
12/23/2022 4:15:00 PM 4.95 40.91 0.132 5.01 57.22 12.37
12/23/2022 4:30:00 PM 4.82 40.676 0.132 5.04 58.75 12.4
12/23/2022 4:45:00 PM 4.71 40.478 0.132 5.01 56.73 12.42
12/23/2022 5:00:00 PM 4.59 40.262 0.132 4.94 55.71 12.47
12/23/2022 5:15:00 PM 4.46 40.028 0.133 4.97 55.45 12.5
12/23/2022 5:30:00 PM 4.34 39.812 0.133 4.97 54.46 12.53
12/23/2022 5:45:00 PM 4.21 39.578 0.133 4.97 62.49 12.57
12/23/2022 6:00:00 PM 4.11 39.398 0.134 4.89 53.22 12.6
12/23/2022 6:15:00 PM 3.98 39.164 0.134 4.94 54.15 12.65
12/23/2022 6:30:00 PM 3.88 38.984 0.134 4.93 49.52 12.68
12/23/2022 6:45:00 PM 3.75 38.75 0.135 4.85 49.46 12.73
12/23/2022 7:00:00 PM 3.62 38.516 0.135 4.91 49.75 12.77
12/23/2022 7:15:00 PM 3.5 38.3 0.135 4.97 46.74 12.82
12/23/2022 7:30:00 PM 3.39 38.102 0.135 4.99 49.71 12.86
12/23/2022 7:45:00 PM 3.27 37.886 0.135 4.97 42.68 12.89
12/23/2022 8:00:00 PM 3.16 37.688 0.134 4.99 41.66 12.96
12/23/2022 8:15:00 PM 3.03 37.454 0.134 5.02 41.19 13.02
12/23/2022 8:30:00 PM 2.89 37.202 0.134 5.02 49.62 13.06
12/23/2022 8:45:00 PM 2.77 36.986 0.134 5.01 37.49 13.13
12/23/2022 9:00:00 PM 2.62 36.716 0.134 5.02 49.16 13.16
12/23/2022 9:15:00 PM 2.51 36.518 0.135 5.07 44.33 13.24
12/23/2022 9:30:00 PM 2.37 36.266 0.135 5.02 41.2 13.29
12/23/2022 9:45:00 PM 2.24 36.032 0.135 5.04 41.86 13.35
12/23/2022 10:00:00 PM 2.11 35.798 0.135 5.05 36.17 13.41
12/23/2022 10:15:00 PM 2 35.6 0.135 5.04 34.55 13.48
12/23/2022 10:30:00 PM 1.9 35.42 0.136 5.03 45.46 13.53
12/23/2022 10:45:00 PM 1.8 35.24 0.136 5.07 36.47 13.59
12/23/2022 11:00:00 PM 1.7 35.06 0.137 5.06 35.65 13.64
12/23/2022 11:15:00 PM 1.6 34.88 0.137 5.09 37.96 13.68
12/23/2022 11:30:00 PM 1.51 34.718 0.137 5.11 37.1 13.72
12/23/2022 11:45:00 PM 1.43 34.574 0.138 5.11 37.58 13.77
12/24/2022 12:00:00 AM 1.34 34.412 0.138 5.04 34.33 13.84
12/24/2022 12:15:00 AM 1.23 34.214 0.138 5.05 33.18 13.89
12/24/2022 12:30:00 AM 1.16 34.088 0.139 5.05 35.61 13.93
12/24/2022 12:45:00 AM 1.06 33.908 0.139 4.91 37.72 13.96
12/24/2022 1:00:00 AM 0.98 33.764 0.139 4.77 32.11 14
12/24/2022 1:15:00 AM 0.91 33.638 0.14 4.63 39.17 14.04
12/24/2022 1:30:00 AM 0.83 33.494 0.14 4.45 32.48 14.09
12/24/2022 1:45:00 AM 0.78 33.404 0.14 4.39 32.14 14.12
12/24/2022 2:00:00 AM 0.72 33.296 0.141 4.47 31.8 14.16
12/24/2022 2:15:00 AM 0.64 33.152 0.141 4.45 38.34 14.2
12/24/2022 2:30:00 AM 0.57 33.026 0.141 4.66 29.24 14.23
12/24/2022 2:45:00 AM 0.49 32.882 0.141 4.7 27.25 14.28
12/24/2022 3:00:00 AM 0.42 32.756 0.142 4.82 30.1 14.32
12/24/2022 3:15:00 AM 0.38 32.684 0.142 4.91 29.72 14.35
12/24/2022 3:30:00 AM 0.31 32.558 0.142 4.92 31.46 14.39
12/24/2022 3:45:00 AM 0.26 32.468 0.142 4.95 31.96 14.41
12/24/2022 4:00:00 AM 0.2 32.36 0.143 4.97 27.73 14.45
12/24/2022 4:15:00 AM 0.16 32.288 0.143 4.99 25.79 14.47
12/24/2022 4:30:00 AM 0.11 32.198 0.143 5.01 28.17 14.48
12/24/2022 4:45:00 AM 0.07 32.126 0.143 5 28.63 14.53
12/24/2022 5:00:00 AM 0.01 32.018 0.143 5.01 29.36 14.55
12/24/2022 5:15:00 AM -0.03 31.946 0.143 5.05 28.37 14.59
12/24/2022 5:30:00 AM -0.05 31.91 0.144 5.07 24.44 14.59
12/24/2022 5:45:00 AM -0.02 31.964 0.144 5.06 23.59 14.62
12/24/2022 6:00:00 AM -0.03 31.946 0.144 5.07 27.16 14.66
12/24/2022 6:15:00 AM -0.03 31.946 0.145 5.07 28.19 14.67
12/24/2022 6:30:00 AM -0.03 31.946 0.145 5.08 29.88 14.67
12/24/2022 6:45:00 AM 0 32 0.145 5 28.68 14.7
12/24/2022 7:00:00 AM -0.01 31.982 0.145 4.99 25.61 14.69
12/24/2022 7:15:00 AM -0.02 31.964 0.146 4.93 24.68 14.72
12/24/2022 7:30:00 AM -0.02 31.964 0.146 4.92 23.67 14.74
12/24/2022 7:45:00 AM -0.02 31.964 0.146 4.9 26.55 14.75
12/24/2022 8:00:00 AM -0.01 31.982 0.146 4.94 28.14 14.76
12/24/2022 8:15:00 AM -0.02 31.964 0.146 4.94 27.6 14.78
12/24/2022 8:30:00 AM 0 32 0.146 4.93 26.65 14.78
12/24/2022 8:45:00 AM -0.01 31.982 0.146 4.93 27.61 14.82
12/24/2022 9:00:00 AM 0 32 0.146 4.96 38.57 14.82
12/24/2022 9:15:00 AM 0 32 0.146 4.95 27.15 14.84
12/24/2022 9:30:00 AM 0 32 0.146 5.02 29.67 14.86
12/24/2022 9:45:00 AM -0.02 31.964 0.147 5.06 22.12 14.89
12/24/2022 10:00:00 AM -0.01 31.982 0.147 5.02 26.88 14.92
12/24/2022 10:15:00 AM 0 32 0.147 5.04 21.93 14.93
12/24/2022 10:30:00 AM -0.01 31.982 0.147 5.09 28.26 14.93
12/24/2022 10:45:00 AM 0 32 0.147 5.04 22.83 14.96
12/24/2022 11:00:00 AM -0.01 31.982 0.147 4.99 23.35 14.98
12/24/2022 11:15:00 AM 0.01 32.018 0.147 5.01 21.61 14.96
12/24/2022 11:30:00 AM 0 32 0.147 4.99 24.97 14.97
12/24/2022 11:45:00 AM 0 32 0.147 4.97 23.54 14.96
12/24/2022 12:00:00 PM 0 32 0.147 5.07 23.38 14.96
12/24/2022 12:15:00 PM -0.01 31.982 0.147 4.96 23.34 14.99
12/24/2022 12:30:00 PM 0 32 0.147 4.91 21.76 14.96
12/24/2022 12:45:00 PM 0.02 32.036 0.147 4.94 23.76 14.98
12/24/2022 1:00:00 PM 0.02 32.036 0.147 4.98 22.85 15
12/24/2022 1:15:00 PM 0.02 32.036 0.147 4.94 21.86 14.99
12/24/2022 1:30:00 PM 0.02 32.036 0.147 5.06 22.12 15
12/24/2022 1:45:00 PM 0.01 32.018 0.147 5.07 22.54 14.99
12/24/2022 2:00:00 PM 0 32 0.147 5.06 23.54 14.97
12/24/2022 2:15:00 PM -0.01 31.982 0.147 5.02 23.31 14.97
12/24/2022 2:30:00 PM 0.01 32.018 0.147 4.98 22.79 14.94
12/24/2022 2:45:00 PM 0.01 32.018 0.147 5.01 24.88 14.93
12/24/2022 3:00:00 PM 0.02 32.036 0.146 5.02 23.09 14.92
12/24/2022 3:15:00 PM 0.03 32.054 0.146 4.98 25.41 14.88
12/24/2022 3:30:00 PM 0.08 32.144 0.146 5.04 22.41 14.87
12/24/2022 3:45:00 PM 0.13 32.234 0.146 5.01 21.76 14.84
12/24/2022 4:00:00 PM 0.17 32.306 0.146 5.04 26.28 14.8
12/24/2022 4:15:00 PM 0.19 32.342 0.147 5.01 33.25 14.78
12/24/2022 4:30:00 PM 0.21 32.378 0.147 5 21.22 14.76
12/24/2022 4:45:00 PM 0.23 32.414 0.147 5.05 23.05 14.72
12/24/2022 5:00:00 PM 0.24 32.432 0.147 4.94 28.01 14.71
12/24/2022 5:15:00 PM 0.25 32.45 0.147 4.88 23.53 14.68
12/24/2022 5:30:00 PM 0.25 32.45 0.147 4.92 22.63 14.67
12/24/2022 5:45:00 PM 0.26 32.468 0.147 4.95 24.05 14.64
12/24/2022 6:00:00 PM 0.26 32.468 0.147 5 21.96 14.63
12/24/2022 6:15:00 PM 0.26 32.468 0.147 4.98 20.61 14.62
12/24/2022 6:30:00 PM 0.26 32.468 0.147 5 20.87 14.61
12/24/2022 6:45:00 PM 0.26 32.468 0.147 5 21.82 14.59
12/24/2022 7:00:00 PM 0.26 32.468 0.148 5 24.19 14.58
12/24/2022 7:15:00 PM 0.25 32.45 0.148 4.98 23.57 14.57
12/24/2022 7:30:00 PM 0.25 32.45 0.148 4.94 21.16 14.55
12/24/2022 7:45:00 PM 0.24 32.432 0.148 4.99 21.67 14.54
12/24/2022 8:00:00 PM 0.24 32.432 0.149 4.97 24.98 14.57
12/24/2022 8:15:00 PM 0.24 32.432 0.149 4.94 20.49 14.54
12/24/2022 8:30:00 PM 0.24 32.432 0.149 4.93 22.73 14.54
12/24/2022 8:45:00 PM 0.23 32.414 0.149 4.99 23.92 14.53
12/24/2022 9:00:00 PM 0.24 32.432 0.149 5 21.81 14.55
12/24/2022 9:15:00 PM 0.24 32.432 0.15 5.04 22.71 14.55
12/24/2022 9:30:00 PM 0.24 32.432 0.149 5.06 27.14 14.54
12/24/2022 9:45:00 PM 0.24 32.432 0.149 5.09 21.19 14.56
12/24/2022 10:00:00 PM 0.25 32.45 0.149 5.06 22.52 14.56
12/24/2022 10:15:00 PM 0.25 32.45 0.149 4.97 21.2 14.54
12/24/2022 10:30:00 PM 0.25 32.45 0.149 4.97 20.51 14.55
12/24/2022 10:45:00 PM 0.25 32.45 0.149 5.03 23.6 14.56
12/24/2022 11:00:00 PM 0.26 32.468 0.149 5.03 20.63 14.55
12/24/2022 11:15:00 PM 0.27 32.486 0.149 4.94 21.49 14.55
12/24/2022 11:30:00 PM 0.28 32.504 0.149 4.95 21.49 14.56
12/24/2022 11:45:00 PM 0.29 32.522 0.149 4.97 22.15 14.55
12/25/2022 12:00:00 AM 0.29 32.522 0.149 4.91 22.3 14.57
12/25/2022 12:15:00 AM 0.3 32.54 0.149 4.92 21.55 14.57
12/25/2022 12:30:00 AM 0.3 32.54 0.149 4.93 21.39 14.56
12/25/2022 12:45:00 AM 0.31 32.558 0.149 4.91 21.37 14.57
12/25/2022 1:00:00 AM 0.31 32.558 0.15 4.94 23.41 14.56
12/25/2022 1:15:00 AM 0.32 32.576 0.15 4.93 27.31 14.54
12/25/2022 1:30:00 AM 0.32 32.576 0.15 4.89 28.53 14.56
12/25/2022 1:45:00 AM 0.32 32.576 0.15 4.89 22.36 14.56
12/25/2022 2:00:00 AM 0.32 32.576 0.15 4.9 22.3 14.54
12/25/2022 2:15:00 AM 0.31 32.558 0.15 4.92 29.06 14.54
12/25/2022 2:30:00 AM 0.32 32.576 0.15 4.91 21.85 14.54
12/25/2022 2:45:00 AM 0.31 32.558 0.15 4.95 21.21 14.54
12/25/2022 3:00:00 AM 0.31 32.558 0.15 4.94 22.55 14.54
12/25/2022 3:15:00 AM 0.31 32.558 0.15 4.95 29.61 14.54
12/25/2022 3:30:00 AM 0.32 32.576 0.15 4.98 26.21 14.54
12/25/2022 3:45:00 AM 0.29 32.522 0.15 5 21 14.53
12/25/2022 4:00:00 AM 0.29 32.522 0.15 5.03 23.57 14.54
12/25/2022 4:15:00 AM 0.27 32.486 0.15 4.94 22.59 14.52
12/25/2022 4:30:00 AM 0.27 32.486 0.15 4.97 20.96 14.55
12/25/2022 4:45:00 AM 0.26 32.468 0.15 4.92 21.23 14.55
12/25/2022 5:00:00 AM 0.24 32.432 0.15 5.08 23.36 14.56
12/25/2022 5:15:00 AM 0.25 32.45 0.15 5.1 24.46 14.57
12/25/2022 5:30:00 AM 0.23 32.414 0.15 5.1 21.97 14.57
12/25/2022 5:45:00 AM 0.23 32.414 0.15 5.12 22.19 14.58
12/25/2022 6:00:00 AM 0.22 32.396 0.15 5.12 21.42 14.57
12/25/2022 6:15:00 AM 0.22 32.396 0.151 5.1 22.23 14.56
12/25/2022 6:30:00 AM 0.22 32.396 0.15 5.1 23.3 14.58
12/25/2022 6:45:00 AM 0.21 32.378 0.151 5.07 23.34 14.57
12/25/2022 7:00:00 AM 0.2 32.36 0.151 4.95 21.52 14.58
12/25/2022 7:15:00 AM 0.2 32.36 0.151 4.83 22.9 14.57
12/25/2022 7:30:00 AM 0.19 32.342 0.151 4.62 23.8 14.59
12/25/2022 7:45:00 AM 0.19 32.342 0.151 4.65 22.75 14.6
12/25/2022 8:00:00 AM 0.19 32.342 0.151 4.75 26.65 14.6
12/25/2022 8:15:00 AM 0.19 32.342 0.151 4.81 24.72 14.63
12/25/2022 8:30:00 AM 0.2 32.36 0.151 4.77 20.79 14.66
12/25/2022 8:45:00 AM 0.23 32.414 0.151 4.77 26.47 14.68
12/25/2022 9:00:00 AM 0.26 32.468 0.151 4.75 24.96 14.69
12/25/2022 9:15:00 AM 0.27 32.486 0.151 4.79 24.12 14.71
12/25/2022 9:30:00 AM 0.3 32.54 0.151 4.76 25.07 14.72
12/25/2022 9:45:00 AM 0.32 32.576 0.151 4.75 20.39 14.73
12/25/2022 10:00:00 AM 0.36 32.648 0.151 4.8 20.41 14.73
12/25/2022 10:15:00 AM 0.42 32.756 0.151 4.79 20.95 14.75
12/25/2022 10:30:00 AM 0.52 32.936 0.15 4.77 24.17 14.76
12/25/2022 10:45:00 AM 0.56 33.008 0.151 4.78 20.49 14.75
12/25/2022 11:00:00 AM 0.61 33.098 0.151 4.76 20.33 14.73
12/25/2022 11:15:00 AM 0.72 33.296 0.151 4.75 19.91 14.74
12/25/2022 11:30:00 AM 0.86 33.548 0.15 4.76 20.82 14.73
12/25/2022 11:45:00 AM 0.94 33.692 0.151 4.75 23.9 14.71
12/25/2022 12:00:00 PM 0.99 33.782 0.151 4.76 21.87 14.7
12/25/2022 12:15:00 PM 1.06 33.908 0.151 4.8 21.02 14.68
12/25/2022 12:30:00 PM 1.11 33.998 0.151 4.81 20.88 14.66
12/25/2022 12:45:00 PM 1.2 34.16 0.15 4.91 21.88 14.65
12/25/2022 1:00:00 PM 1.28 34.304 0.15 4.92 22.05 14.61
12/25/2022 1:15:00 PM 1.35 34.43 0.15 4.81 19.22 14.6
12/25/2022 1:30:00 PM 1.36 34.448 0.15 4.98 20.94 14.58
12/25/2022 1:45:00 PM 1.39 34.502 0.15 5 22.05 14.56
12/25/2022 2:00:00 PM 1.41 34.538 0.15 5.03 29.3 14.54
12/25/2022 2:15:00 PM 1.43 34.574 0.151 5.05 21.66 14.52
12/25/2022 2:30:00 PM 1.45 34.61 0.15 5.07 28.78 14.5
12/25/2022 2:45:00 PM 1.47 34.646 0.151 5.06 20.86 14.47
12/25/2022 3:00:00 PM 1.46 34.628 0.151 5.07 25.44 14.46
12/25/2022 3:15:00 PM 1.44 34.592 0.151 5.06 28.51 14.43
12/25/2022 3:30:00 PM 1.42 34.556 0.151 5.08 22.42 14.4
12/25/2022 3:45:00 PM 1.41 34.538 0.151 5.09 29 14.39
12/25/2022 4:00:00 PM 1.4 34.52 0.151 5.08 31.97 14.36
12/25/2022 4:15:00 PM 1.39 34.502 0.151 5.1 19.74 14.32
12/25/2022 4:30:00 PM 1.37 34.466 0.151 5.08 20.22 14.31
12/25/2022 4:45:00 PM 1.36 34.448 0.151 5.08 25.34 14.32
12/25/2022 5:00:00 PM 1.35 34.43 0.151 5.08 25.4 14.27
12/25/2022 5:15:00 PM 1.34 34.412 0.151 5.08 23.26 14.25
12/25/2022 5:30:00 PM 1.34 34.412 0.151 5.09 22.1 14.23
12/25/2022 5:45:00 PM 1.34 34.412 0.151 5.09 21.91 14.19
12/25/2022 6:00:00 PM 1.35 34.43 0.151 5.09 25.63 14.18
12/25/2022 6:15:00 PM 1.35 34.43 0.151 5.08 24.27 14.18
12/25/2022 6:30:00 PM 1.35 34.43 0.151 5.08 29.79 14.14
12/25/2022 6:45:00 PM 1.35 34.43 0.151 5.02 25.09 14.14
12/25/2022 7:00:00 PM 1.34 34.412 0.151 4.86 25.12 14.14
12/25/2022 7:15:00 PM 1.34 34.412 0.151 4.81 28.5 14.13
12/25/2022 7:30:00 PM 1.33 34.394 0.151 4.84 22 14.12
12/25/2022 7:45:00 PM 1.32 34.376 0.151 4.89 27.02 14.12
12/25/2022 8:00:00 PM 1.31 34.358 0.151 4.89 29.97 14.13
12/25/2022 8:15:00 PM 1.3 34.34 0.151 4.88 20.94 14.11
12/25/2022 8:30:00 PM 1.3 34.34 0.151 4.9 22.25 14.13
12/25/2022 8:45:00 PM 1.3 34.34 0.151 4.91 30 14.11
12/25/2022 9:00:00 PM 1.3 34.34 0.151 4.95 23.35 14.1
12/25/2022 9:15:00 PM 1.29 34.322 0.152 4.84 23.82 14.12
12/25/2022 9:30:00 PM 1.28 34.304 0.152 4.94 25.26 14.13
12/25/2022 9:45:00 PM 1.26 34.268 0.152 4.92 21.32 14.11
12/25/2022 10:00:00 PM 1.25 34.25 0.152 4.87 21.39 14.12
12/25/2022 10:15:00 PM 1.23 34.214 0.152 4.95 20.73 14.15
12/25/2022 10:30:00 PM 1.21 34.178 0.152 4.8 23.4 14.16
12/25/2022 10:45:00 PM 1.19 34.142 0.152 4.82 21.6 14.17
12/25/2022 11:00:00 PM 1.17 34.106 0.152 4.85 32.11 14.17
12/25/2022 11:15:00 PM 1.15 34.07 0.153 4.87 21.2 14.19
12/25/2022 11:30:00 PM 1.12 34.016 0.153 4.82 21.18 14.2
12/25/2022 11:45:00 PM 1.1 33.98 0.153 4.86 30.89 14.21
12/26/2022 12:00:00 AM 1.08 33.944 0.153 4.87 22.45 14.23
12/26/2022 12:15:00 AM 1.05 33.89 0.153 4.84 28.21 14.23
12/26/2022 12:30:00 AM 1.02 33.836 0.153 4.86 21.19 14.25
12/26/2022 12:45:00 AM 0.99 33.782 0.153 4.89 20.95 14.25
12/26/2022 1:00:00 AM 0.96 33.728 0.153 4.75 26.12 14.27
12/26/2022 1:15:00 AM 0.93 33.674 0.153 4.67 32.74 14.28
12/26/2022 1:30:00 AM 0.9 33.62 0.154 4.67 24.04 14.31
12/26/2022 1:45:00 AM 0.87 33.566 0.154 4.75 22.82 14.33
12/26/2022 2:00:00 AM 0.83 33.494 0.154 4.71 28.5 14.34
12/26/2022 2:15:00 AM 0.8 33.44 0.154 4.74 26.74 14.33
12/26/2022 2:30:00 AM 0.77 33.386 0.154 4.75 24.59 14.37
12/26/2022 2:45:00 AM 0.73 33.314 0.154 4.75 28.93 14.39
12/26/2022 3:00:00 AM 0.69 33.242 0.154 4.81 30.03 14.42
12/26/2022 3:15:00 AM 0.66 33.188 0.154 4.76 28.29 14.43
12/26/2022 3:30:00 AM 0.63 33.134 0.154 4.76 22.27 14.46
12/26/2022 3:45:00 AM 0.6 33.08 0.154 4.9 24.46 14.46
12/26/2022 4:00:00 AM 0.56 33.008 0.154 4.92 32.42 14.48
12/26/2022 4:15:00 AM 0.52 32.936 0.154 4.94 23.45 14.52
12/26/2022 4:30:00 AM 0.5 32.9 0.154 4.95 21.71 14.53
12/26/2022 4:45:00 AM 0.47 32.846 0.154 4.94 24.51 14.54
12/26/2022 5:00:00 AM 0.44 32.792 0.154 4.97 24.88 14.54
12/26/2022 5:15:00 AM 0.41 32.738 0.154 4.76 36.11 14.56
12/26/2022 5:30:00 AM 0.37 32.666 0.154 4.84 43.78 14.59
12/26/2022 5:45:00 AM 0.34 32.612 0.154 4.85 23.59 14.61
12/26/2022 6:00:00 AM 0.31 32.558 0.154 4.87 23.28 14.63
12/26/2022 6:15:00 AM 0.27 32.486 0.154 4.92 23.26 14.64
12/26/2022 6:30:00 AM 0.24 32.432 0.154 4.86 22.47 14.67
12/26/2022 6:45:00 AM 0.22 32.396 0.154 4.89 28.77 14.68
12/26/2022 7:00:00 AM 0.19 32.342 0.154 4.8 33.76 14.71
12/26/2022 7:15:00 AM 0.16 32.288 0.155 4.8 23.47 14.73
12/26/2022 7:30:00 AM 0.12 32.216 0.155 4.84 21.96 14.75
12/26/2022 7:45:00 AM 0.1 32.18 0.155 4.95 24.55 14.75
12/26/2022 8:00:00 AM 0.08 32.144 0.155 4.92 26.07 14.81
12/26/2022 8:15:00 AM 0.05 32.09 0.155 4.91 31.26 14.81
12/26/2022 8:30:00 AM 0.03 32.054 0.155 4.87 22.45 14.84
12/26/2022 8:45:00 AM 0.02 32.036 0.155 4.87 30.43 14.88
12/26/2022 9:00:00 AM 0.01 32.018 0.155 4.78 26.87 14.92
12/26/2022 9:15:00 AM 0.02 32.036 0.155 4.75 27.47 14.93
12/26/2022 9:30:00 AM 0.03 32.054 0.155 4.56 33.31 14.95
12/26/2022 9:45:00 AM 0.05 32.09 0.155 3.79 25.4 14.98
12/26/2022 10:00:00 AM 0.09 32.162 0.155 4.14 23.21 15
12/26/2022 10:15:00 AM 0.14 32.252 0.155 4.56 25.17 15.01
12/26/2022 10:30:00 AM 0.21 32.378 0.155 4.54 20.15 15.02
12/26/2022 10:45:00 AM 0.29 32.522 0.155 4.48 23 15.01
12/26/2022 11:00:00 AM 0.38 32.684 0.155 4.33 25.12 15.02
12/26/2022 11:15:00 AM 0.47 32.846 0.155 4.48 29.19 15.02
12/26/2022 11:30:00 AM 0.57 33.026 0.155 4.56 26.11 15
12/26/2022 11:45:00 AM 0.66 33.188 0.155 4.53 20.25 15
12/26/2022 12:00:00 PM 0.75 33.35 0.155 4.5 21.15 15
12/26/2022 12:15:00 PM 0.83 33.494 0.155 4.57 21.66 14.96
12/26/2022 12:30:00 PM 0.93 33.674 0.155 4.53 22.68 14.96
12/26/2022 12:45:00 PM 1.02 33.836 0.155 4.63 24.19 14.94
12/26/2022 1:00:00 PM 1.09 33.962 0.154 4.67 24.87 14.92
12/26/2022 1:15:00 PM 1.15 34.07 0.154 4.73 21.89 14.9
12/26/2022 1:30:00 PM 1.18 34.124 0.154 4.74 23.14 14.89
12/26/2022 1:45:00 PM 1.19 34.142 0.154 4.76 21.76 14.86
12/26/2022 2:00:00 PM 1.22 34.196 0.154 4.76 25.14 14.84
12/26/2022 2:15:00 PM 1.26 34.268 0.154 4.81 23.85 14.81
12/26/2022 2:30:00 PM 1.29 34.322 0.154 4.8 34.45 14.8
12/26/2022 2:45:00 PM 1.32 34.376 0.154 4.87 24.31 14.78
12/26/2022 3:00:00 PM 1.34 34.412 0.154 4.89 27.09 14.75
12/26/2022 3:15:00 PM 1.37 34.466 0.154 4.74 26.72 14.7
12/26/2022 3:30:00 PM 1.39 34.502 0.154 4.69 26.49 14.69
12/26/2022 3:45:00 PM 1.41 34.538 0.154 4.69 19.52 14.67
12/26/2022 4:00:00 PM 1.44 34.592 0.154 4.73 21.51 14.62
12/26/2022 4:15:00 PM 1.46 34.628 0.154 4.69 27.3 14.59
12/26/2022 4:30:00 PM 1.48 34.664 0.154 4.69 20.09 14.54
12/26/2022 4:45:00 PM 1.49 34.682 0.154 4.79 28.4 14.5
12/26/2022 5:00:00 PM 1.5 34.7 0.154 4.72 20.1 14.46
12/26/2022 5:15:00 PM 1.52 34.736 0.154 4.72 19.98 14.43
12/26/2022 5:30:00 PM 1.54 34.772 0.154 4.75 23.81 14.38
12/26/2022 5:45:00 PM 1.55 34.79 0.154 4.76 27.5 14.33
12/26/2022 6:00:00 PM 1.57 34.826 0.154 4.71 37.37 14.31
12/26/2022 6:15:00 PM 1.59 34.862 0.154 4.72 19.13 14.29
12/26/2022 6:30:00 PM 1.61 34.898 0.154 4.73 24.06 14.28
12/26/2022 6:45:00 PM 1.62 34.916 0.154 4.73 23.56 14.24
12/26/2022 7:00:00 PM 1.63 34.934 0.154 4.72 28.99 14.22
12/26/2022 7:15:00 PM 1.64 34.952 0.154 4.74 33.78 14.2
12/26/2022 7:30:00 PM 1.66 34.988 0.154 4.86 20.82 14.15
12/26/2022 7:45:00 PM 1.69 35.042 0.154 4.86 23.49 14.15
12/26/2022 8:00:00 PM 1.72 35.096 0.154 4.87 24.98 14.11
12/26/2022 8:15:00 PM 1.75 35.15 0.154 4.85 21.32 14.09
12/26/2022 8:30:00 PM 1.79 35.222 0.154 4.85 29.58 14.08
12/26/2022 8:45:00 PM 1.83 35.294 0.154 4.91 22.3 14.06
12/26/2022 9:00:00 PM 1.86 35.348 0.154 4.82 25.41 14.04
12/26/2022 9:15:00 PM 1.89 35.402 0.154 4.78 21.83 14.01
12/26/2022 9:30:00 PM 1.92 35.456 0.155 4.78 21.66 14.01
12/26/2022 9:45:00 PM 1.95 35.51 0.155 4.83 24.04 13.97
12/26/2022 10:00:00 PM 1.98 35.564 0.155 4.85 26.51 13.95
12/26/2022 10:15:00 PM 2.01 35.618 0.155 4.76 26.4 13.96
12/26/2022 10:30:00 PM 2.04 35.672 0.155 4.79 22.87 13.94
12/26/2022 10:45:00 PM 2.07 35.726 0.155 4.94 23.46 13.93
12/26/2022 11:00:00 PM 2.09 35.762 0.155 4.83 34.48 13.92
12/26/2022 11:15:00 PM 2.11 35.798 0.155 4.89 20.24 13.91
12/26/2022 11:30:00 PM 2.13 35.834 0.155 4.82 26.21 13.89
12/26/2022 11:45:00 PM 2.15 35.87 0.155 4.85 19.48 13.9
12/27/2022 12:00:00 AM 2.16 35.888 0.155 4.8 29.45 13.88
12/27/2022 12:15:00 AM 2.16 35.888 0.155 4.85 24.38 13.88
12/27/2022 12:30:00 AM 2.16 35.888 0.155 4.84 25.55 13.88
12/27/2022 12:45:00 AM 2.17 35.906 0.155 4.83 23.12 13.89
12/27/2022 1:00:00 AM 2.18 35.924 0.155 4.84 32.16 13.88
12/27/2022 1:15:00 AM 2.19 35.942 0.155 4.95 24.73 13.86
12/27/2022 1:30:00 AM 2.19 35.942 0.155 4.96 24.99 13.87
12/27/2022 1:45:00 AM 2.2 35.96 0.155 4.89 25.23 13.85
12/27/2022 2:00:00 AM 2.21 35.978 0.155 4.95 23.13 13.85
12/27/2022 2:15:00 AM 2.21 35.978 0.155 4.9 20.95 13.84
12/27/2022 2:30:00 AM 2.22 35.996 0.155 4.99 29.56 13.86
12/27/2022 2:45:00 AM 2.22 35.996 0.155 4.81 30.41 13.85
12/27/2022 3:00:00 AM 2.23 36.014 0.155 4.95 19.63 13.85
12/27/2022 3:15:00 AM 2.23 36.014 0.155 4.95 19.78 13.85
12/27/2022 3:30:00 AM 2.23 36.014 0.155 4.87 28.01 13.85
12/27/2022 3:45:00 AM 2.24 36.032 0.155 4.84 25.08 13.86
12/27/2022 4:00:00 AM 2.25 36.05 0.155 4.8 26.45 13.85
12/27/2022 4:15:00 AM 2.25 36.05 0.155 4.76 24.73 13.85
12/27/2022 4:30:00 AM 2.25 36.05 0.155 4.74 25.13 13.85
12/27/2022 4:45:00 AM 2.26 36.068 0.155 4.88 22.21 13.84
12/27/2022 5:00:00 AM 2.26 36.068 0.155 4.87 20.71 13.83
12/27/2022 5:15:00 AM 2.27 36.086 0.156 4.84 25.02 13.82
12/27/2022 5:30:00 AM 2.27 36.086 0.156 4.82 20.95 13.84
12/27/2022 5:45:00 AM 2.28 36.104 0.156 4.8 27.12 13.84
12/27/2022 6:00:00 AM 2.28 36.104 0.156 4.78 33.09 13.85
12/27/2022 6:15:00 AM 2.29 36.122 0.156 4.82 23.36 13.84
12/27/2022 6:30:00 AM 2.29 36.122 0.156 4.81 23 13.83
12/27/2022 6:45:00 AM 2.28 36.104 0.156 4.92 25.83 13.84
12/27/2022 7:00:00 AM 2.29 36.122 0.156 4.86 23.08 13.83
12/27/2022 7:15:00 AM 2.29 36.122 0.156 4.82 32.21 13.84
12/27/2022 7:30:00 AM 2.29 36.122 0.156 4.84 22.32 13.84
12/27/2022 7:45:00 AM 2.3 36.14 0.156 4.82 23.51 13.84
12/27/2022 8:00:00 AM 2.31 36.158 0.156 4.85 19.61 13.85
12/27/2022 8:15:00 AM 2.32 36.176 0.156 4.83 22.7 13.88
12/27/2022 8:30:00 AM 2.34 36.212 0.156 4.89 24.13 13.9
12/27/2022 8:45:00 AM 2.37 36.266 0.156 4.86 26.9 13.92
12/27/2022 9:00:00 AM 2.4 36.32 0.156 4.84 24.32 13.94
12/27/2022 9:15:00 AM 2.44 36.392 0.156 4.87 25.62 13.96
12/27/2022 9:30:00 AM 2.48 36.464 0.156 4.87 19.61 13.99
12/27/2022 9:45:00 AM 2.52 36.536 0.156 4.83 21.06 14
12/27/2022 10:00:00 AM 2.57 36.626 0.156 4.83 28.98 14.01
12/27/2022 10:15:00 AM 2.63 36.734 0.156 4.84 24.41 14.01
12/27/2022 10:30:00 AM 2.69 36.842 0.155 4.85 27.73 14.03
12/27/2022 10:45:00 AM 2.75 36.95 0.155 4.83 27.28 14.04
12/27/2022 11:00:00 AM 2.83 37.094 0.155 4.81 22.12 14.05
12/27/2022 11:15:00 AM 2.91 37.238 0.155 4.85 21.98 14.05
12/27/2022 11:30:00 AM 2.99 37.382 0.155 4.86 21.85 14.02
12/27/2022 11:45:00 AM 3.06 37.508 0.155 4.96 27.8 14.03
12/27/2022 12:00:00 PM 3.13 37.634 0.155 4.89 25.97 14.02
12/27/2022 12:15:00 PM 3.2 37.76 0.155 4.94 20.44 14
12/27/2022 12:30:00 PM 3.32 37.976 0.155 4.92 29.43 13.97
12/27/2022 12:45:00 PM 3.39 38.102 0.155 4.87 21.41 13.98
12/27/2022 1:00:00 PM 3.47 38.246 0.155 4.76 19.89 13.96
12/27/2022 1:15:00 PM 3.58 38.444 0.155 4.78 21.92 13.92
12/27/2022 1:30:00 PM 3.59 38.462 0.155 4.73 23.86 13.92
12/27/2022 1:45:00 PM 3.63 38.534 0.155 4.83 32.79 13.88
12/27/2022 2:00:00 PM 3.7 38.66 0.155 4.81 40.17 13.85
12/27/2022 2:15:00 PM 3.73 38.714 0.155 4.81 27.48 13.85
12/27/2022 2:30:00 PM 3.74 38.732 0.155 4.88 24.04 13.82
12/27/2022 2:45:00 PM 3.76 38.768 0.155 4.87 22.29 13.78
12/27/2022 3:00:00 PM 3.78 38.804 0.154 4.88 29.68 13.75
12/27/2022 3:15:00 PM 3.8 38.84 0.154 4.89 21.45 13.72
12/27/2022 3:30:00 PM 3.82 38.876 0.154 4.87 23.22 13.68
12/27/2022 3:45:00 PM 3.82 38.876 0.154 4.74 26.31 13.66
12/27/2022 4:00:00 PM 3.83 38.894 0.155 4.75 26.12 13.63
12/27/2022 4:15:00 PM 3.83 38.894 0.155 4.73 24.81 13.58
12/27/2022 4:30:00 PM 3.83 38.894 0.155 4.77 25.9 13.54
12/27/2022 4:45:00 PM 3.83 38.894 0.155 4.73 33.82 13.51
12/27/2022 5:00:00 PM 3.83 38.894 0.155 4.72 37.13 13.45
12/27/2022 5:15:00 PM 3.82 38.876 0.155 4.76 29.5 13.42
12/27/2022 5:30:00 PM 3.82 38.876 0.155 4.76 18.75 13.39
12/27/2022 5:45:00 PM 3.82 38.876 0.155 4.82 21.58 13.37
12/27/2022 6:00:00 PM 3.82 38.876 0.155 4.85 37.75 13.34
12/27/2022 6:15:00 PM 3.82 38.876 0.155 4.86 26.8 13.32
12/27/2022 6:30:00 PM 3.82 38.876 0.155 4.91 21.23 13.31
12/27/2022 6:45:00 PM 3.82 38.876 0.155 4.9 22.4 13.28
12/27/2022 7:00:00 PM 3.83 38.894 0.155 4.88 31.95 13.27
12/27/2022 7:15:00 PM 3.83 38.894 0.155 4.84 22.6 13.27
12/27/2022 7:30:00 PM 3.83 38.894 0.155 4.85 39.69 13.25
12/27/2022 7:45:00 PM 3.84 38.912 0.155 4.9 35.83 13.23
12/27/2022 8:00:00 PM 3.84 38.912 0.155 4.92 31.77 13.22
12/27/2022 8:15:00 PM 3.85 38.93 0.155 4.8 28.42 13.22
12/27/2022 8:30:00 PM 3.86 38.948 0.155 4.76 32.54 13.21
12/27/2022 8:45:00 PM 3.86 38.948 0.155 4.73 21.13 13.19
12/27/2022 9:00:00 PM 3.87 38.966 0.155 4.86 24.69 13.18
12/27/2022 9:15:00 PM 3.88 38.984 0.155 4.83 20.17 13.19
12/27/2022 9:30:00 PM 3.88 38.984 0.155 4.89 27.38 13.17
12/27/2022 9:45:00 PM 3.88 38.984 0.155 4.74 24.73 13.18
12/27/2022 10:00:00 PM 3.88 38.984 0.155 4.73 45.42 13.17
12/27/2022 10:15:00 PM 3.87 38.966 0.155 4.79 35.02 13.16
12/27/2022 10:30:00 PM 3.84 38.912 0.155 4.87 26.68 13.17
12/27/2022 10:45:00 PM 3.81 38.858 0.155 4.85 35.04 13.18
12/27/2022 11:00:00 PM 3.79 38.822 0.156 4.82 25.67 13.18
12/27/2022 11:15:00 PM 3.76 38.768 0.156 4.82 29.57 13.18
12/27/2022 11:30:00 PM 3.73 38.714 0.156 4.75 23.88 13.19
12/27/2022 11:45:00 PM 3.69 38.642 0.156 4.75 42.09 13.18
12/28/2022 12:00:00 AM 3.66 38.588 0.156 4.76 37.04 13.21
12/28/2022 12:15:00 AM 3.62 38.516 0.156 4.76 27.76 13.22
12/28/2022 12:30:00 AM 3.59 38.462 0.156 4.77 36.37 13.23
12/28/2022 12:45:00 AM 3.55 38.39 0.156 4.91 31.27 13.22
12/28/2022 1:00:00 AM 3.51 38.318 0.156 4.87 23.96 13.25
12/28/2022 1:15:00 AM 3.47 38.246 0.156 4.92 23.97 13.26
12/28/2022 1:30:00 AM 3.43 38.174 0.157 4.86 33.57 13.28
12/28/2022 1:45:00 AM 3.4 38.12 0.157 4.76 30.04 13.3
12/28/2022 2:00:00 AM 3.36 38.048 0.157 4.89 34.59 13.3
12/28/2022 2:15:00 AM 3.32 37.976 0.157 4.92 27.31 13.33
12/28/2022 2:30:00 AM 3.28 37.904 0.158 4.97 22.84 13.32
12/28/2022 2:45:00 AM 3.24 37.832 0.158 4.96 29.38 13.35
12/28/2022 3:00:00 AM 3.2 37.76 0.158 4.97 32.18 13.36
12/28/2022 3:15:00 AM 3.16 37.688 0.158 4.92 25.92 13.37
12/28/2022 3:30:00 AM 3.12 37.616 0.158 4.82 23.03 13.39
12/28/2022 3:45:00 AM 3.08 37.544 0.158 4.79 25.15 13.41
12/28/2022 4:00:00 AM 3.04 37.472 0.159 4.82 26.64 13.43
12/28/2022 4:15:00 AM 3 37.4 0.159 4.82 26.19 13.44
12/28/2022 4:30:00 AM 2.96 37.328 0.159 4.82 32.67 13.45
12/28/2022 4:45:00 AM 2.92 37.256 0.159 4.9 22.07 13.49
12/28/2022 5:00:00 AM 2.88 37.184 0.159 4.83 27.84 13.5
12/28/2022 5:15:00 AM 2.84 37.112 0.159 4.83 28.1 13.52
12/28/2022 5:30:00 AM 2.8 37.04 0.159 4.93 34.55 13.55
12/28/2022 5:45:00 AM 2.75 36.95 0.159 4.82 24.7 13.56
12/28/2022 6:00:00 AM 2.71 36.878 0.159 4.87 31.25 13.57
12/28/2022 6:15:00 AM 2.67 36.806 0.159 4.87 34.95 13.59
12/28/2022 6:30:00 AM 2.63 36.734 0.159 4.85 32.35 13.6
12/28/2022 6:45:00 AM 2.59 36.662 0.159 4.82 34.19 13.63
12/28/2022 7:00:00 AM 2.54 36.572 0.159 4.86 30.24 13.64
12/28/2022 7:15:00 AM 2.5 36.5 0.159 4.97 25.28 13.66
12/28/2022 7:30:00 AM 2.46 36.428 0.159 4.9 35.19 13.69
12/28/2022 7:45:00 AM 2.42 36.356 0.159 4.83 47.51 13.72
12/28/2022 8:00:00 AM 2.39 36.302 0.159 4.87 40.96 13.74
12/28/2022 8:15:00 AM 2.35 36.23 0.159 4.91 27.73 13.76
12/28/2022 8:30:00 AM 2.32 36.176 0.159 4.85 30.26 13.81
12/28/2022 8:45:00 AM 2.3 36.14 0.159 4.86 28.03 13.86
12/28/2022 9:00:00 AM 2.27 36.086 0.159 4.92 32.48 13.9
12/28/2022 9:15:00 AM 2.26 36.068 0.159 4.91 31.43 13.92
12/28/2022 9:30:00 AM 2.25 36.05 0.159 5.01 41.03 13.95
12/28/2022 9:45:00 AM 2.25 36.05 0.159 5.02 26.69 13.99
12/28/2022 10:00:00 AM 2.28 36.104 0.159 5.02 29.93 14.03
12/28/2022 10:15:00 AM 2.31 36.158 0.159 4.89 27.28 14.05
12/28/2022 10:30:00 AM 2.38 36.284 0.159 4.96 39.77 14.08
12/28/2022 10:45:00 AM 2.46 36.428 0.158 4.97 29.14 14.11
12/28/2022 11:00:00 AM 2.57 36.626 0.158 4.98 29.36 14.12
12/28/2022 11:15:00 AM 2.67 36.806 0.158 5 23.72 14.13
12/28/2022 11:30:00 AM 2.77 36.986 0.158 4.96 23.96 14.14
12/28/2022 11:45:00 AM 2.87 37.166 0.158 4.7 28.8 14.12
12/28/2022 12:00:00 PM 2.95 37.31 0.158 4.84 30.62 14.11
12/28/2022 12:15:00 PM 3.03 37.454 0.158 4.84 27.58 14.1
12/28/2022 12:30:00 PM 3.13 37.634 0.158 4.64 20.97 14.08
12/28/2022 12:45:00 PM 3.26 37.868 0.158 4.65 31.95 14.07
12/28/2022 1:00:00 PM 3.37 38.066 0.157 4.64 28.22 14.04
12/28/2022 1:15:00 PM 3.46 38.228 0.157 4.67 23.57 14.03
12/28/2022 1:30:00 PM 3.52 38.336 0.157 4.66 25.81 13.99
12/28/2022 1:45:00 PM 3.57 38.426 0.157 4.72 28.97 14
12/28/2022 2:00:00 PM 3.59 38.462 0.157 4.71 26.12 13.97
12/28/2022 2:15:00 PM 3.61 38.498 0.157 4.74 23.28 13.94
12/28/2022 2:30:00 PM 3.63 38.534 0.157 4.73 29.27 13.91
12/28/2022 2:45:00 PM 3.64 38.552 0.157 4.79 22.1 13.87
12/28/2022 3:00:00 PM 3.62 38.516 0.157 4.77 31.02 13.84
12/28/2022 3:15:00 PM 3.62 38.516 0.157 4.95 26.69 13.81
12/28/2022 3:30:00 PM 3.61 38.498 0.157 4.94 26.48 13.78
12/28/2022 3:45:00 PM 3.59 38.462 0.157 4.96 22.11 13.75
12/28/2022 4:00:00 PM 3.59 38.462 0.157 4.96 24.96 13.72
12/28/2022 4:15:00 PM 3.58 38.444 0.157 4.96 33.92 13.7
12/28/2022 4:30:00 PM 3.57 38.426 0.157 4.96 32.62 13.65
12/28/2022 4:45:00 PM 3.56 38.408 0.157 4.89 39.06 13.61
12/28/2022 5:00:00 PM 3.55 38.39 0.157 4.99 29.25 13.55
12/28/2022 5:15:00 PM 3.54 38.372 0.157 4.99 30.01 13.53
12/28/2022 5:30:00 PM 3.53 38.354 0.157 4.96 28.51 13.5
12/28/2022 5:45:00 PM 3.52 38.336 0.157 4.99 22.55 13.48
12/28/2022 6:00:00 PM 3.52 38.336 0.157 4.98 26.5 13.44
12/28/2022 6:15:00 PM 3.51 38.318 0.157 4.84 28.71 13.41
12/28/2022 6:30:00 PM 3.51 38.318 0.157 4.83 31.2 13.41
12/28/2022 6:45:00 PM 3.51 38.318 0.157 4.87 35.43 13.39
12/28/2022 7:00:00 PM 3.51 38.318 0.157 4.89 31.85 13.36
12/28/2022 7:15:00 PM 3.51 38.318 0.157 4.94 28.46 13.33
12/28/2022 7:30:00 PM 3.5 38.3 0.157 4.88 24.84 13.35
12/28/2022 7:45:00 PM 3.5 38.3 0.157 4.81 21.75 13.32
12/28/2022 8:00:00 PM 3.49 38.282 0.157 4.83 28.2 13.33
12/28/2022 8:15:00 PM 3.48 38.264 0.157 4.85 30.64 13.32
12/28/2022 8:30:00 PM 3.48 38.264 0.157 4.94 31.99 13.31
12/28/2022 8:45:00 PM 3.48 38.264 0.157 4.85 31.57 13.3
12/28/2022 9:00:00 PM 3.48 38.264 0.157 4.84 41.44 13.29
12/28/2022 9:15:00 PM 3.48 38.264 0.157 4.87 47.14 13.29
12/28/2022 9:30:00 PM 3.47 38.246 0.157 4.91 34.09 13.28
12/28/2022 9:45:00 PM 3.47 38.246 0.157 4.98 38.73 13.27
12/28/2022 10:00:00 PM 3.47 38.246 0.157 4.86 28.72 13.28
12/28/2022 10:15:00 PM 3.47 38.246 0.157 4.87 32.32 13.26
12/28/2022 10:30:00 PM 3.46 38.228 0.157 4.88 34.04 13.27
12/28/2022 10:45:00 PM 3.46 38.228 0.157 4.87 32.77 13.28
12/28/2022 11:00:00 PM 3.45 38.21 0.157 4.89 19.63 13.28
12/28/2022 11:15:00 PM 3.44 38.192 0.157 4.92 28.58 13.27
12/28/2022 11:30:00 PM 3.43 38.174 0.157 4.94 31.53 13.28
12/28/2022 11:45:00 PM 3.41 38.138 0.157 4.94 25.15 13.28
12/29/2022 12:00:00 AM 3.39 38.102 0.157 4.92 25.13 13.3
12/29/2022 12:15:00 AM 3.37 38.066 0.157 4.99 31.09 13.3
12/29/2022 12:30:00 AM 3.35 38.03 0.157 4.91 29.3 13.31
12/29/2022 12:45:00 AM 3.33 37.994 0.157 4.91 23.35 13.32
12/29/2022 1:00:00 AM 3.31 37.958 0.157 4.9 40.12 13.33
12/29/2022 1:15:00 AM 3.28 37.904 0.157 4.97 23.53 13.34
12/29/2022 1:30:00 AM 3.26 37.868 0.157 4.88 38 13.34
12/29/2022 1:45:00 AM 3.22 37.796 0.157 4.87 28.7 13.34
12/29/2022 2:00:00 AM 3.19 37.742 0.157 4.83 42.14 13.36
12/29/2022 2:15:00 AM 3.16 37.688 0.157 4.85 41.32 13.38
12/29/2022 2:30:00 AM 3.13 37.634 0.157 4.93 36.21 13.4
12/29/2022 2:45:00 AM 3.09 37.562 0.157 4.87 27.66 13.42
12/29/2022 3:00:00 AM 3.05 37.49 0.158 4.9 22.77 13.42
12/29/2022 3:15:00 AM 3.02 37.436 0.158 4.83 34.19 13.44
12/29/2022 3:30:00 AM 2.98 37.364 0.158 4.89 28.66 13.47
12/29/2022 3:45:00 AM 2.94 37.292 0.158 4.92 38.03 13.48
12/29/2022 4:00:00 AM 2.9 37.22 0.158 4.95 35.13 13.5
12/29/2022 4:15:00 AM 2.86 37.148 0.158 4.93 36.91 13.52
12/29/2022 4:30:00 AM 2.82 37.076 0.158 4.89 27.32 13.52
12/29/2022 4:45:00 AM 2.79 37.022 0.158 4.93 35.73 13.55
12/29/2022 5:00:00 AM 2.74 36.932 0.158 4.93 48.61 13.57
12/29/2022 5:15:00 AM 2.7 36.86 0.158 4.9 27.37 13.58
12/29/2022 5:30:00 AM 2.66 36.788 0.158 4.91 26.16 13.61
12/29/2022 5:45:00 AM 2.62 36.716 0.158 4.89 31.58 13.63
12/29/2022 6:00:00 AM 2.58 36.644 0.158 4.92 28 13.66
12/29/2022 6:15:00 AM 2.54 36.572 0.159 4.94 37.46 13.67
12/29/2022 6:30:00 AM 2.49 36.482 0.158 4.92 36.67 13.68
12/29/2022 6:45:00 AM 2.45 36.41 0.158 4.93 37.55 13.7
12/29/2022 7:00:00 AM 2.41 36.338 0.159 4.97 34.13 13.73
12/29/2022 7:15:00 AM 2.36 36.248 0.159 5.08 42.55 13.74
12/29/2022 7:30:00 AM 2.32 36.176 0.159 5.09 51.03 13.76
12/29/2022 7:45:00 AM 2.28 36.104 0.159 5.11 36.4 13.78
12/29/2022 8:00:00 AM 2.24 36.032 0.159 5.01 26.13 13.83
12/29/2022 8:15:00 AM 2.22 35.996 0.159 4.99 32.81 13.86
12/29/2022 8:30:00 AM 2.19 35.942 0.159 4.96 22.08 13.91
12/29/2022 8:45:00 AM 2.17 35.906 0.159 4.94 52.56 13.93
12/29/2022 9:00:00 AM 2.15 35.87 0.159 4.93 43.45 13.98
12/29/2022 9:15:00 AM 2.14 35.852 0.159 4.96 31.01 14.01
12/29/2022 9:30:00 AM 2.13 35.834 0.159 4.94 31.96 14.05
12/29/2022 9:45:00 AM 2.15 35.87 0.159 4.95 40.19 14.09
12/29/2022 10:00:00 AM 2.17 35.906 0.159 4.91 33.04 14.11
12/29/2022 10:15:00 AM 2.21 35.978 0.159 4.9 40.14 14.12
12/29/2022 10:30:00 AM 2.27 36.086 0.159 4.88 29.76 14.15
12/29/2022 10:45:00 AM 2.36 36.248 0.158 4.47 24.62 14.14
12/29/2022 11:00:00 AM 2.47 36.446 0.158 4.71 23.99 14.17
12/29/2022 11:15:00 AM 2.59 36.662 0.158 4.71 28.9 14.18
12/29/2022 11:30:00 AM 2.71 36.878 0.158 4.73 96.05 14.16
12/29/2022 11:45:00 AM 2.84 37.112 0.158 4.8 95.8 14.17
12/29/2022 12:00:00 PM 2.96 37.328 0.158 4.84 59.02 14.16
12/29/2022 12:15:00 PM 3.07 37.526 0.158 4.77 87.46 14.13
12/29/2022 12:30:00 PM 3.19 37.742 0.158 4.78 79.69 14.12
12/29/2022 12:45:00 PM 3.34 38.012 0.157 4.74 81.51 14.08
12/29/2022 1:00:00 PM 3.47 38.246 0.157 4.81 81.34 14.06
12/29/2022 1:15:00 PM 3.59 38.462 0.157 4.77 74.43 14.03
12/29/2022 1:30:00 PM 3.66 38.588 0.157 4.82 75.82 14
12/29/2022 1:45:00 PM 3.73 38.714 0.157 4.7 78.09 13.98
12/29/2022 2:00:00 PM 3.77 38.786 0.157 4.83 82.04 13.95
12/29/2022 2:15:00 PM 3.8 38.84 0.157 4.89 74.22 13.92
12/29/2022 2:30:00 PM 3.81 38.858 0.157 4.92 73.19 13.89
12/29/2022 2:45:00 PM 3.84 38.912 0.157 4.91 76.58 13.84
12/29/2022 3:00:00 PM 3.82 38.876 0.157 4.95 43.2 13.83
12/29/2022 3:15:00 PM 3.81 38.858 0.157 4.91 69.33 13.78
12/29/2022 3:30:00 PM 3.8 38.84 0.157 4.98 76.69 13.75
12/29/2022 3:45:00 PM 3.78 38.804 0.157 5 75.78 13.72
12/29/2022 4:00:00 PM 3.77 38.786 0.157 5 77.02 13.68
12/29/2022 4:15:00 PM 3.76 38.768 0.157 5 85.54 13.64
12/29/2022 4:30:00 PM 3.75 38.75 0.157 4.97 85.69 13.62
12/29/2022 4:45:00 PM 3.74 38.732 0.157 5.01 84.32 13.55
12/29/2022 5:00:00 PM 3.73 38.714 0.157 4.96 76.54 13.52
12/29/2022 5:15:00 PM 3.72 38.696 0.157 5 88.02 13.49
12/29/2022 5:30:00 PM 3.71 38.678 0.157 4.97 87.25 13.46
12/29/2022 5:45:00 PM 3.7 38.66 0.157 4.96 80.23 13.43
12/29/2022 6:00:00 PM 3.7 38.66 0.157 4.95 76.38 13.37
12/29/2022 6:15:00 PM 3.7 38.66 0.157 5.02 79.73 13.35
12/29/2022 6:30:00 PM 3.7 38.66 0.157 5.05 60.25 13.35
12/29/2022 6:45:00 PM 3.7 38.66 0.157 5.07 71.87 13.32
12/29/2022 7:00:00 PM 3.7 38.66 0.157 5 77.5 13.31
12/29/2022 7:15:00 PM 3.7 38.66 0.157 5 55.18 13.29
12/29/2022 7:30:00 PM 3.7 38.66 0.157 4.99 61.55 13.28
12/29/2022 7:45:00 PM 3.7 38.66 0.157 5.02 74.73 13.25
12/29/2022 8:00:00 PM 3.7 38.66 0.157 4.98 82.37 13.24
12/29/2022 8:15:00 PM 3.69 38.642 0.157 4.93 90.16 13.24
12/29/2022 8:30:00 PM 3.69 38.642 0.157 4.93 87.08 13.23
12/29/2022 8:45:00 PM 3.69 38.642 0.157 4.95 85.22 13.22
12/29/2022 9:00:00 PM 3.69 38.642 0.157 4.93 79.58 13.19
12/29/2022 9:15:00 PM 3.69 38.642 0.157 5.08 81.34 13.2
12/29/2022 9:30:00 PM 3.7 38.66 0.157 5.08 106.9 13.18
12/29/2022 9:45:00 PM 3.71 38.678 0.158 5.1 74.94 13.2
12/29/2022 10:00:00 PM 3.71 38.678 0.158 5.12 100.6 13.19
12/29/2022 10:15:00 PM 3.72 38.696 0.158 5.12 100.1 13.16
12/29/2022 10:30:00 PM 3.73 38.714 0.158 5.1 84.29 13.18
12/29/2022 10:45:00 PM 3.73 38.714 0.158 5.11 93.88 13.16
12/29/2022 11:00:00 PM 3.74 38.732 0.158 5.11 83.59 13.17
12/29/2022 11:15:00 PM 3.74 38.732 0.158 5.1 84.73 13.17
12/29/2022 11:30:00 PM 3.74 38.732 0.158 5.11 50.9 13.17
12/29/2022 11:45:00 PM 3.74 38.732 0.158 5.12 91.63 13.15
12/30/2022 12:00:00 AM 3.74 38.732 0.158 5.11 93.36 13.16
12/30/2022 12:15:00 AM 3.74 38.732 0.158 5.09 93.46 13.16
12/30/2022 12:30:00 AM 3.73 38.714 0.158 5.09 93.38 13.17
12/30/2022 12:45:00 AM 3.73 38.714 0.157 5.08 93.79 13.16
12/30/2022 1:00:00 AM 3.74 38.732 0.158 5.08 70.51 13.17
12/30/2022 1:15:00 AM 3.74 38.732 0.158 5.09 90.1 13.18
12/30/2022 1:30:00 AM 3.75 38.75 0.158 5.07 103 13.17
12/30/2022 1:45:00 AM 3.74 38.732 0.158 4.98 104 13.17
12/30/2022 2:00:00 AM 3.75 38.75 0.158 4.94 97.5 13.17
12/30/2022 2:15:00 AM 3.75 38.75 0.158 4.91 93.22 13.2
12/30/2022 2:30:00 AM 3.75 38.75 0.158 4.9 110.2 13.2
12/30/2022 2:45:00 AM 3.75 38.75 0.158 4.82 104.6 13.19
12/30/2022 3:00:00 AM 3.75 38.75 0.158 4.83 117.9 13.18
12/30/2022 3:15:00 AM 3.75 38.75 0.158 4.78 84.75 13.2
12/30/2022 3:30:00 AM 3.76 38.768 0.158 4.86 112.5 13.21
12/30/2022 3:45:00 AM 3.77 38.786 0.158 4.89 115.8 13.2
12/30/2022 4:00:00 AM 3.76 38.768 0.158 4.93 108.3 13.19
12/30/2022 4:15:00 AM 3.76 38.768 0.158 4.94 106.4 13.2
12/30/2022 4:30:00 AM 3.74 38.732 0.158 4.96 115.3 13.19
12/30/2022 4:45:00 AM 3.73 38.714 0.159 4.92 103 13.22
12/30/2022 5:00:00 AM 3.71 38.678 0.158 4.82 96.77 13.22
12/30/2022 5:15:00 AM 3.69 38.642 0.158 4.87 108.3 13.22
12/30/2022 5:30:00 AM 3.67 38.606 0.158 4.87 111.8 13.23
12/30/2022 5:45:00 AM 3.66 38.588 0.158 4.94 94.08 13.25
12/30/2022 6:00:00 AM 3.65 38.57 0.158 4.92 130.6 13.25
12/30/2022 6:15:00 AM 3.64 38.552 0.159 4.91 100.9 13.24
12/30/2022 6:30:00 AM 3.64 38.552 0.159 4.94 106.9 13.26
12/30/2022 6:45:00 AM 3.63 38.534 0.158 4.97 104.4 13.25
12/30/2022 7:00:00 AM 3.63 38.534 0.158 4.95 111.7 13.27
12/30/2022 7:15:00 AM 3.62 38.516 0.158 4.93 121.4 13.27
12/30/2022 7:30:00 AM 3.61 38.498 0.158 4.92 104 13.28
12/30/2022 7:45:00 AM 3.6 38.48 0.158 4.94 84.15 13.31
12/30/2022 8:00:00 AM 3.58 38.444 0.158 4.94 88.17 13.32
12/30/2022 8:15:00 AM 3.57 38.426 0.159 4.88 100.5 13.34
12/30/2022 8:30:00 AM 3.57 38.426 0.159 4.54 115.1 13.36
12/30/2022 8:45:00 AM 3.56 38.408 0.159 4.66 119.4 13.38
12/30/2022 9:00:00 AM 3.56 38.408 0.159 4.69 116.1 13.4
12/30/2022 9:15:00 AM 3.56 38.408 0.159 4.74 108.6 13.42
12/30/2022 9:30:00 AM 3.58 38.444 0.159 4.8 102.7 13.46
12/30/2022 9:45:00 AM 3.6 38.48 0.158 4.78 97.63 13.49
12/30/2022 10:00:00 AM 3.63 38.534 0.158 4.75 128.7 13.52
12/30/2022 10:15:00 AM 3.68 38.624 0.158 4.78 94.45 13.52
12/30/2022 10:30:00 AM 3.75 38.75 0.158 4.82 138.1 13.52
12/30/2022 10:45:00 AM 3.85 38.93 0.158 4.88 112.6 13.56
12/30/2022 11:00:00 AM 3.96 39.128 0.158 4.96 119.1 13.57
12/30/2022 11:15:00 AM 4.08 39.344 0.158 4.94 114.1 13.58
12/30/2022 11:30:00 AM 4.2 39.56 0.158 4.83 119.9 13.58
12/30/2022 11:45:00 AM 4.34 39.812 0.157 4.89 107.5 13.57
12/30/2022 12:00:00 PM 4.47 40.046 0.157 4.94 131 13.55
12/30/2022 12:15:00 PM 4.6 40.28 0.157 4.94 116.8 13.53
12/30/2022 12:30:00 PM 4.73 40.514 0.157 4.85 94.55 13.49
12/30/2022 12:45:00 PM 4.88 40.784 0.157 4.9 114.8 13.48
12/30/2022 1:00:00 PM 5.02 41.036 0.157 4.89 105.6 13.45
12/30/2022 1:15:00 PM 5.15 41.27 0.157 4.94 138.3 13.44
12/30/2022 1:30:00 PM 5.24 41.432 0.157 4.89 130.4 13.4
12/30/2022 1:45:00 PM 5.32 41.576 0.157 4.81 102.3 13.38
12/30/2022 2:00:00 PM 5.38 41.684 0.157 4.82 108.8 13.34
12/30/2022 2:15:00 PM 5.41 41.738 0.157 4.97 128.2 13.29
12/30/2022 2:30:00 PM 5.44 41.792 0.157 5.05 101.6 13.27
12/30/2022 2:45:00 PM 5.48 41.864 0.157 5.01 130.3 13.22
12/30/2022 3:00:00 PM 5.47 41.846 0.157 4.96 131.5 13.19
12/30/2022 3:15:00 PM 5.47 41.846 0.157 5.01 117.9 13.13
12/30/2022 3:30:00 PM 5.47 41.846 0.157 4.93 131.9 13.09
12/30/2022 3:45:00 PM 5.45 41.81 0.157 4.89 143.1 13.05
12/30/2022 4:00:00 PM 5.43 41.774 0.157 4.5 113.4 13.03
12/30/2022 4:15:00 PM 5.43 41.774 0.157 4.57 98.74 12.98
12/30/2022 4:30:00 PM 5.42 41.756 0.157 4.66 118.2 12.93
12/30/2022 4:45:00 PM 5.41 41.738 0.157 4.71 137.8 12.88
12/30/2022 5:00:00 PM 5.39 41.702 0.157 4.9 119.6 12.84
12/30/2022 5:15:00 PM 5.37 41.666 0.157 4.98 120.1 12.8
12/30/2022 5:30:00 PM 5.35 41.63 0.157 5 120.1 12.76
12/30/2022 5:45:00 PM 5.33 41.594 0.157 5.03 129.1 12.74
12/30/2022 6:00:00 PM 5.32 41.576 0.157 5.01 127.6 12.72
12/30/2022 6:15:00 PM 5.31 41.558 0.157 5 128.8 12.69
12/30/2022 6:30:00 PM 5.31 41.558 0.157 5.01 123 12.67
12/30/2022 6:45:00 PM 5.3 41.54 0.157 5.07 120.6 12.65
12/30/2022 7:00:00 PM 5.29 41.522 0.157 5.07 130.8 12.63
12/30/2022 7:15:00 PM 5.29 41.522 0.157 5.08 148.4 12.61
12/30/2022 7:30:00 PM 5.28 41.504 0.157 5.1 161.4 12.6
12/30/2022 7:45:00 PM 5.27 41.486 0.158 5.12 132.6 12.58
12/30/2022 8:00:00 PM 5.26 41.468 0.158 5.13 122.9 12.58
12/30/2022 8:15:00 PM 5.25 41.45 0.158 5.09 128.1 12.58
12/30/2022 8:30:00 PM 5.24 41.432 0.158 5.07 140.2 12.55
12/30/2022 8:45:00 PM 5.23 41.414 0.158 5.09 150.5 12.54
12/30/2022 9:00:00 PM 5.22 41.396 0.158 5.11 55.3 12.55
12/30/2022 9:15:00 PM 5.22 41.396 0.158 5.1 37.79 12.56
12/30/2022 9:30:00 PM 5.21 41.378 0.158 5.1 66.05 12.54
12/30/2022 9:45:00 PM 5.21 41.378 0.158 5.11 38.79 12.54
12/30/2022 10:00:00 PM 5.2 41.36 0.158 5.1 53.61 12.54
12/30/2022 10:15:00 PM 5.21 41.378 0.158 5.11 46.31 12.52
12/30/2022 10:30:00 PM 5.2 41.36 0.157 4.94 44.07 12.52
12/30/2022 10:45:00 PM 5.2 41.36 0.158 4.93 46.37 12.53
12/30/2022 11:00:00 PM 5.19 41.342 0.158 4.99 49.08 12.52
12/30/2022 11:15:00 PM 5.19 41.342 0.158 4.98 47.44 12.53
12/30/2022 11:30:00 PM 5.18 41.324 0.158 4.96 50.56 12.52
12/30/2022 11:45:00 PM 5.18 41.324 0.158 4.95 49.88 12.52
12/31/2022 12:00:00 AM 5.17 41.306 0.158 4.95 50.19 12.52
12/31/2022 12:15:00 AM 5.16 41.288 0.158 5.03 59.79 12.54
12/31/2022 12:30:00 AM 5.14 41.252 0.158 5.04 40.18 12.53
12/31/2022 12:45:00 AM 5.13 41.234 0.158 4.88 43.22 12.54
12/31/2022 1:00:00 AM 5.11 41.198 0.157 4.94 47.84 12.54
12/31/2022 1:15:00 AM 5.1 41.18 0.158 4.92 66.42 12.55
12/31/2022 1:30:00 AM 5.08 41.144 0.158 4.94 52.36 12.54
12/31/2022 1:45:00 AM 5.06 41.108 0.158 5.07 46.26 12.56
12/31/2022 2:00:00 AM 5.05 41.09 0.158 4.94 58.17 12.57
12/31/2022 2:15:00 AM 5.03 41.054 0.158 4.93 32.29 12.58
12/31/2022 2:30:00 AM 5.02 41.036 0.158 4.94 35.11 12.6
12/31/2022 2:45:00 AM 5 41 0.158 5.08 34.45 12.59
12/31/2022 3:00:00 AM 4.98 40.964 0.158 5.08 43.32 12.6
12/31/2022 3:15:00 AM 4.98 40.964 0.158 5.1 49.19 12.6
12/31/2022 3:30:00 AM 4.98 40.964 0.158 5.09 38.43 12.62
12/31/2022 3:45:00 AM 4.98 40.964 0.158 5.05 32.77 12.61
12/31/2022 4:00:00 AM 4.97 40.946 0.158 5.1 46.68 12.62
12/31/2022 4:15:00 AM 4.96 40.928 0.158 4.96 32.55 12.62
12/31/2022 4:30:00 AM 4.95 40.91 0.158 4.96 38.37 12.63
12/31/2022 4:45:00 AM 4.95 40.91 0.158 5.01 36.89 12.63
12/31/2022 5:00:00 AM 4.95 40.91 0.158 5.1 47.46 12.64
12/31/2022 5:15:00 AM 4.95 40.91 0.158 5.09 55.13 12.65
12/31/2022 5:30:00 AM 4.95 40.91 0.158 5.1 50.21 12.67
12/31/2022 5:45:00 AM 4.95 40.91 0.158 5.06 36.74 12.66
12/31/2022 6:00:00 AM 4.95 40.91 0.158 4.9 37.05 12.66
12/31/2022 6:15:00 AM 4.95 40.91 0.158 4.83 56.86 12.67
12/31/2022 6:30:00 AM 4.95 40.91 0.158 4.84 38.72 12.66
12/31/2022 6:45:00 AM 4.95 40.91 0.159 4.83 45.95 12.66
12/31/2022 7:00:00 AM 4.95 40.91 0.159 4.83 46.96 12.66
12/31/2022 7:15:00 AM 4.95 40.91 0.159 4.86 38.44 12.65
12/31/2022 7:30:00 AM 4.96 40.928 0.159 4.87 59.97 12.66
12/31/2022 7:45:00 AM 4.96 40.928 0.159 4.83 44.36 12.67
12/31/2022 8:00:00 AM 4.96 40.928 0.159 4.92 60.48 12.67
12/31/2022 8:15:00 AM 4.97 40.946 0.159 4.94 59.03 12.69
12/31/2022 8:30:00 AM 4.98 40.964 0.159 4.82 68.31 12.68
12/31/2022 8:45:00 AM 4.99 40.982 0.159 4.99 44.7 12.7
12/31/2022 9:00:00 AM 5.01 41.018 0.158 4.92 41.04 12.73
12/31/2022 9:15:00 AM 5.03 41.054 0.158 4.87 43.89 12.75
12/31/2022 9:30:00 AM 5.06 41.108 0.158 4.88 35.3 12.8
12/31/2022 9:45:00 AM 5.09 41.162 0.158 4.88 35.05 12.83
12/31/2022 10:00:00 AM 5.13 41.234 0.158 5 57.18 12.86
12/31/2022 10:15:00 AM 5.18 41.324 0.158 4.92 36.99 12.89
12/31/2022 10:30:00 AM 5.22 41.396 0.158 4.94 46.55 12.9
12/31/2022 10:45:00 AM 5.27 41.486 0.158 4.89 43.69 12.92
12/31/2022 11:00:00 AM 5.32 41.576 0.158 4.99 34.2 12.91
12/31/2022 11:15:00 AM 5.37 41.666 0.158 4.98 43.12 12.94
12/31/2022 11:30:00 AM 5.42 41.756 0.158 5.04 34.61 12.92
12/31/2022 11:45:00 AM 5.47 41.846 0.158 4.96 38.69 12.93
12/31/2022 12:00:00 PM 5.52 41.936 0.157 4.97 39.84 12.9
12/31/2022 12:15:00 PM 5.57 42.026 0.157 4.99 67.35 12.89
12/31/2022 12:30:00 PM 5.61 42.098 0.157 4.99 44.24 12.88
12/31/2022 12:45:00 PM 5.66 42.188 0.157 4.99 55.73 12.86
12/31/2022 1:00:00 PM 5.7 42.26 0.157 5.01 55.34 12.82
12/31/2022 1:15:00 PM 5.74 42.332 0.157 5.01 41.53 12.8
12/31/2022 1:30:00 PM 5.79 42.422 0.157 5 47.55 12.78
12/31/2022 1:45:00 PM 5.84 42.512 0.157 4.98 47.47 12.78
12/31/2022 2:00:00 PM 5.88 42.584 0.157 5.13 44.66 12.74
12/31/2022 2:15:00 PM 5.93 42.674 0.157 4.98 40.36 12.71
12/31/2022 2:30:00 PM 5.97 42.746 0.157 4.99 36.35 12.68
12/31/2022 2:45:00 PM 6.02 42.836 0.157 5 37.33 12.67
12/31/2022 3:00:00 PM 6.06 42.908 0.157 5.01 54.37 12.64
12/31/2022 3:15:00 PM 6.11 42.998 0.157 5.01 50.55 12.6
12/31/2022 3:30:00 PM 6.15 43.07 0.157 5.01 37.23 12.57
12/31/2022 3:45:00 PM 6.2 43.16 0.157 5.01 42.59 12.52
12/31/2022 4:00:00 PM 6.23 43.214 0.157 5.04 43.38 12.47
12/31/2022 4:15:00 PM 6.27 43.286 0.157 5.08 41.67 12.42
12/31/2022 4:30:00 PM 6.31 43.358 0.157 5.07 37.91 12.36
12/31/2022 4:45:00 PM 6.34 43.412 0.157 5.09 3499 12.31
12/31/2022 5:00:00 PM 6.38 43.484 0.157 5.08 65.75 12.27
12/31/2022 5:15:00 PM 6.41 43.538 0.157 5.12 72.45 12.24
12/31/2022 5:30:00 PM 6.45 43.61 0.157 5.17 66.97 12.2
12/31/2022 5:45:00 PM 6.48 43.664 0.156 5.15 80.71 12.16
12/31/2022 6:00:00 PM 6.52 43.736 0.156 5.16 65.92 12.14
12/31/2022 6:15:00 PM 6.56 43.808 0.156 5.09 67.74 12.11
12/31/2022 6:30:00 PM 6.59 43.862 0.156 5.2 66.95 12.08
12/31/2022 6:45:00 PM 6.62 43.916 0.156 5.2 76.47 12.06
12/31/2022 7:00:00 PM 6.66 43.988 0.156 5.2 73.59 12.01
12/31/2022 7:15:00 PM 6.69 44.042 0.156 5.09 81.26 11.99
12/31/2022 7:30:00 PM 6.72 44.096 0.156 5.1 58.75 11.98
12/31/2022 7:45:00 PM 6.75 44.15 0.156 5.07 81.04 11.94
12/31/2022 8:00:00 PM 6.79 44.222 0.155 5.09 104.7 11.92
12/31/2022 8:15:00 PM 6.82 44.276 0.155 5.16 73.57 11.9
12/31/2022 8:30:00 PM 6.86 44.348 0.155 5.2 68.74 11.89
12/31/2022 8:45:00 PM 6.89 44.402 0.154 5.19 73.95 11.87
12/31/2022 9:00:00 PM 6.93 44.474 0.154 5.08 62.21 11.85
12/31/2022 9:15:00 PM 6.96 44.528 0.154 5.09 62.9 11.84
12/31/2022 9:30:00 PM 6.99 44.582 0.154 5.11 69.17 11.81
12/31/2022 9:45:00 PM 7.01 44.618 0.154 5.1 68.81 11.81
12/31/2022 10:00:00 PM 7.04 44.672 0.154 5.11 87.79 11.79
12/31/2022 10:15:00 PM 7.06 44.708 0.154 5.09 69.89 11.78
12/31/2022 10:30:00 PM 7.09 44.762 0.154 5.08 70.31 11.77
12/31/2022 10:45:00 PM 7.11 44.798 0.154 5.03 79.81 11.75
12/31/2022 11:00:00 PM 7.13 44.834 0.154 5.06 75.63 11.74
12/31/2022 11:15:00 PM 7.14 44.852 0.154 5.17 63.97 11.73
12/31/2022 11:30:00 PM 7.15 44.87 0.154 5.17 48.89 11.72
12/31/2022 11:45:00 PM 7.15 44.87 0.154 5.14 44.8 11.73
1/1/2023 12:00:00 AM 7.14 44.852 0.154 5.06 40.35 11.72
1/1/2023 12:15:00 AM 7.14 44.852 0.154 5.06 41.07 11.72
1/1/2023 12:30:00 AM 7.13 44.834 0.153 4.99 44.47 11.72
1/1/2023 12:45:00 AM 7.12 44.816 0.153 5.03 41.95 11.73
1/1/2023 1:00:00 AM 7.11 44.798 0.153 5.03 40.34 11.73
1/1/2023 1:15:00 AM 7.09 44.762 0.153 5.04 50.49 11.71
1/1/2023 1:30:00 AM 7.07 44.726 0.153 5.06 61.91 11.73
1/1/2023 1:45:00 AM 7.06 44.708 0.154 5.08 42.63 11.73
1/1/2023 2:00:00 AM 7.05 44.69 0.154 5.09 40.49 11.73
1/1/2023 2:15:00 AM 7.03 44.654 0.154 5.06 51.09 11.74
1/1/2023 2:30:00 AM 7.02 44.636 0.154 5.07 68.23 11.75
1/1/2023 2:45:00 AM 7 44.6 0.154 5.09 38.95 11.75
1/1/2023 3:00:00 AM 6.97 44.546 0.154 5.1 44.55 11.74
1/1/2023 3:15:00 AM 6.94 44.492 0.155 5.1 45.66 11.77
1/1/2023 3:30:00 AM 6.9 44.42 0.155 5.11 26.65 11.78
1/1/2023 3:45:00 AM 6.87 44.366 0.155 5.01 53.49 11.79
1/1/2023 4:00:00 AM 6.83 44.294 0.155 5.13 47.26 11.79
1/1/2023 4:15:00 AM 6.8 44.24 0.155 5.05 43.26 11.81
1/1/2023 4:30:00 AM 6.76 44.168 0.155 5.13 54.36 11.83
1/1/2023 4:45:00 AM 6.73 44.114 0.155 5.08 25.98 11.84
1/1/2023 5:00:00 AM 6.68 44.024 0.154 5.04 44.93 11.86
1/1/2023 5:15:00 AM 6.64 43.952 0.154 5.08 42.48 11.88
1/1/2023 5:30:00 AM 6.6 43.88 0.154 5.17 39.98 11.88
1/1/2023 5:45:00 AM 6.55 43.79 0.154 5.17 49.08 11.89
1/1/2023 6:00:00 AM 6.51 43.718 0.153 5.17 57.28 11.92
1/1/2023 6:15:00 AM 6.46 43.628 0.153 5.19 34.23 11.93
1/1/2023 6:30:00 AM 6.41 43.538 0.153 5.17 30.31 11.95
1/1/2023 6:45:00 AM 6.36 43.448 0.153 5.18 30.22 11.98
1/1/2023 7:00:00 AM 6.31 43.358 0.153 5.18 39.96 11.98
1/1/2023 7:15:00 AM 6.26 43.268 0.153 5.17 65.27 11.99
1/1/2023 7:30:00 AM 6.22 43.196 0.153 5.16 51.39 12.02
1/1/2023 7:45:00 AM 6.18 43.124 0.153 5.17 64.04 12.04
1/1/2023 8:00:00 AM 6.14 43.052 0.153 5.16 29.09 12.06
1/1/2023 8:15:00 AM 6.1 42.98 0.154 5.15 46.81 12.09
1/1/2023 8:30:00 AM 6.08 42.944 0.154 5.09 27.73 12.13
1/1/2023 8:45:00 AM 6.07 42.926 0.154 4.76 25.49 12.17
1/1/2023 9:00:00 AM 6.07 42.926 0.154 4.81 28.72 12.24
1/1/2023 9:15:00 AM 6.08 42.944 0.154 4.29 33.29 12.31
1/1/2023 9:30:00 AM 6.1 42.98 0.155 4.51 25.95 12.37
1/1/2023 9:45:00 AM 6.13 43.034 0.155 4.59 31.07 12.41
1/1/2023 10:00:00 AM 6.16 43.088 0.155 4.69 29.17 12.44
1/1/2023 10:15:00 AM 6.19 43.142 0.155 4.73 29.22 12.46
1/1/2023 10:30:00 AM 6.24 43.232 0.156 4.74 23.58 12.46
1/1/2023 10:45:00 AM 6.32 43.376 0.156 4.71 33.45 12.48
1/1/2023 11:00:00 AM 6.43 43.574 0.156 4.8 37.46 12.51
1/1/2023 11:15:00 AM 6.53 43.754 0.156 4.81 22.95 12.53
1/1/2023 11:30:00 AM 6.63 43.934 0.156 4.85 49.4 12.55
1/1/2023 11:45:00 AM 6.74 44.132 0.156 4.9 37.53 12.56
1/1/2023 12:00:00 PM 6.84 44.312 0.156 4.92 32.2 12.55
1/1/2023 12:15:00 PM 6.92 44.456 0.156 4.95 40.36 12.56
1/1/2023 12:30:00 PM 6.97 44.546 0.156 4.84 47.47 12.55
1/1/2023 12:45:00 PM 7.11 44.798 0.156 4.9 18.1 12.56
1/1/2023 1:00:00 PM 7.24 45.032 0.156 4.99 44.16 12.58
1/1/2023 1:15:00 PM 7.37 45.266 0.156 4.98 28.37 12.58
1/1/2023 1:30:00 PM 7.42 45.356 0.156 4.95 29.74 12.58
1/1/2023 1:45:00 PM 7.38 45.284 0.156 4.99 31.04 12.55
1/1/2023 2:00:00 PM 7.34 45.212 0.155 5.05 18.33 12.52
1/1/2023 2:15:00 PM 7.33 45.194 0.155 5.11 27.79 12.47
1/1/2023 2:30:00 PM 7.35 45.23 0.155 5.18 35.05 12.47
1/1/2023 2:45:00 PM 7.39 45.302 0.155 5.1 41.33 12.45
1/1/2023 3:00:00 PM 7.38 45.284 0.154 4.93 56.98 12.4
1/1/2023 3:15:00 PM 7.34 45.212 0.154 5.07 26.88 12.36
1/1/2023 3:30:00 PM 7.3 45.14 0.154 5.1 23.16 12.31
1/1/2023 3:45:00 PM 7.25 45.05 0.154 4.97 41.98 12.3
1/1/2023 4:00:00 PM 7.22 44.996 0.154 5.06 41.74 12.26
1/1/2023 4:15:00 PM 7.21 44.978 0.154 5.01 39.44 12.22
1/1/2023 4:30:00 PM 7.2 44.96 0.154 5.05 28.47 12.17
1/1/2023 4:45:00 PM 7.17 44.906 0.154 5.07 55.41 12.12
1/1/2023 5:00:00 PM 7.13 44.834 0.154 5.11 41.31 12.1
1/1/2023 5:15:00 PM 7.09 44.762 0.154 5.11 18.46 12.08
1/1/2023 5:30:00 PM 7.05 44.69 0.154 5.13 39.79 12.03
1/1/2023 5:45:00 PM 7.02 44.636 0.154 5.12 36.08 12.03
1/1/2023 6:00:00 PM 7 44.6 0.154 5.14 45.43 11.97
1/1/2023 6:15:00 PM 6.97 44.546 0.154 5.1 40.51 11.97
1/1/2023 6:30:00 PM 6.94 44.492 0.154 5.13 22.61 11.95
1/1/2023 6:45:00 PM 6.91 44.438 0.154 5.12 21.25 11.94
1/1/2023 7:00:00 PM 6.88 44.384 0.154 5.14 32.29 11.93
1/1/2023 7:15:00 PM 6.86 44.348 0.154 5.15 66.54 11.92
1/1/2023 7:30:00 PM 6.86 44.348 0.154 5.12 40.41 11.92
1/1/2023 7:45:00 PM 6.86 44.348 0.154 5.15 18.43 11.92
1/1/2023 8:00:00 PM 6.85 44.33 0.154 5.13 49.56 11.91
1/1/2023 8:15:00 PM 6.85 44.33 0.154 5.15 43.39 11.9
1/1/2023 8:30:00 PM 6.84 44.312 0.154 5.16 23 11.89
1/1/2023 8:45:00 PM 6.82 44.276 0.154 5.17 36.76 11.89
1/1/2023 9:00:00 PM 6.8 44.24 0.154 5.17 34.57 11.89
1/1/2023 9:15:00 PM 6.77 44.186 0.154 5.13 31.67 11.91
1/1/2023 9:30:00 PM 6.74 44.132 0.154 5.18 47.58 11.91
1/1/2023 9:45:00 PM 6.72 44.096 0.154 5.18 28.98 11.91
1/1/2023 10:00:00 PM 6.69 44.042 0.154 5.22 29.34 11.93
1/1/2023 10:15:00 PM 6.67 44.006 0.154 5.18 74.57 11.92
1/1/2023 10:30:00 PM 6.65 43.97 0.155 4.52 49.09 11.92
1/1/2023 10:45:00 PM 6.63 43.934 0.155 4.5 27.13 11.93
1/1/2023 11:00:00 PM 6.6 43.88 0.155 4.81 28.98 11.94
1/1/2023 11:15:00 PM 6.57 43.826 0.155 4.89 70.44 11.94
1/1/2023 11:30:00 PM 6.54 43.772 0.155 4.98 22.26 11.96
1/1/2023 11:45:00 PM 6.51 43.718 0.155 4.87 35.31 11.97
1/2/2023 12:00:00 AM 6.48 43.664 0.156 4.88 39.66 11.97
1/2/2023 12:15:00 AM 6.45 43.61 0.156 4.78 38.94 12
1/2/2023 12:30:00 AM 6.42 43.556 0.156 4.84 57.04 12
1/2/2023 12:45:00 AM 6.39 43.502 0.156 4.88 42.7 12.01
1/2/2023 1:00:00 AM 6.36 43.448 0.156 4.93 29.81 12.03
1/2/2023 1:15:00 AM 6.32 43.376 0.156 4.93 46.67 12.03
1/2/2023 1:30:00 AM 6.29 43.322 0.156 4.97 46.7 12.05
1/2/2023 1:45:00 AM 6.26 43.268 0.156 5.04 24.81 12.05
1/2/2023 2:00:00 AM 6.24 43.232 0.156 5.07 45.35 12.1
1/2/2023 2:15:00 AM 6.22 43.196 0.156 5.08 54.91 12.09
1/2/2023 2:30:00 AM 6.19 43.142 0.156 5.09 39.53 12.1
1/2/2023 2:45:00 AM 6.16 43.088 0.156 5.09 23.12 12.12
1/2/2023 3:00:00 AM 6.13 43.034 0.156 5.11 30.8 12.13
1/2/2023 3:15:00 AM 6.1 42.98 0.156 5.11 35.09 12.14
1/2/2023 3:30:00 AM 6.08 42.944 0.156 5.12 51.9 12.15
1/2/2023 3:45:00 AM 6.06 42.908 0.156 5.11 24.61 12.17
1/2/2023 4:00:00 AM 6.03 42.854 0.156 5.13 32.75 12.16
1/2/2023 4:15:00 AM 6.01 42.818 0.156 5.14 27.65 12.19
1/2/2023 4:30:00 AM 5.98 42.764 0.156 5.17 44.47 12.21
1/2/2023 4:45:00 AM 5.95 42.71 0.157 5.2 47.4 12.21
1/2/2023 5:00:00 AM 5.92 42.656 0.157 5.17 46.55 12.24
1/2/2023 5:15:00 AM 5.89 42.602 0.157 5.17 47.49 12.25
1/2/2023 5:30:00 AM 5.87 42.566 0.157 5.19 23.23 12.26
1/2/2023 5:45:00 AM 5.84 42.512 0.157 5.16 32.93 12.27
1/2/2023 6:00:00 AM 5.81 42.458 0.157 5.13 22.33 12.28
1/2/2023 6:15:00 AM 5.79 42.422 0.157 4.96 38.72 12.3
1/2/2023 6:30:00 AM 5.76 42.368 0.157 4.93 30.27 12.32
1/2/2023 6:45:00 AM 5.75 42.35 0.157 4.98 33.69 12.33
1/2/2023 7:00:00 AM 5.73 42.314 0.157 4.96 30.05 12.32
1/2/2023 7:15:00 AM 5.72 42.296 0.157 4.82 28.25 12.34
1/2/2023 7:30:00 AM 5.7 42.26 0.157 4.78 50.21 12.36
1/2/2023 7:45:00 AM 5.68 42.224 0.157 4.84 54.31 12.37
1/2/2023 8:00:00 AM 5.66 42.188 0.157 4.95 26.63 12.39
1/2/2023 8:15:00 AM 5.66 42.188 0.157 4.86 30.37 12.44
1/2/2023 8:30:00 AM 5.66 42.188 0.157 4.94 29.54 12.49
1/2/2023 8:45:00 AM 5.67 42.206 0.157 4.92 26.85 12.52
1/2/2023 9:00:00 AM 5.68 42.224 0.157 4.79 31.28 12.57
1/2/2023 9:15:00 AM 5.69 42.242 0.157 4.83 27.87 12.6
1/2/2023 9:30:00 AM 5.71 42.278 0.157 4.85 65.4 12.63
1/2/2023 9:45:00 AM 5.72 42.296 0.157 3.97 38.18 12.65
1/2/2023 10:00:00 AM 5.75 42.35 0.157 3.85 28.59 12.67
1/2/2023 10:15:00 AM 5.77 42.386 0.156 4.32 39.28 12.71
1/2/2023 10:30:00 AM 5.8 42.44 0.156 4.38 26.74 12.74
1/2/2023 10:45:00 AM 5.84 42.512 0.156 4.17 21.11 12.78
1/2/2023 11:00:00 AM 5.9 42.62 0.156 4.23 42.18 12.81
1/2/2023 11:15:00 AM 5.97 42.746 0.156 3.95 25.33 12.85
1/2/2023 11:30:00 AM 6.04 42.872 0.156 3.49 30.18 12.87
1/2/2023 11:45:00 AM 6.12 43.016 0.156 3.19 29.48 12.87
1/2/2023 12:00:00 PM 6.23 43.214 0.156 3.34 40.21 12.9
1/2/2023 12:15:00 PM 6.29 43.322 0.156 3.6 24.97 12.9
1/2/2023 12:30:00 PM 6.35 43.43 0.156 3.83 43.38 12.86
1/2/2023 12:45:00 PM 6.46 43.628 0.156 4.06 26.22 12.86
1/2/2023 1:00:00 PM 6.57 43.826 0.156 4.24 21.2 12.88
1/2/2023 1:15:00 PM 6.64 43.952 0.156 4.37 40.19 12.87
1/2/2023 1:30:00 PM 6.7 44.06 0.156 4.4 34.67 12.84
1/2/2023 1:45:00 PM 6.75 44.15 0.156 4.46 44.89 12.81
1/2/2023 2:00:00 PM 6.8 44.24 0.156 4.49 28.2 12.75
1/2/2023 2:15:00 PM 6.85 44.33 0.156 4.56 35.8 12.73
1/2/2023 2:30:00 PM 6.91 44.438 0.156 4.74 22.26 12.72
1/2/2023 2:45:00 PM 6.95 44.51 0.156 4.69 35.57 12.67
1/2/2023 3:00:00 PM 6.97 44.546 0.156 4.7 32.41 12.6
1/2/2023 3:15:00 PM 6.99 44.582 0.156 4.81 50.19 12.54
1/2/2023 3:30:00 PM 7.01 44.618 0.156 4.88 29.47 12.5
1/2/2023 3:45:00 PM 7.03 44.654 0.156 4.82 33.5 12.45
1/2/2023 4:00:00 PM 7.04 44.672 0.156 4.86 44.24 12.4
1/2/2023 4:15:00 PM 7.05 44.69 0.156 4.97 24.96 12.35
1/2/2023 4:30:00 PM 7.05 44.69 0.156 5 34.76 12.31
1/2/2023 4:45:00 PM 7.04 44.672 0.156 4.82 38.57 12.25
1/2/2023 5:00:00 PM 7.04 44.672 0.156 4.89 37.18 12.2
1/2/2023 5:15:00 PM 7.03 44.654 0.156 3.87 45.23 12.17
1/2/2023 5:30:00 PM 7.03 44.654 0.156 4.57 43.98 12.12
1/2/2023 5:45:00 PM 7.04 44.672 0.156 4.82 26.54 12.1
1/2/2023 6:00:00 PM 7.05 44.69 0.156 4.9 48.48 12.07
1/2/2023 6:15:00 PM 7.06 44.708 0.156 4.86 30.59 12.04
1/2/2023 6:30:00 PM 7.08 44.744 0.156 4.89 35.11 12.02
1/2/2023 6:45:00 PM 7.09 44.762 0.156 4.97 46.09 11.98
1/2/2023 7:00:00 PM 7.1 44.78 0.156 5.04 48.77 11.96
1/2/2023 7:15:00 PM 7.12 44.816 0.156 5.05 35.27 11.94
1/2/2023 7:30:00 PM 7.13 44.834 0.156 5.07 28.21 11.91
1/2/2023 7:45:00 PM 7.15 44.87 0.156 5.06 32 11.9
1/2/2023 8:00:00 PM 7.16 44.888 0.156 5.12 26.82 11.88
1/2/2023 8:15:00 PM 7.18 44.924 0.156 5.1 30.43 11.87
1/2/2023 8:30:00 PM 7.2 44.96 0.156 5.11 36.33 11.85
1/2/2023 8:45:00 PM 7.22 44.996 0.156 5.14 46.08 11.85
1/2/2023 9:00:00 PM 7.24 45.032 0.156 5.16 27.37 11.83
1/2/2023 9:15:00 PM 7.26 45.068 0.156 5.16 36.5 11.82
1/2/2023 9:30:00 PM 7.28 45.104 0.156 5.19 34.4 11.81
1/2/2023 9:45:00 PM 7.3 45.14 0.156 5.19 50.63 11.8
1/2/2023 10:00:00 PM 7.32 45.176 0.156 5.15 27.92 11.79
1/2/2023 10:15:00 PM 7.34 45.212 0.156 5.15 42.19 11.78
1/2/2023 10:30:00 PM 7.36 45.248 0.156 5.2 40.37 11.76
1/2/2023 10:45:00 PM 7.38 45.284 0.156 5.12 50.03 11.76
1/2/2023 11:00:00 PM 7.39 45.302 0.156 5.15 26.98 11.75
1/2/2023 11:15:00 PM 7.41 45.338 0.156 5.14 26.74 11.76
1/2/2023 11:30:00 PM 7.42 45.356 0.156 5.15 25.18 11.75
1/2/2023 11:45:00 PM 7.43 45.374 0.156 5.15 26.84 11.73
1/3/2023 12:00:00 AM 7.45 45.41 0.156 5.13 18.25 11.73
1/3/2023 12:15:00 AM 7.46 45.428 0.156 4.21 38.48 11.72
1/3/2023 12:30:00 AM 7.46 45.428 0.156 4.72 23.55 11.73
1/3/2023 12:45:00 AM 7.47 45.446 0.156 4.78 20.78 11.72
1/3/2023 1:00:00 AM 7.48 45.464 0.156 4.95 30.69 11.7
1/3/2023 1:15:00 AM 7.5 45.5 0.156 4.94 24.77 11.71
1/3/2023 1:30:00 AM 7.51 45.518 0.156 4.96 32.14 11.71
1/3/2023 1:45:00 AM 7.52 45.536 0.156 4.99 34.9 11.7
1/3/2023 2:00:00 AM 7.52 45.536 0.156 4.97 46.13 11.7
1/3/2023 2:15:00 AM 7.53 45.554 0.156 4.98 30.59 11.7
1/3/2023 2:30:00 AM 7.54 45.572 0.156 5.05 32.66 11.68
1/3/2023 2:45:00 AM 7.55 45.59 0.156 3.94 17.82 11.69
1/3/2023 3:00:00 AM 7.56 45.608 0.156 4.37 21.89 11.68
1/3/2023 3:15:00 AM 7.56 45.608 0.156 4.49 36.36 11.69
1/3/2023 3:30:00 AM 7.57 45.626 0.156 4.53 43.93 11.66
1/3/2023 3:45:00 AM 7.58 45.644 0.156 4.39 23.31 11.67
1/3/2023 4:00:00 AM 7.58 45.644 0.156 4.4 17.09 11.67
1/3/2023 4:15:00 AM 7.59 45.662 0.156 4.48 23.22 11.67
1/3/2023 4:30:00 AM 7.58 45.644 0.156 4.51 20.83 11.66
1/3/2023 4:45:00 AM 7.57 45.626 0.156 4.53 25.1 11.68
1/3/2023 5:00:00 AM 7.56 45.608 0.156 4.58 20.92 11.68
1/3/2023 5:15:00 AM 7.54 45.572 0.156 4.6 24.65 11.67
1/3/2023 5:30:00 AM 7.53 45.554 0.156 4.6 18.72 11.67
1/3/2023 5:45:00 AM 7.52 45.536 0.156 4.45 16.35 11.66
1/3/2023 6:00:00 AM 7.51 45.518 0.156 4.62 20.57 11.68
1/3/2023 6:15:00 AM 7.5 45.5 0.156 4.75 13.81 11.66
1/3/2023 6:30:00 AM 7.49 45.482 0.156 4.76 15.08 11.67
1/3/2023 6:45:00 AM 7.49 45.482 0.155 4.82 30.04 11.68
1/3/2023 7:00:00 AM 7.47 45.446 0.156 4.83 28.54 11.69
1/3/2023 7:15:00 AM 7.47 45.446 0.156 4.84 16.47 11.69
1/3/2023 7:30:00 AM 7.46 45.428 0.156 4.85 19.85 11.68
1/3/2023 7:45:00 AM 7.46 45.428 0.156 4.83 19.84 11.69
1/3/2023 8:00:00 AM 7.45 45.41 0.156 4.8 18.18 11.7
1/3/2023 8:15:00 AM 7.45 45.41 0.156 4.8 24.58 11.72
1/3/2023 8:30:00 AM 7.46 45.428 0.156 4.78 20.13 11.75
1/3/2023 8:45:00 AM 7.47 45.446 0.156 4.73 23.16 11.76
1/3/2023 9:00:00 AM 7.48 45.464 0.156 4.74 32.09 11.79
1/3/2023 9:15:00 AM 7.49 45.482 0.156 4.75 19.51 11.82
1/3/2023 9:30:00 AM 7.5 45.5 0.155 4.82 21.1 11.82
1/3/2023 9:45:00 AM 7.52 45.536 0.155 4.81 31.22 11.83
1/3/2023 10:00:00 AM 7.54 45.572 0.155 4.82 19.75 11.87
1/3/2023 10:15:00 AM 7.56 45.608 0.155 4.83 21.33 11.91
1/3/2023 10:30:00 AM 7.59 45.662 0.155 4.83 25.24 11.93
1/3/2023 10:45:00 AM 7.63 45.734 0.155 4.77 17.51 11.96
1/3/2023 11:00:00 AM 7.66 45.788 0.154 4.79 22.45 12
1/3/2023 11:15:00 AM 7.69 45.842 0.154 4.55 20.75 12.02
1/3/2023 11:30:00 AM 7.73 45.914 0.154 4.74 47.74 12.03
1/3/2023 11:45:00 AM 7.79 46.022 0.154 4.57 29.31 12.06
1/3/2023 12:00:00 PM 7.83 46.094 0.154 4.68 44.13 12.09
1/3/2023 12:15:00 PM 7.88 46.184 0.154 4.57 31.8 12.09
1/3/2023 12:30:00 PM 7.92 46.256 0.154 4.7 48.8 12.1
1/3/2023 12:45:00 PM 7.96 46.328 0.153 4.68 32.81 12.08
1/3/2023 1:00:00 PM 8 46.4 0.153 4.76 48.44 12.08
1/3/2023 1:15:00 PM 8.03 46.454 0.153 4.8 29.42 12.05
1/3/2023 1:30:00 PM 8.07 46.526 0.153 4.84 33.51 12.04
1/3/2023 1:45:00 PM 8.1 46.58 0.153 4.86 45.76 12.05
1/3/2023 2:00:00 PM 8.14 46.652 0.153 4.87 25.01 12.01
1/3/2023 2:15:00 PM 8.18 46.724 0.153 4.86 37.36 11.99
1/3/2023 2:30:00 PM 8.22 46.796 0.153 4.87 34.35 12
1/3/2023 2:45:00 PM 8.25 46.85 0.152 4.9 18.66 12
1/3/2023 3:00:00 PM 8.3 46.94 0.152 4.91 42.11 12
1/3/2023 3:15:00 PM 8.33 46.994 0.152 4.84 37.77 12
1/3/2023 3:30:00 PM 8.35 47.03 0.152 4.8 28.45 11.98
1/3/2023 3:45:00 PM 8.37 47.066 0.152 4.82 65.84 11.94
1/3/2023 4:00:00 PM 8.38 47.084 0.152 4.85 57.03 11.89
1/3/2023 4:15:00 PM 8.39 47.102 0.152 4.83 41.85 11.84
1/3/2023 4:30:00 PM 8.4 47.12 0.152 4.85 73.87 11.78
1/3/2023 4:45:00 PM 8.4 47.12 0.152 4.84 65.81 11.73
1/3/2023 5:00:00 PM 8.41 47.138 0.152 4.88 70.46 11.66
1/3/2023 5:15:00 PM 8.41 47.138 0.152 4.93 83.73 11.62
1/3/2023 5:30:00 PM 8.41 47.138 0.152 4.9 51.58 11.58
1/3/2023 5:45:00 PM 8.41 47.138 0.152 4.95 35.39 11.55
1/3/2023 6:00:00 PM 8.41 47.138 0.152 4.97 31.36 11.51
1/3/2023 6:15:00 PM 8.41 47.138 0.152 5 48.02 11.49
1/3/2023 6:30:00 PM 8.41 47.138 0.152 4.99 45.19 11.45
1/3/2023 6:45:00 PM 8.41 47.138 0.153 4.92 63.33 11.43
1/3/2023 7:00:00 PM 8.41 47.138 0.153 4.92 42.89 11.42
1/3/2023 7:15:00 PM 8.41 47.138 0.153 4.99 81.42 11.39
1/3/2023 7:30:00 PM 8.41 47.138 0.153 4.93 38 11.37
1/3/2023 7:45:00 PM 8.41 47.138 0.153 4.99 49.12 11.35
1/3/2023 8:00:00 PM 8.4 47.12 0.153 5.03 50.18 11.36
1/3/2023 8:15:00 PM 8.4 47.12 0.153 5.01 42.24 11.33
1/3/2023 8:30:00 PM 8.4 47.12 0.153 4.99 24.73 11.32
1/3/2023 8:45:00 PM 8.39 47.102 0.153 4.99 81.98 11.32
1/3/2023 9:00:00 PM 8.39 47.102 0.154 5.04 37.54 11.32
1/3/2023 9:15:00 PM 8.39 47.102 0.154 4.95 57.46 11.3
1/3/2023 9:30:00 PM 8.39 47.102 0.154 4.96 27.45 11.29
1/3/2023 9:45:00 PM 8.4 47.12 0.154 4.94 72.68 11.29
1/3/2023 10:00:00 PM 8.4 47.12 0.154 4.94 39.1 11.29
1/3/2023 10:15:00 PM 8.41 47.138 0.154 4.96 33.23 11.28
1/3/2023 10:30:00 PM 8.41 47.138 0.154 4.96 59.2 11.27
1/3/2023 10:45:00 PM 8.41 47.138 0.154 4.99 47.7 11.26
1/3/2023 11:00:00 PM 8.42 47.156 0.154 4.99 62.64 11.26
1/3/2023 11:15:00 PM 8.42 47.156 0.154 4.95 59.42 11.27
1/3/2023 11:30:00 PM 8.42 47.156 0.155 4.98 43.32 11.26
1/3/2023 11:45:00 PM 8.42 47.156 0.155 4.95 26.79 11.26
1/4/2023 12:00:00 AM 8.41 47.138 0.155 4.97 52.56 11.27
1/4/2023 12:15:00 AM 8.41 47.138 0.155 4.99 56.35 11.27
1/4/2023 12:30:00 AM 8.4 47.12 0.155 4.97 38.44 11.27
1/4/2023 12:45:00 AM 8.39 47.102 0.155 4.96 55.57 11.26
1/4/2023 1:00:00 AM 8.38 47.084 0.155 4.94 41.4 11.28
1/4/2023 1:15:00 AM 8.37 47.066 0.155 4.97 53.65 11.28
1/4/2023 1:30:00 AM 8.36 47.048 0.155 4.95 47.32 11.28
1/4/2023 1:45:00 AM 8.34 47.012 0.156 4.98 19.02 11.29
1/4/2023 2:00:00 AM 8.33 46.994 0.156 5.01 46.6 11.29
1/4/2023 2:15:00 AM 8.31 46.958 0.156 5 39.89 11.31
1/4/2023 2:30:00 AM 8.3 46.94 0.156 4.93 33.43 11.3
1/4/2023 2:45:00 AM 8.28 46.904 0.156 4.92 38.45 11.31
1/4/2023 3:00:00 AM 8.26 46.868 0.156 4.94 41.27 11.31
1/4/2023 3:15:00 AM 8.24 46.832 0.156 5 27.09 11.33
1/4/2023 3:30:00 AM 8.22 46.796 0.156 5.02 49.16 11.32
1/4/2023 3:45:00 AM 8.2 46.76 0.156 5.02 32.41 11.33
1/4/2023 4:00:00 AM 8.18 46.724 0.155 4.97 45.74 11.35
1/4/2023 4:15:00 AM 8.15 46.67 0.155 4.98 40.14 11.34
1/4/2023 4:30:00 AM 8.13 46.634 0.155 4.98 33.7 11.35
1/4/2023 4:45:00 AM 8.1 46.58 0.155 5 50.82 11.36
1/4/2023 5:00:00 AM 8.08 46.544 0.155 5.02 49.47 11.37
1/4/2023 5:15:00 AM 8.05 46.49 0.155 5.01 42.06 11.36
1/4/2023 5:30:00 AM 8.03 46.454 0.155 5.02 20.47 11.39
1/4/2023 5:45:00 AM 8 46.4 0.155 5.03 27.68 11.4
1/4/2023 6:00:00 AM 7.97 46.346 0.156 4.99 61.14 11.41
1/4/2023 6:15:00 AM 7.95 46.31 0.157 5.01 36.07 11.42
1/4/2023 6:30:00 AM 7.92 46.256 0.157 4.96 49.56 11.42
1/4/2023 6:45:00 AM 7.89 46.202 0.158 4.97 20.97 11.45
1/4/2023 7:00:00 AM 7.86 46.148 0.16 4.99 127.8 11.45
1/4/2023 7:15:00 AM 7.83 46.094 0.159 5.07 23.99 11.46
1/4/2023 7:30:00 AM 7.8 46.04 0.159 5.06 30.91 11.48
1/4/2023 7:45:00 AM 7.78 46.004 0.159 5.01 33.13 11.49
1/4/2023 8:00:00 AM 7.76 45.968 0.159 4.98 38 11.51
1/4/2023 8:15:00 AM 7.74 45.932 0.159 4.99 34.73 11.54
1/4/2023 8:30:00 AM 7.74 45.932 0.159 5 42.57 11.6
1/4/2023 8:45:00 AM 7.74 45.932 0.159 5 23.18 11.66
1/4/2023 9:00:00 AM 7.76 45.968 0.159 5.07 17.59 11.72
1/4/2023 9:15:00 AM 7.78 46.004 0.159 5.06 25.33 11.79
1/4/2023 9:30:00 AM 7.81 46.058 0.159 5.05 12.65 11.84
1/4/2023 9:45:00 AM 7.85 46.13 0.159 5.08 33.17 11.88
1/4/2023 10:00:00 AM 7.9 46.22 0.159 5.12 18.92 11.92
1/4/2023 10:15:00 AM 7.94 46.292 0.159 5.13 20.6 11.97
1/4/2023 10:30:00 AM 8 46.4 0.159 5.13 24.82 12.01
1/4/2023 10:45:00 AM 8.08 46.544 0.159 5.13 23.93 12.04
1/4/2023 11:00:00 AM 8.17 46.706 0.159 5.12 11.39 12.08
1/4/2023 11:15:00 AM 8.24 46.832 0.159 5.11 24.98 12.1
1/4/2023 11:30:00 AM 8.32 46.976 0.159 5.12 14.6 12.11
1/4/2023 11:45:00 AM 8.42 47.156 0.159 5.11 10.03 12.12
1/4/2023 12:00:00 PM 8.53 47.354 0.159 5.14 10.51 12.11
1/4/2023 12:15:00 PM 8.65 47.57 0.159 5.13 16.06 12.11
1/4/2023 12:30:00 PM 8.75 47.75 0.159 5.13 11.16 12.12
1/4/2023 12:45:00 PM 8.84 47.912 0.158 5.16 13.08 12.09
1/4/2023 1:00:00 PM 8.91 48.038 0.158 5.16 11.67 12.08
1/4/2023 1:15:00 PM 8.98 48.164 0.158 5.18 48.16 12.05
1/4/2023 1:30:00 PM 9.01 48.218 0.158 5.21 7.75 11.99
1/4/2023 1:45:00 PM 9.04 48.272 0.158 5.24 30.71 11.91
1/4/2023 2:00:00 PM 9.11 48.398 0.158 5.23 17.7 11.89
1/4/2023 2:15:00 PM 9.17 48.506 0.158 5.22 13.16 11.91
1/4/2023 2:30:00 PM 9.21 48.578 0.158 5.18 19.53 11.89
1/4/2023 2:45:00 PM 9.25 48.65 0.158 5.19 18.75 11.85
1/4/2023 3:00:00 PM 9.27 48.686 0.158 5.21 12.16 11.79
1/4/2023 3:15:00 PM 9.29 48.722 0.158 5.21 15.1 11.69
1/4/2023 3:30:00 PM 9.31 48.758 0.158 5.22 15.96 11.65
1/4/2023 3:45:00 PM 9.32 48.776 0.158 5.61 12.53 11.59
1/4/2023 4:00:00 PM 9.34 48.812 0.158 5.53 18.71 11.54
1/4/2023 4:15:00 PM 9.35 48.83 0.158 5.45 27.33 11.47
1/4/2023 4:30:00 PM 9.36 48.848 0.158 5.54 32.17 11.44
1/4/2023 4:45:00 PM 9.37 48.866 0.158 5.49 12.34 11.38
1/4/2023 5:00:00 PM 9.39 48.902 0.158 5.42 14.5 11.32
1/4/2023 5:15:00 PM 9.39 48.902 0.158 5.44 28.77 11.27
1/4/2023 5:30:00 PM 9.39 48.902 0.158 5.42 43.11 11.23
1/4/2023 5:45:00 PM 9.39 48.902 0.158 5.4 37.46 11.19
1/4/2023 6:00:00 PM 9.39 48.902 0.158 5.36 28.15 11.16
1/4/2023 6:15:00 PM 9.39 48.902 0.159 5.29 36.6 11.13
1/4/2023 6:30:00 PM 9.39 48.902 0.159 5.29 22.55 11.1
1/4/2023 6:45:00 PM 9.4 48.92 0.159 5.23 29.15 11.06
1/4/2023 7:00:00 PM 9.42 48.956 0.158 5.12 13.55 11.06
1/4/2023 7:15:00 PM 9.44 48.992 0.159 5.12 38.83 11.04
1/4/2023 7:30:00 PM 9.46 49.028 0.159 5.16 58.45 11
1/4/2023 7:45:00 PM 9.48 49.064 0.159 5.01 24.57 11
1/4/2023 8:00:00 PM 9.5 49.1 0.16 4.98 9.5 10.98
1/4/2023 8:15:00 PM 9.52 49.136 0.159 5.07 53.82 10.97
1/4/2023 8:30:00 PM 9.54 49.172 0.159 5.01 29.99 10.94
1/4/2023 8:45:00 PM 9.56 49.208 0.158 5.05 12.19 10.94
1/4/2023 9:00:00 PM 9.57 49.226 0.158 5.09 12.55 10.94
1/4/2023 9:15:00 PM 9.59 49.262 0.159 5.15 18.32 10.92
1/4/2023 9:30:00 PM 9.6 49.28 0.159 5.17 32.63 10.89
1/4/2023 9:45:00 PM 9.63 49.334 0.159 5.19 56.71 10.9
1/4/2023 10:00:00 PM 9.64 49.352 0.159 5.18 20.18 10.88
1/4/2023 10:15:00 PM 9.65 49.37 0.159 5.18 34.07 10.88
1/4/2023 10:30:00 PM 9.67 49.406 0.159 5.21 20.78 10.87
1/4/2023 10:45:00 PM 9.67 49.406 0.159 5.24 29.23 10.87
1/4/2023 11:00:00 PM 9.66 49.388 0.159 5.23 63.21 10.87
1/4/2023 11:15:00 PM 9.66 49.388 0.159 5.25 50.19 10.86
1/4/2023 11:30:00 PM 9.66 49.388 0.159 5.26 47.06 10.86
1/4/2023 11:45:00 PM 9.66 49.388 0.159 5.24 28.74 10.86
1/5/2023 12:00:00 AM 9.67 49.406 0.159 5.26 93 10.87
1/5/2023 12:15:00 AM 9.66 49.388 0.159 5.24 43.36 10.86
1/5/2023 12:30:00 AM 9.65 49.37 0.16 5.29 14.85 10.86
1/5/2023 12:45:00 AM 9.65 49.37 0.16 5.28 14.59 10.87
1/5/2023 1:00:00 AM 9.65 49.37 0.16 5.28 15.61 10.86
1/5/2023 1:15:00 AM 9.64 49.352 0.16 5.31 34.48 10.88
1/5/2023 1:30:00 AM 9.63 49.334 0.16 5.31 26.65 10.88
1/5/2023 1:45:00 AM 9.62 49.316 0.16 5.29 61.53 10.88
1/5/2023 2:00:00 AM 9.62 49.316 0.16 5.31 22.32 10.88
1/5/2023 2:15:00 AM 9.61 49.298 0.16 5.29 61.55 10.88
1/5/2023 2:30:00 AM 9.59 49.262 0.16 5.29 20.87 10.89
1/5/2023 2:45:00 AM 9.58 49.244 0.16 5.29 19.97 10.89
1/5/2023 3:00:00 AM 9.55 49.19 0.16 5.27 18.32 10.9
1/5/2023 3:15:00 AM 9.53 49.154 0.16 5.27 11.54 10.9
1/5/2023 3:30:00 AM 9.52 49.136 0.16 5.26 16.4 10.91
1/5/2023 3:45:00 AM 9.49 49.082 0.16 5.3 16.32 10.92
1/5/2023 4:00:00 AM 9.47 49.046 0.16 5.29 11.92 10.93
1/5/2023 4:15:00 AM 9.43 48.974 0.16 5.34 12.31 10.94
1/5/2023 4:30:00 AM 9.4 48.92 0.16 5.33 18.54 10.96
1/5/2023 4:45:00 AM 9.36 48.848 0.16 5.35 18.7 10.97
1/5/2023 5:00:00 AM 9.33 48.794 0.16 5.33 25.2 10.98
1/5/2023 5:15:00 AM 9.29 48.722 0.16 5.34 28.2 10.99
1/5/2023 5:30:00 AM 9.25 48.65 0.16 5.36 30.58 11
1/5/2023 5:45:00 AM 9.2 48.56 0.16 5.31 28.73 11
1/5/2023 6:00:00 AM 9.15 48.47 0.16 5.34 33.78 11.03
1/5/2023 6:15:00 AM 9.1 48.38 0.16 5.34 31.26 11.04
1/5/2023 6:30:00 AM 9.05 48.29 0.16 5.34 54.37 11.04
1/5/2023 6:45:00 AM 9 48.2 0.16 5.33 33.85 11.08
1/5/2023 7:00:00 AM 8.94 48.092 0.16 5.32 28.63 11.1
1/5/2023 7:15:00 AM 8.89 48.002 0.16 5.19 39.82 11.11
1/5/2023 7:30:00 AM 8.84 47.912 0.16 5.2 40.22 11.13
1/5/2023 7:45:00 AM 8.78 47.804 0.16 5.22 39.93 11.15
1/5/2023 8:00:00 AM 8.73 47.714 0.16 5.24 40.79 11.17
1/5/2023 8:15:00 AM 8.68 47.624 0.16 5.24 17.54 11.22
1/5/2023 8:30:00 AM 8.65 47.57 0.16 5.21 21.3 11.27
1/5/2023 8:45:00 AM 8.61 47.498 0.16 5.18 24.99 11.33
1/5/2023 9:00:00 AM 8.59 47.462 0.16 5.19 18.94 11.39
1/5/2023 9:15:00 AM 8.58 47.444 0.16 5.19 21.26 11.46
1/5/2023 9:30:00 AM 8.57 47.426 0.16 5.23 27.55 11.52
1/5/2023 9:45:00 AM 8.57 47.426 0.16 5.25 35.51 11.59
1/5/2023 10:00:00 AM 8.57 47.426 0.16 5.25 24.37 11.63
1/5/2023 10:15:00 AM 8.58 47.444 0.16 5.25 20.65 11.69
1/5/2023 10:30:00 AM 8.6 47.48 0.16 5.23 24.37 11.73
1/5/2023 10:45:00 AM 8.63 47.534 0.16 5.24 23.62 11.77
1/5/2023 11:00:00 AM 8.7 47.66 0.16 5.17 26.15 11.81
1/5/2023 11:15:00 AM 8.8 47.84 0.16 4.79 34.9 11.87
1/5/2023 11:30:00 AM 8.89 48.002 0.16 4.92 42.64 11.91
1/5/2023 11:45:00 AM 8.95 48.11 0.16 5.03 23.57 11.93
1/5/2023 12:00:00 PM 9.05 48.29 0.16 5.03 35.7 11.95
1/5/2023 12:15:00 PM 9.15 48.47 0.16 5.14 33.08 11.97
1/5/2023 12:30:00 PM 9.22 48.596 0.16 5.14 31.76 11.96
1/5/2023 12:45:00 PM 9.32 48.776 0.16 5.2 31.52 11.96
1/5/2023 1:00:00 PM 9.39 48.902 0.16 5.21 37.79 11.93
1/5/2023 1:15:00 PM 9.5 49.1 0.159 5.26 34.68 11.94
1/5/2023 1:30:00 PM 9.53 49.154 0.159 5.27 31.97 11.94
1/5/2023 1:45:00 PM 9.54 49.172 0.159 5.31 31.53 11.91
1/5/2023 2:00:00 PM 9.57 49.226 0.159 5.34 29.79 11.88
1/5/2023 2:15:00 PM 9.65 49.37 0.159 5.35 29.9 11.87
1/5/2023 2:30:00 PM 9.69 49.442 0.159 5.35 25.84 11.89
1/5/2023 2:45:00 PM 9.72 49.496 0.159 5.37 29.15 11.85
1/5/2023 3:00:00 PM 9.7 49.46 0.159 5.41 29.86 11.82
1/5/2023 3:15:00 PM 9.66 49.388 0.159 5.44 28.58 11.8
1/5/2023 3:30:00 PM 9.64 49.352 0.159 5.43 29.16 11.77
1/5/2023 3:45:00 PM 9.61 49.298 0.159 5.44 31.63 11.74
1/5/2023 4:00:00 PM 9.57 49.226 0.159 5.45 26.01 11.7
1/5/2023 4:15:00 PM 9.54 49.172 0.159 5.44 35.97 11.64
1/5/2023 4:30:00 PM 9.52 49.136 0.159 5.44 32.15 11.57
1/5/2023 4:45:00 PM 9.49 49.082 0.159 5.38 40.58 11.51
1/5/2023 5:00:00 PM 9.44 48.992 0.159 5.31 28.15 11.46
1/5/2023 5:15:00 PM 9.39 48.902 0.159 5.28 67.87 11.4
1/5/2023 5:30:00 PM 9.35 48.83 0.159 5.21 27.15 11.35
1/5/2023 5:45:00 PM 9.31 48.758 0.159 5.21 24.98 11.33
1/5/2023 6:00:00 PM 9.29 48.722 0.159 5.25 25.78 11.3
1/5/2023 6:15:00 PM 9.27 48.686 0.159 5.27 31.01 11.27
1/5/2023 6:30:00 PM 9.25 48.65 0.159 5.29 28.19 11.25
1/5/2023 6:45:00 PM 9.23 48.614 0.159 5.33 33.9 11.24
1/5/2023 7:00:00 PM 9.22 48.596 0.159 5.34 25.81 11.22
1/5/2023 7:15:00 PM 9.2 48.56 0.159 5.38 27.31 11.19
1/5/2023 7:30:00 PM 9.19 48.542 0.159 5.39 34.36 11.18
1/5/2023 7:45:00 PM 9.18 48.524 0.159 5.39 60.19 11.16
1/5/2023 8:00:00 PM 9.18 48.524 0.159 5.39 34.72 11.14
1/5/2023 8:15:00 PM 9.17 48.506 0.158 5.36 31.39 11.14
1/5/2023 8:30:00 PM 9.16 48.488 0.158 5.36 41.52 11.13
1/5/2023 8:45:00 PM 9.15 48.47 0.158 5.36 39.15 11.12
1/5/2023 9:00:00 PM 9.15 48.47 0.158 5.36 25.22 11.09
1/5/2023 9:15:00 PM 9.14 48.452 0.158 5.31 32.77 11.1
1/5/2023 9:30:00 PM 9.13 48.434 0.158 5.3 41.14 11.09
1/5/2023 9:45:00 PM 9.12 48.416 0.157 5.32 41.38 11.1
1/5/2023 10:00:00 PM 9.11 48.398 0.157 5.33 41.68 11.1
1/5/2023 10:15:00 PM 9.11 48.398 0.156 5.32 49.45 11.1
1/5/2023 10:30:00 PM 9.09 48.362 0.156 5.33 37.05 11.11
1/5/2023 10:45:00 PM 9.08 48.344 0.156 5.33 45.05 11.1
1/5/2023 11:00:00 PM 9.07 48.326 0.156 5.32 30.99 11.1
1/5/2023 11:15:00 PM 9.05 48.29 0.156 5.32 44.56 11.11
1/5/2023 11:30:00 PM 9.03 48.254 0.156 5.18 33.38 11.12
1/5/2023 11:45:00 PM 9.01 48.218 0.156 5.17 37.7 11.12
1/6/2023 12:00:00 AM 8.99 48.182 0.155 5.16 50.23 11.12
1/6/2023 12:15:00 AM 8.97 48.146 0.155 5.17 48.06 11.13
1/6/2023 12:30:00 AM 8.95 48.11 0.155 5.19 58.49 11.13
1/6/2023 12:45:00 AM 8.93 48.074 0.155 5.22 38.05 11.13
1/6/2023 1:00:00 AM 8.91 48.038 0.155 5.26 34.74 11.14
1/6/2023 1:15:00 AM 8.88 47.984 0.155 5.27 57.35 11.16
1/6/2023 1:30:00 AM 8.86 47.948 0.155 5.29 26.85 11.14
1/6/2023 1:45:00 AM 8.83 47.894 0.155 5.27 32.32 11.16
1/6/2023 2:00:00 AM 8.8 47.84 0.156 5.29 46.05 11.18
1/6/2023 2:15:00 AM 8.77 47.786 0.156 5.28 35.03 11.18
1/6/2023 2:30:00 AM 8.75 47.75 0.156 4.87 36.73 11.18
1/6/2023 2:45:00 AM 8.72 47.696 0.156 4.99 35.76 11.18
1/6/2023 3:00:00 AM 8.69 47.642 0.156 5.08 37.94 11.21
1/6/2023 3:15:00 AM 8.67 47.606 0.156 5.17 34.33 11.2
1/6/2023 3:30:00 AM 8.65 47.57 0.156 5.2 34.53 11.22
1/6/2023 3:45:00 AM 8.62 47.516 0.156 5.23 33.23 11.23
1/6/2023 4:00:00 AM 8.6 47.48 0.156 5.25 31.91 11.23
1/6/2023 4:15:00 AM 8.57 47.426 0.156 5.25 40.7 11.24
1/6/2023 4:30:00 AM 8.55 47.39 0.157 5.21 39.48 11.26
1/6/2023 4:45:00 AM 8.52 47.336 0.157 5.18 29.44 11.27
1/6/2023 5:00:00 AM 8.49 47.282 0.157 5.2 26.67 11.26
1/6/2023 5:15:00 AM 8.46 47.228 0.157 5.2 51.44 11.29
1/6/2023 5:30:00 AM 8.43 47.174 0.157 5.23 36.86 11.29
1/6/2023 5:45:00 AM 8.4 47.12 0.157 5.25 32.06 11.31
1/6/2023 6:00:00 AM 8.36 47.048 0.156 5.26 35.63 11.3
1/6/2023 6:15:00 AM 8.33 46.994 0.156 5.27 44.72 11.33
1/6/2023 6:30:00 AM 8.3 46.94 0.156 5.16 47.2 11.35
1/6/2023 6:45:00 AM 8.27 46.886 0.156 5.15 38.36 11.35
1/6/2023 7:00:00 AM 8.24 46.832 0.156 5.21 40.33 11.37
1/6/2023 7:15:00 AM 8.21 46.778 0.156 5.1 34.74 11.38
1/6/2023 7:30:00 AM 8.18 46.724 0.156 5.13 30.98 11.39
1/6/2023 7:45:00 AM 8.16 46.688 0.156 5.17 63.16 11.4
1/6/2023 8:00:00 AM 8.13 46.634 0.156 5.18 49.09 11.43
1/6/2023 8:15:00 AM 8.11 46.598 0.156 5.2 31.77 11.47
1/6/2023 8:30:00 AM 8.09 46.562 0.156 5.23 35.79 11.5
1/6/2023 8:45:00 AM 8.07 46.526 0.156 5.24 32.16 11.57
1/6/2023 9:00:00 AM 8.06 46.508 0.156 5.22 11.89 11.6
1/6/2023 9:15:00 AM 8.05 46.49 0.156 5.2 20.72 11.68
1/6/2023 9:30:00 AM 8.06 46.508 0.156 5.19 15.04 11.74
1/6/2023 9:45:00 AM 8.04 46.472 0.156 5.23 25.27 11.8
1/6/2023 10:00:00 AM 8.04 46.472 0.156 5.25 16.04 11.83
1/6/2023 10:15:00 AM 8.02 46.436 0.156 5.25 19.81 11.87
1/6/2023 10:30:00 AM 7.99 46.382 0.156 5.22 17.21 11.89
1/6/2023 10:45:00 AM 8.03 46.454 0.156 5.2 14.56 11.94
1/6/2023 11:00:00 AM 8.11 46.598 0.156 5.21 20.76 12
1/6/2023 11:15:00 AM 8.14 46.652 0.156 5.22 25.24 12.04
1/6/2023 11:30:00 AM 8.12 46.616 0.156 5.23 17.84 12.06
1/6/2023 11:45:00 AM 8.17 46.706 0.156 5.26 17.25 12.06
1/6/2023 12:00:00 PM 8.25 46.85 0.156 5.26 16.84 12.1
1/6/2023 12:15:00 PM 8.25 46.85 0.156 5.27 27.26 12.11
1/6/2023 12:30:00 PM 8.21 46.778 0.156 5.28 36.95 12.11
1/6/2023 12:45:00 PM 8.29 46.922 0.156 5.3 36.22 12.15
1/6/2023 1:00:00 PM 8.27 46.886 0.156 5.27 52.59 12.16
1/6/2023 1:15:00 PM 8.27 46.886 0.156 5.3 65.44 12.16
1/6/2023 1:30:00 PM 8.32 46.976 0.156 5.33 20.59 12.14
1/6/2023 1:45:00 PM 8.38 47.084 0.156 5.31 25.24 12.17
1/6/2023 2:00:00 PM 8.4 47.12 0.156 5.23 22.58 12.18
1/6/2023 2:15:00 PM 8.37 47.066 0.156 5.33 22.6 12.15
1/6/2023 2:30:00 PM 8.35 47.03 0.156 5.32 27.99 12.15
1/6/2023 2:45:00 PM 8.32 46.976 0.156 5.38 16.27 12.13
1/6/2023 3:00:00 PM 8.27 46.886 0.156 5.41 27.67 12.11
1/6/2023 3:15:00 PM 8.22 46.796 0.156 5.38 45.34 12.09
1/6/2023 3:30:00 PM 8.17 46.706 0.156 5.38 112.7 12.1
1/6/2023 3:45:00 PM 8.12 46.616 0.157 5.37 22.45 12.05
1/6/2023 4:00:00 PM 8.07 46.526 0.157 5.42 32.54 12
1/6/2023 4:15:00 PM 8.03 46.454 0.157 5.42 30.38 11.96
1/6/2023 4:30:00 PM 7.98 46.364 0.157 5.34 21.29 11.96
1/6/2023 4:45:00 PM 7.92 46.256 0.157 5.34 17.35 11.93
1/6/2023 5:00:00 PM 7.87 46.166 0.157 5.37 17.07 11.88
1/6/2023 5:15:00 PM 7.82 46.076 0.157 5.35 104.9 11.87
1/6/2023 5:30:00 PM 7.78 46.004 0.157 5.32 37.14 11.84
1/6/2023 5:45:00 PM 7.74 45.932 0.157 5.33 21.33 11.82
1/6/2023 6:00:00 PM 7.7 45.86 0.158 5.33 32.56 11.8
1/6/2023 6:15:00 PM 7.64 45.752 0.158 5.4 18.78 11.79
1/6/2023 6:30:00 PM 7.58 45.644 0.158 5.32 14.65 11.76
1/6/2023 6:45:00 PM 7.52 45.536 0.158 5.36 22.79 11.78
1/6/2023 7:00:00 PM 7.47 45.446 0.157 5.33 31.1 11.77
1/6/2023 7:15:00 PM 7.42 45.356 0.157 5.35 19.04 11.78
1/6/2023 7:30:00 PM 7.38 45.284 0.157 5.26 17.99 11.77
1/6/2023 7:45:00 PM 7.35 45.23 0.157 5.25 17.11 11.79
1/6/2023 8:00:00 PM 7.32 45.176 0.157 5.24 19.91 11.77
1/6/2023 8:15:00 PM 7.29 45.122 0.157 5.22 18.24 11.78
1/6/2023 8:30:00 PM 7.27 45.086 0.157 5.23 18.43 11.79
1/6/2023 8:45:00 PM 7.25 45.05 0.157 5.23 20.51 11.79
1/6/2023 9:00:00 PM 7.22 44.996 0.158 5.22 13.43 11.79
1/6/2023 9:15:00 PM 7.2 44.96 0.158 5.21 21.02 11.8
1/6/2023 9:30:00 PM 7.18 44.924 0.158 5.21 17.87 11.81
1/6/2023 9:45:00 PM 7.15 44.87 0.158 5.16 17.56 11.81
1/6/2023 10:00:00 PM 7.13 44.834 0.158 5.1 40.91 11.83
1/6/2023 10:15:00 PM 7.11 44.798 0.158 5.13 19.14 11.83
1/6/2023 10:30:00 PM 7.09 44.762 0.158 5.14 22.43 11.84
1/6/2023 10:45:00 PM 7.07 44.726 0.158 5.17 22.33 11.85
1/6/2023 11:00:00 PM 7.05 44.69 0.158 5.18 48.36 11.86
1/6/2023 11:15:00 PM 7.04 44.672 0.158 5.17 34.31 11.86
1/6/2023 11:30:00 PM 7.02 44.636 0.158 5.28 22.18 11.87
1/6/2023 11:45:00 PM 7 44.6 0.158 5.2 23.79 11.87
1/7/2023 12:00:00 AM 6.98 44.564 0.159 5.28 29.97 11.89
1/7/2023 12:15:00 AM 6.96 44.528 0.159 5.22 22.8 11.9
1/7/2023 12:30:00 AM 6.94 44.492 0.159 5.2 24.78 11.89
1/7/2023 12:45:00 AM 6.92 44.456 0.159 5.2 18.56 11.92
1/7/2023 1:00:00 AM 6.89 44.402 0.159 3.06 43.12 11.92
1/7/2023 1:15:00 AM 6.87 44.366 0.159 3.4 24.88 11.93
1/7/2023 1:30:00 AM 6.84 44.312 0.159 3.43 34.38 11.93
1/7/2023 1:45:00 AM 6.82 44.276 0.159 3.86 15.09 11.94
1/7/2023 2:00:00 AM 6.79 44.222 0.159 4.18 23.4 11.95
1/7/2023 2:15:00 AM 6.77 44.186 0.159 4.43 24.92 11.94
1/7/2023 2:30:00 AM 6.74 44.132 0.159 4.59 17.65 11.97
1/7/2023 2:45:00 AM 6.72 44.096 0.159 4.75 27.08 11.99
1/7/2023 3:00:00 AM 6.68 44.024 0.159 4.88 16.79 12.01
1/7/2023 3:15:00 AM 6.65 43.97 0.159 4.93 15.05 12.01
1/7/2023 3:30:00 AM 6.62 43.916 0.159 4.99 14.65 12.02
1/7/2023 3:45:00 AM 6.58 43.844 0.159 5.03 19.63 12.02
1/7/2023 4:00:00 AM 6.54 43.772 0.159 5.09 20.39 12.04
1/7/2023 4:15:00 AM 6.5 43.7 0.159 5.1 31.66 12.05
1/7/2023 4:30:00 AM 6.47 43.646 0.159 5.1 36.41 12.06
1/7/2023 4:45:00 AM 6.42 43.556 0.159 5.14 15.25 12.08
1/7/2023 5:00:00 AM 6.37 43.466 0.159 5.12 45.13 12.1
1/7/2023 5:15:00 AM 6.32 43.376 0.159 5.16 25.87 12.11
1/7/2023 5:30:00 AM 6.27 43.286 0.159 5.19 21.64 12.11
1/7/2023 5:45:00 AM 6.23 43.214 0.16 5.18 25.32 12.14
1/7/2023 6:00:00 AM 6.19 43.142 0.16 5.09 18.49 12.14
1/7/2023 6:15:00 AM 6.15 43.07 0.16 5.18 18.56 12.17
1/7/2023 6:30:00 AM 6.1 42.98 0.16 5.19 19.84 12.16
1/7/2023 6:45:00 AM 6.05 42.89 0.16 5.19 33.37 12.19
1/7/2023 7:00:00 AM 6.02 42.836 0.16 5.24 19.69 12.22
1/7/2023 7:15:00 AM 5.98 42.764 0.16 5.25 24.38 12.22
1/7/2023 7:30:00 AM 5.94 42.692 0.16 5.2 16.18 12.25
1/7/2023 7:45:00 AM 5.91 42.638 0.16 5.19 24.92 12.27
1/7/2023 8:00:00 AM 5.89 42.602 0.16 5.17 37.2 12.3
1/7/2023 8:15:00 AM 5.88 42.584 0.16 5.16 33.88 12.33
1/7/2023 8:30:00 AM 5.87 42.566 0.16 5.16 18.72 12.38
1/7/2023 8:45:00 AM 5.87 42.566 0.159 4.79 29 12.44
1/7/2023 9:00:00 AM 5.88 42.584 0.159 4.75 24.2 12.5
1/7/2023 9:15:00 AM 5.9 42.62 0.159 4.96 20.26 12.56
1/7/2023 9:30:00 AM 5.93 42.674 0.159 5.06 18.13 12.63
1/7/2023 9:45:00 AM 5.96 42.728 0.159 5.15 17.78 12.67
1/7/2023 10:00:00 AM 6 42.8 0.159 5.15 31.97 12.74
1/7/2023 10:15:00 AM 6.05 42.89 0.159 5.16 25.59 12.78
1/7/2023 10:30:00 AM 6.1 42.98 0.159 5.27 21.24 12.81
1/7/2023 10:45:00 AM 6.17 43.106 0.159 5.26 32 12.84
1/7/2023 11:00:00 AM 6.25 43.25 0.159 5.23 20.51 12.88
1/7/2023 11:15:00 AM 6.34 43.412 0.159 5.26 24.08 12.9
1/7/2023 11:30:00 AM 6.4 43.52 0.159 5.25 23.19 12.9
1/7/2023 11:45:00 AM 6.48 43.664 0.159 5.25 23.76 12.92
1/7/2023 12:00:00 PM 6.54 43.772 0.159 5.28 43.96 12.9
1/7/2023 12:15:00 PM 6.58 43.844 0.159 5.28 15.71 12.88
1/7/2023 12:30:00 PM 6.7 44.06 0.159 5.29 16.32 12.88
1/7/2023 12:45:00 PM 6.84 44.312 0.159 5.3 18.04 12.89
1/7/2023 1:00:00 PM 6.91 44.438 0.159 5.3 22.68 12.89
1/7/2023 1:15:00 PM 6.92 44.456 0.159 5.32 26.3 12.91
1/7/2023 1:30:00 PM 6.84 44.312 0.159 5.39 21.99 12.81
1/7/2023 1:45:00 PM 6.86 44.348 0.159 5.41 27.84 12.76
1/7/2023 2:00:00 PM 6.95 44.51 0.159 5.39 16.25 12.74
1/7/2023 2:15:00 PM 6.98 44.564 0.159 5.37 35.17 12.73
1/7/2023 2:30:00 PM 7.02 44.636 0.158 5.4 44.19 12.73
1/7/2023 2:45:00 PM 7 44.6 0.159 5.4 21.99 12.72
1/7/2023 3:00:00 PM 6.93 44.474 0.159 5.41 15.52 12.65
1/7/2023 3:15:00 PM 6.88 44.384 0.159 5.43 15.9 12.64
1/7/2023 3:30:00 PM 6.85 44.33 0.158 5.46 22.48 12.62
1/7/2023 3:45:00 PM 6.83 44.294 0.158 5.46 16.03 12.63
1/7/2023 4:00:00 PM 6.83 44.294 0.158 5.43 35.29 12.62
1/7/2023 4:15:00 PM 6.8 44.24 0.158 5.43 25.54 12.58
1/7/2023 4:30:00 PM 6.78 44.204 0.158 5.47 20.95 12.53
1/7/2023 4:45:00 PM 6.74 44.132 0.158 5.51 15.34 12.49
1/7/2023 5:00:00 PM 6.7 44.06 0.158 5.42 18.71 12.44
1/7/2023 5:15:00 PM 6.65 43.97 0.158 5.44 27.86 12.4
1/7/2023 5:30:00 PM 6.62 43.916 0.158 5.42 16.97 12.35
1/7/2023 5:45:00 PM 6.59 43.862 0.158 5.44 21.82 12.35
1/7/2023 6:00:00 PM 6.57 43.826 0.158 5.41 19.15 12.3
1/7/2023 6:15:00 PM 6.54 43.772 0.158 5.39 14.59 12.29
1/7/2023 6:30:00 PM 6.5 43.7 0.158 5.42 21.19 12.29
1/7/2023 6:45:00 PM 6.47 43.646 0.158 5.42 18.31 12.25
1/7/2023 7:00:00 PM 6.44 43.592 0.159 5.46 18.02 12.26
1/7/2023 7:15:00 PM 6.42 43.556 0.159 5.47 16.84 12.25
1/7/2023 7:30:00 PM 6.39 43.502 0.159 5.47 16.61 12.24
1/7/2023 7:45:00 PM 6.36 43.448 0.159 5.52 18.71 12.23
1/7/2023 8:00:00 PM 6.33 43.394 0.159 5.49 20.01 12.23
1/7/2023 8:15:00 PM 6.29 43.322 0.159 5.48 17.51 12.22
1/7/2023 8:30:00 PM 6.25 43.25 0.159 5.57 26.3 12.22
1/7/2023 8:45:00 PM 6.21 43.178 0.159 5.54 21.95 12.23
1/7/2023 9:00:00 PM 6.17 43.106 0.159 5.52 20.09 12.22
1/7/2023 9:15:00 PM 6.12 43.016 0.159 5.54 17.26 12.23
1/7/2023 9:30:00 PM 6.08 42.944 0.159 5.59 17.59 12.23
1/7/2023 9:45:00 PM 6.03 42.854 0.159 5.55 19.25 12.25
1/7/2023 10:00:00 PM 5.98 42.764 0.159 5.53 18.98 12.25
1/7/2023 10:15:00 PM 5.94 42.692 0.159 5.54 18.95 12.26
1/7/2023 10:30:00 PM 5.89 42.602 0.159 5.54 27.87 12.27
1/7/2023 10:45:00 PM 5.83 42.494 0.159 5.53 35.16 12.29
1/7/2023 11:00:00 PM 5.79 42.422 0.159 5.5 21.58 12.29
1/7/2023 11:15:00 PM 5.73 42.314 0.159 5.53 17.4 12.31
1/7/2023 11:30:00 PM 5.68 42.224 0.159 5.48 17.49 12.34
1/7/2023 11:45:00 PM 5.63 42.134 0.159 5.43 16.95 12.36
1/8/2023 12:00:00 AM 5.57 42.026 0.159 5.46 17.22 12.38
1/8/2023 12:15:00 AM 5.52 41.936 0.159 5.5 15.51 12.41
1/8/2023 12:30:00 AM 5.46 41.828 0.159 5.5 24.82 12.43
1/8/2023 12:45:00 AM 5.41 41.738 0.159 5.51 19.48 12.45
1/8/2023 1:00:00 AM 5.36 41.648 0.159 5.53 16.98 12.46
1/8/2023 1:15:00 AM 5.3 41.54 0.159 5.5 15.16 12.49
1/8/2023 1:30:00 AM 5.25 41.45 0.16 5.51 28.17 12.51
1/8/2023 1:45:00 AM 5.2 41.36 0.16 5.49 25.05 12.51
1/8/2023 2:00:00 AM 5.15 41.27 0.16 5.49 15.91 12.53
1/8/2023 2:15:00 AM 5.1 41.18 0.16 5.46 14.18 12.55
1/8/2023 2:30:00 AM 5.05 41.09 0.16 5.47 27.57 12.58
1/8/2023 2:45:00 AM 4.99 40.982 0.16 5.46 15.71 12.58
1/8/2023 3:00:00 AM 4.94 40.892 0.16 5.45 19.28 12.63
1/8/2023 3:15:00 AM 4.89 40.802 0.16 5.44 33.77 12.63
1/8/2023 3:30:00 AM 4.84 40.712 0.16 5.45 27.62 12.66
1/8/2023 3:45:00 AM 4.79 40.622 0.16 5.44 17.48 12.67
1/8/2023 4:00:00 AM 4.73 40.514 0.16 5.46 15.98 12.71
1/8/2023 4:15:00 AM 4.69 40.442 0.16 5.44 20.54 12.71
1/8/2023 4:30:00 AM 4.63 40.334 0.16 5.41 18.69 12.73
1/8/2023 4:45:00 AM 4.58 40.244 0.16 5.4 47.06 12.77
1/8/2023 5:00:00 AM 4.52 40.136 0.16 5.43 22.78 12.79
1/8/2023 5:15:00 AM 4.47 40.046 0.16 5.36 16.08 12.81
1/8/2023 5:30:00 AM 4.42 39.956 0.16 5.31 18.09 12.83
1/8/2023 5:45:00 AM 4.36 39.848 0.16 5.25 17.15 12.85
1/8/2023 6:00:00 AM 4.31 39.758 0.16 5.15 23.98 12.88
1/8/2023 6:15:00 AM 4.25 39.65 0.16 5.1 21.7 12.88
1/8/2023 6:30:00 AM 4.2 39.56 0.16 5.07 15.88 12.92
1/8/2023 6:45:00 AM 4.15 39.47 0.16 5.04 18.39 12.95
1/8/2023 7:00:00 AM 4.09 39.362 0.16 4.96 18.72 12.96
1/8/2023 7:15:00 AM 4.03 39.254 0.16 4.96 19.02 13
1/8/2023 7:30:00 AM 3.99 39.182 0.16 4.94 19.8 13.02
1/8/2023 7:45:00 AM 3.93 39.074 0.16 4.95 17.01 13.05
1/8/2023 8:00:00 AM 3.88 38.984 0.161 4.94 22.28 13.09
1/8/2023 8:15:00 AM 3.84 38.912 0.161 4.9 15.61 13.14
1/8/2023 8:30:00 AM 3.8 38.84 0.161 4.93 16.46 13.19
1/8/2023 8:45:00 AM 3.75 38.75 0.161 4.97 17.59 13.23
1/8/2023 9:00:00 AM 3.72 38.696 0.161 4.96 19.31 13.28
1/8/2023 9:15:00 AM 3.7 38.66 0.16 4.98 17.33 13.34
1/8/2023 9:30:00 AM 3.68 38.624 0.16 4.99 33.96 13.37
1/8/2023 9:45:00 AM 3.68 38.624 0.16 4.96 19.71 13.44
1/8/2023 10:00:00 AM 3.7 38.66 0.16 4.95 41.59 13.49
1/8/2023 10:15:00 AM 3.74 38.732 0.16 5 21.95 13.54
1/8/2023 10:30:00 AM 3.79 38.822 0.16 5 19.11 13.59
1/8/2023 10:45:00 AM 3.86 38.948 0.16 5.01 17.28 13.63
1/8/2023 11:00:00 AM 3.96 39.128 0.16 4.99 16.07 13.66
1/8/2023 11:15:00 AM 4.08 39.344 0.16 4.97 15.46 13.66
1/8/2023 11:30:00 AM 4.18 39.524 0.16 4.99 63.88 13.7
1/8/2023 11:45:00 AM 4.3 39.74 0.159 5 20.44 13.7
1/8/2023 12:00:00 PM 4.41 39.938 0.159 4.99 24.37 13.71
1/8/2023 12:15:00 PM 4.49 40.082 0.159 5.01 21.74 13.71
1/8/2023 12:30:00 PM 4.57 40.226 0.159 5.05 17.65 13.71
1/8/2023 12:45:00 PM 4.67 40.406 0.159 5.05 18.32 13.69
1/8/2023 1:00:00 PM 4.76 40.568 0.159 5.13 18.39 13.69
1/8/2023 1:15:00 PM 4.84 40.712 0.159 5.18 16.27 13.68
1/8/2023 1:30:00 PM 4.91 40.838 0.159 5.15 17.13 13.65
1/8/2023 1:45:00 PM 4.96 40.928 0.159 5.14 16.98 13.63
1/8/2023 2:00:00 PM 5.01 41.018 0.159 5.19 19.61 13.61
1/8/2023 2:15:00 PM 5.03 41.054 0.159 5.2 15.6 13.58
1/8/2023 2:30:00 PM 5.05 41.09 0.159 5.24 32.43 13.55
1/8/2023 2:45:00 PM 5.05 41.09 0.159 5.19 21.17 13.53
1/8/2023 3:00:00 PM 5.05 41.09 0.159 5.18 21.37 13.48
1/8/2023 3:15:00 PM 5.04 41.072 0.159 5.2 14.55 13.45
1/8/2023 3:30:00 PM 5.02 41.036 0.159 5.25 16.38 13.4
1/8/2023 3:45:00 PM 5 41 0.159 5.25 15.92 13.35
1/8/2023 4:00:00 PM 4.98 40.964 0.159 5.34 13.62 13.29
1/8/2023 4:15:00 PM 4.97 40.946 0.159 5.35 15.88 13.26
1/8/2023 4:30:00 PM 4.96 40.928 0.159 5.28 14.12 13.22
1/8/2023 4:45:00 PM 4.94 40.892 0.159 5.29 17.63 13.19
1/8/2023 5:00:00 PM 4.92 40.856 0.159 5.21 17.52 13.13
1/8/2023 5:15:00 PM 4.9 40.82 0.159 5.15 22.15 13.09
1/8/2023 5:30:00 PM 4.89 40.802 0.159 5.22 15.33 13.04
1/8/2023 5:45:00 PM 4.88 40.784 0.159 5.24 14.79 13.01
1/8/2023 6:00:00 PM 4.87 40.766 0.159 5.23 17.44 12.96
1/8/2023 6:15:00 PM 4.86 40.748 0.159 5.3 13.65 12.95
1/8/2023 6:30:00 PM 4.85 40.73 0.159 5.26 15.63 12.93
1/8/2023 6:45:00 PM 4.84 40.712 0.159 5.3 18.78 12.9
1/8/2023 7:00:00 PM 4.84 40.712 0.159 5.3 21.23 12.88
1/8/2023 7:15:00 PM 4.84 40.712 0.159 5.33 15.08 12.87
1/8/2023 7:30:00 PM 4.83 40.694 0.159 5.27 13.66 12.85
1/8/2023 7:45:00 PM 4.83 40.694 0.159 5.28 16.59 12.83
1/8/2023 8:00:00 PM 4.84 40.712 0.159 5.35 17.23 12.82
1/8/2023 8:15:00 PM 4.84 40.712 0.159 5.36 15.52 12.8
1/8/2023 8:30:00 PM 4.85 40.73 0.159 5.35 15.85 12.78
1/8/2023 8:45:00 PM 4.86 40.748 0.159 5.35 16.03 12.76
1/8/2023 9:00:00 PM 4.87 40.766 0.159 5.37 17.84 12.73
1/8/2023 9:15:00 PM 4.88 40.784 0.159 5.35 20.5 12.73
1/8/2023 9:30:00 PM 4.89 40.802 0.159 5.28 19.66 12.73
1/8/2023 9:45:00 PM 4.91 40.838 0.159 5.27 31.29 12.72
1/8/2023 10:00:00 PM 4.92 40.856 0.159 5.28 16.83 12.7
1/8/2023 10:15:00 PM 4.93 40.874 0.159 5.34 29.78 12.69
1/8/2023 10:30:00 PM 4.95 40.91 0.159 5.31 16.06 12.68
1/8/2023 10:45:00 PM 4.96 40.928 0.159 5.25 16.58 12.66
1/8/2023 11:00:00 PM 4.97 40.946 0.159 5.25 15.03 12.66
1/8/2023 11:15:00 PM 4.98 40.964 0.159 5.3 16.3 12.65
1/8/2023 11:30:00 PM 5 41 0.159 5.27 21.64 12.63
1/8/2023 11:45:00 PM 5.01 41.018 0.159 5.34 16.55 12.62
1/9/2023 12:00:00 AM 5.02 41.036 0.159 5.29 25.1 12.62
1/9/2023 12:15:00 AM 5.03 41.054 0.159 5.29 21.47 12.62
1/9/2023 12:30:00 AM 5.04 41.072 0.159 5.3 17.31 12.6
1/9/2023 12:45:00 AM 5.05 41.09 0.159 5.26 16.81 12.59
1/9/2023 1:00:00 AM 5.06 41.108 0.159 5.27 20.99 12.59
1/9/2023 1:15:00 AM 5.07 41.126 0.159 5.01 31.9 12.59
1/9/2023 1:30:00 AM 5.08 41.144 0.159 4.99 16.69 12.58
1/9/2023 1:45:00 AM 5.08 41.144 0.159 4.99 17.36 12.58
1/9/2023 2:00:00 AM 5.09 41.162 0.159 5.07 28.6 12.57
1/9/2023 2:15:00 AM 5.1 41.18 0.159 5.09 25.48 12.57
1/9/2023 2:30:00 AM 5.11 41.198 0.159 5.07 23.76 12.55
1/9/2023 2:45:00 AM 5.11 41.198 0.159 5.05 22.21 12.54
1/9/2023 3:00:00 AM 5.11 41.198 0.159 5.07 65.99 12.55
1/9/2023 3:15:00 AM 5.09 41.162 0.159 5.04 19.64 12.55
1/9/2023 3:30:00 AM 5.02 41.036 0.159 5.29 18.72 12.54
1/9/2023 3:45:00 AM 5 41 0.159 5.26 27.53 12.54
1/9/2023 4:00:00 AM 4.98 40.964 0.159 5.27 19.38 12.56
1/9/2023 4:15:00 AM 4.98 40.964 0.159 5.15 20.09 12.55
1/9/2023 4:30:00 AM 4.98 40.964 0.159 5.2 18.52 12.55
1/9/2023 4:45:00 AM 4.97 40.946 0.159 4.85 19.91 12.56
1/9/2023 5:00:00 AM 4.96 40.928 0.159 5.06 20.09 12.56
1/9/2023 5:15:00 AM 4.96 40.928 0.159 5.12 20.85 12.55
1/9/2023 5:30:00 AM 4.95 40.91 0.159 5.1 26.4 12.57
1/9/2023 5:45:00 AM 4.93 40.874 0.159 5.07 17.05 12.57
1/9/2023 6:00:00 AM 4.92 40.856 0.159 5.11 16.53 12.57
1/9/2023 6:15:00 AM 4.91 40.838 0.159 4.84 33.54 12.59
1/9/2023 6:30:00 AM 4.89 40.802 0.159 4.81 22.44 12.58
1/9/2023 6:45:00 AM 4.86 40.748 0.159 4.96 17.09 12.59
1/9/2023 7:00:00 AM 4.83 40.694 0.159 5 21.44 12.6
1/9/2023 7:15:00 AM 4.79 40.622 0.159 5.07 20.79 12.62
1/9/2023 7:30:00 AM 4.76 40.568 0.159 5.09 40.62 12.6
1/9/2023 7:45:00 AM 4.74 40.532 0.159 5.13 20.87 12.64
1/9/2023 8:00:00 AM 4.71 40.478 0.159 5.14 19.3 12.65
1/9/2023 8:15:00 AM 4.68 40.424 0.159 5.15 52.12 12.68
1/9/2023 8:30:00 AM 4.66 40.388 0.159 5.2 44.83 12.74
1/9/2023 8:45:00 AM 4.63 40.334 0.159 5.24 35.08 12.78
1/9/2023 9:00:00 AM 4.61 40.298 0.159 5.21 24.11 12.82
1/9/2023 9:15:00 AM 4.59 40.262 0.159 5.25 23.32 12.87
1/9/2023 9:30:00 AM 4.58 40.244 0.158 5.19 38.34 12.9
1/9/2023 9:45:00 AM 4.58 40.244 0.158 5.26 22.38 12.94
1/9/2023 10:00:00 AM 4.59 40.262 0.158 5.2 21.73 12.99
1/9/2023 10:15:00 AM 4.61 40.298 0.158 5.2 16.02 13.04
1/9/2023 10:30:00 AM 4.65 40.37 0.158 5.22 32.4 13.1
1/9/2023 10:45:00 AM 4.69 40.442 0.158 5.25 26.59 13.11
1/9/2023 11:00:00 AM 4.79 40.622 0.158 5.26 23.22 13.13
1/9/2023 11:15:00 AM 4.89 40.802 0.158 5.23 36.27 13.17
1/9/2023 11:30:00 AM 4.93 40.874 0.158 5.2 21.28 13.17
1/9/2023 11:45:00 AM 4.98 40.964 0.158 5.22 16.98 13.19
1/9/2023 12:00:00 PM 5.08 41.144 0.158 5.17 19.27 13.19
1/9/2023 12:15:00 PM 5.27 41.486 0.158 5.09 33.72 13.19
1/9/2023 12:30:00 PM 5.39 41.702 0.157 5.11 23.89 13.19
1/9/2023 12:45:00 PM 5.45 41.81 0.157 5.13 21.9 13.18
1/9/2023 1:00:00 PM 5.55 41.99 0.157 5.12 31.75 13.18
1/9/2023 1:15:00 PM 5.66 42.188 0.157 5.17 27.15 13.16
1/9/2023 1:30:00 PM 5.75 42.35 0.157 5.17 34.55 13.14
1/9/2023 1:45:00 PM 5.81 42.458 0.157 5.17 20.19 13.12
1/9/2023 2:00:00 PM 5.84 42.512 0.157 5.17 30.56 13.09
1/9/2023 2:15:00 PM 5.87 42.566 0.157 5.23 23.18 13.05
1/9/2023 2:30:00 PM 5.85 42.53 0.157 5.22 27 13.03
1/9/2023 2:45:00 PM 5.84 42.512 0.157 5.22 40.18 13.02
1/9/2023 3:00:00 PM 5.79 42.422 0.157 5.26 31.66 13.01
1/9/2023 3:15:00 PM 5.7 42.26 0.157 5.31 24.82 12.97
1/9/2023 3:30:00 PM 5.63 42.134 0.157 5.31 23.19 12.96
1/9/2023 3:45:00 PM 5.56 42.008 0.157 5.33 23.87 12.93
1/9/2023 4:00:00 PM 5.5 41.9 0.157 5.32 19.4 12.93
1/9/2023 4:15:00 PM 5.43 41.774 0.157 5.35 23.33 12.92
1/9/2023 4:30:00 PM 5.37 41.666 0.157 5.28 19.56 12.9
1/9/2023 4:45:00 PM 5.31 41.558 0.157 5.26 25.47 12.88
1/9/2023 5:00:00 PM 5.25 41.45 0.157 5.27 23.7 12.83
1/9/2023 5:15:00 PM 5.19 41.342 0.157 5.27 19.51 12.8
1/9/2023 5:30:00 PM 5.13 41.234 0.157 5.29 25.18 12.77
1/9/2023 5:45:00 PM 5.08 41.144 0.157 5.3 21.3 12.74
1/9/2023 6:00:00 PM 5.03 41.054 0.157 5.37 23.69 12.73
1/9/2023 6:15:00 PM 4.97 40.946 0.157 5.29 27.63 12.72
1/9/2023 6:30:00 PM 4.92 40.856 0.157 5.31 28.7 12.69
1/9/2023 6:45:00 PM 4.87 40.766 0.157 5.34 22.74 12.71
1/9/2023 7:00:00 PM 4.82 40.676 0.157 5.36 24.91 12.72
1/9/2023 7:15:00 PM 4.78 40.604 0.157 5.37 29.1 12.71
1/9/2023 7:30:00 PM 4.73 40.514 0.157 5.36 28.86 12.71
1/9/2023 7:45:00 PM 4.68 40.424 0.157 5.33 22.16 12.72
1/9/2023 8:00:00 PM 4.64 40.352 0.157 5.35 20.14 12.72
1/9/2023 8:15:00 PM 4.6 40.28 0.157 5.33 18.58 12.7
1/9/2023 8:30:00 PM 4.56 40.208 0.157 5.32 21.67 12.7
1/9/2023 8:45:00 PM 4.53 40.154 0.157 5.29 27.2 12.72
1/9/2023 9:00:00 PM 4.51 40.118 0.157 5.29 24.69 12.72
1/9/2023 9:15:00 PM 4.49 40.082 0.157 5.33 24 12.73
1/9/2023 9:30:00 PM 4.46 40.028 0.157 5.3 25.61 12.73
1/9/2023 9:45:00 PM 4.44 39.992 0.157 5.3 21.35 12.73
1/9/2023 10:00:00 PM 4.41 39.938 0.157 5.29 37.08 12.75
1/9/2023 10:15:00 PM 4.38 39.884 0.157 5.31 29.28 12.75
1/9/2023 10:30:00 PM 4.35 39.83 0.158 5.3 23.27 12.76
1/9/2023 10:45:00 PM 4.32 39.776 0.158 5.29 31.36 12.76
1/9/2023 11:00:00 PM 4.29 39.722 0.158 5.3 53.8 12.76
1/9/2023 11:15:00 PM 4.26 39.668 0.158 5.33 25.43 12.77
1/9/2023 11:30:00 PM 4.23 39.614 0.158 5.3 23.69 12.78
1/9/2023 11:45:00 PM 4.2 39.56 0.158 5.31 22.08 12.79
1/10/2023 12:00:00 AM 4.16 39.488 0.158 5.29 22.15 12.83
1/10/2023 12:15:00 AM 4.13 39.434 0.158 5.25 21.66 12.84
1/10/2023 12:30:00 AM 4.1 39.38 0.158 5.26 22.09 12.83
1/10/2023 12:45:00 AM 4.06 39.308 0.158 5.29 25.79 12.85
1/10/2023 1:00:00 AM 4.02 39.236 0.158 5.27 25.62 12.87
1/10/2023 1:15:00 AM 3.99 39.182 0.158 5.27 23.31 12.88
1/10/2023 1:30:00 AM 3.95 39.11 0.158 5.27 18.06 12.9
1/10/2023 1:45:00 AM 3.91 39.038 0.158 5.24 26.16 12.92
1/10/2023 2:00:00 AM 3.86 38.948 0.158 5.19 23.32 12.93
1/10/2023 2:15:00 AM 3.83 38.894 0.158 5.13 25.33 12.96
1/10/2023 2:30:00 AM 3.78 38.804 0.158 4.83 24.34 12.97
1/10/2023 2:45:00 AM 3.74 38.732 0.158 4.85 24.68 12.98
1/10/2023 3:00:00 AM 3.69 38.642 0.158 4.94 23.58 13
1/10/2023 3:15:00 AM 3.65 38.57 0.158 5 24.02 13.04
1/10/2023 3:30:00 AM 3.61 38.498 0.158 4.83 21.48 13.05
1/10/2023 3:45:00 AM 3.57 38.426 0.158 4.72 22.35 13.08
1/10/2023 4:00:00 AM 3.53 38.354 0.158 4.78 25.82 13.1
1/10/2023 4:15:00 AM 3.5 38.3 0.159 4.81 24.14 13.1
1/10/2023 4:30:00 AM 3.46 38.228 0.158 4.88 33.93 13.11
1/10/2023 4:45:00 AM 3.43 38.174 0.159 4.94 24.36 13.13
1/10/2023 5:00:00 AM 3.39 38.102 0.158 4.98 25.83 13.16
1/10/2023 5:15:00 AM 3.35 38.03 0.159 4.95 37.81 13.16
1/10/2023 5:30:00 AM 3.31 37.958 0.159 4.93 24.23 13.19
1/10/2023 5:45:00 AM 3.27 37.886 0.159 4.96 26.32 13.2
1/10/2023 6:00:00 AM 3.23 37.814 0.159 4.94 25.57 13.21
1/10/2023 6:15:00 AM 3.2 37.76 0.159 4.94 24.83 13.25
1/10/2023 6:30:00 AM 3.16 37.688 0.159 4.97 33.18 13.25
1/10/2023 6:45:00 AM 3.12 37.616 0.159 4.94 23.11 13.28
1/10/2023 7:00:00 AM 3.08 37.544 0.159 5 27.57 13.3
1/10/2023 7:15:00 AM 3.04 37.472 0.159 5.05 24.7 13.3
1/10/2023 7:30:00 AM 3 37.4 0.159 4.99 23.37 13.35
1/10/2023 7:45:00 AM 2.97 37.346 0.159 5 29.7 13.35
1/10/2023 8:00:00 AM 2.93 37.274 0.159 5.05 43.84 13.4
1/10/2023 8:15:00 AM 2.9 37.22 0.159 5.04 29.14 13.44
1/10/2023 8:30:00 AM 2.88 37.184 0.159 5.13 33.66 13.5
1/10/2023 8:45:00 AM 2.86 37.148 0.159 5.15 22.95 13.55
1/10/2023 9:00:00 AM 2.85 37.13 0.159 5.08 25.77 13.62
1/10/2023 9:15:00 AM 2.85 37.13 0.159 5.07 39.35 13.68
1/10/2023 9:30:00 AM 2.87 37.166 0.159 5.09 32.17 13.73
1/10/2023 9:45:00 AM 2.91 37.238 0.159 5.05 25.9 13.77
1/10/2023 10:00:00 AM 2.96 37.328 0.159 5.04 25.26 13.82
1/10/2023 10:15:00 AM 3.02 37.436 0.159 4.99 23.8 13.85
1/10/2023 10:30:00 AM 3.09 37.562 0.159 4.97 27.8 13.88
1/10/2023 10:45:00 AM 3.16 37.688 0.159 4.98 26.76 13.89
1/10/2023 11:00:00 AM 3.25 37.85 0.159 4.98 26.46 13.91
1/10/2023 11:15:00 AM 3.35 38.03 0.159 4.99 24.14 13.91
1/10/2023 11:30:00 AM 3.46 38.228 0.159 4.99 21.94 13.91
1/10/2023 11:45:00 AM 3.59 38.462 0.158 5 26.72 13.93
1/10/2023 12:00:00 PM 3.73 38.714 0.158 4.99 26.28 13.92
1/10/2023 12:15:00 PM 3.84 38.912 0.158 5 45.58 13.91
1/10/2023 12:30:00 PM 3.92 39.056 0.158 5 46.52 13.89
1/10/2023 12:45:00 PM 4.03 39.254 0.158 5.03 25.47 13.87
1/10/2023 1:00:00 PM 4.16 39.488 0.158 5.02 23.02 13.85
1/10/2023 1:15:00 PM 4.29 39.722 0.158 5.02 31.3 13.79
1/10/2023 1:30:00 PM 4.4 39.92 0.158 5 23.82 13.77
1/10/2023 1:45:00 PM 4.48 40.064 0.158 5 24.77 13.73
1/10/2023 2:00:00 PM 4.52 40.136 0.158 4.68 21.83 13.7
1/10/2023 2:15:00 PM 4.57 40.226 0.158 4.71 34.21 13.68
1/10/2023 2:30:00 PM 4.58 40.244 0.158 4.8 30.57 13.64
1/10/2023 2:45:00 PM 4.61 40.298 0.158 4.87 23.83 13.59
1/10/2023 3:00:00 PM 4.6 40.28 0.158 4.92 29.62 13.59
1/10/2023 3:15:00 PM 4.6 40.28 0.158 5.05 25.33 13.56
1/10/2023 3:30:00 PM 4.6 40.28 0.157 5 25.26 13.53
1/10/2023 3:45:00 PM 4.6 40.28 0.157 4.97 26.01 13.51
1/10/2023 4:00:00 PM 4.59 40.262 0.157 5.04 27.07 13.48
1/10/2023 4:15:00 PM 4.58 40.244 0.157 5.09 25.68 13.43
1/10/2023 4:30:00 PM 4.56 40.208 0.157 5.09 28.63 13.38
1/10/2023 4:45:00 PM 4.53 40.154 0.157 5.12 25.34 13.33
1/10/2023 5:00:00 PM 4.5 40.1 0.157 5.13 24.16 13.29
1/10/2023 5:15:00 PM 4.46 40.028 0.157 5.09 24.61 13.22
1/10/2023 5:30:00 PM 4.43 39.974 0.157 5.12 29.42 13.18
1/10/2023 5:45:00 PM 4.41 39.938 0.157 5.19 26.23 13.16
1/10/2023 6:00:00 PM 4.39 39.902 0.157 5.18 22.09 13.11
1/10/2023 6:15:00 PM 4.37 39.866 0.157 5.21 29.87 13.1
1/10/2023 6:30:00 PM 4.34 39.812 0.158 5.15 25.53 13.07
1/10/2023 6:45:00 PM 4.32 39.776 0.158 5.09 26.68 13.07
1/10/2023 7:00:00 PM 4.29 39.722 0.158 4.82 24.46 13.03
1/10/2023 7:15:00 PM 4.26 39.668 0.158 4.84 29.47 13.02
1/10/2023 7:30:00 PM 4.22 39.596 0.158 4.89 28.58 13.02
1/10/2023 7:45:00 PM 4.19 39.542 0.158 4.93 29.31 13
1/10/2023 8:00:00 PM 4.16 39.488 0.158 5.01 33.08 13.01
1/10/2023 8:15:00 PM 4.13 39.434 0.158 5.04 25.03 12.99
1/10/2023 8:30:00 PM 4.1 39.38 0.158 5.06 27.48 12.99
1/10/2023 8:45:00 PM 4.07 39.326 0.158 5.07 25.76 12.99
1/10/2023 9:00:00 PM 4.04 39.272 0.158 4.96 28.47 12.99
1/10/2023 9:15:00 PM 4.01 39.218 0.158 4.9 33.51 12.98
1/10/2023 9:30:00 PM 3.98 39.164 0.158 4.94 32.36 12.99
1/10/2023 9:45:00 PM 3.95 39.11 0.158 4.91 35.73 12.99
1/10/2023 10:00:00 PM 3.92 39.056 0.158 4.83 28.07 12.99
1/10/2023 10:15:00 PM 3.89 39.002 0.158 4.86 35.24 13
1/10/2023 10:30:00 PM 3.87 38.966 0.158 4.82 26.63 13
1/10/2023 10:45:00 PM 3.84 38.912 0.158 4.79 33.46 13
1/10/2023 11:00:00 PM 3.82 38.876 0.158 4.86 28.99 13
1/10/2023 11:15:00 PM 3.8 38.84 0.158 4.9 25.74 13.01
1/10/2023 11:30:00 PM 3.78 38.804 0.158 4.92 23.34 13.01
1/10/2023 11:45:00 PM 3.75 38.75 0.158 4.91 30.68 13.03
1/11/2023 12:00:00 AM 3.73 38.714 0.158 4.9 24.54 13.03
1/11/2023 12:15:00 AM 3.71 38.678 0.158 4.89 27.59 13.04
1/11/2023 12:30:00 AM 3.68 38.624 0.158 4.9 39.44 13.05
1/11/2023 12:45:00 AM 3.65 38.57 0.158 4.95 23.24 13.07
1/11/2023 1:00:00 AM 3.63 38.534 0.158 4.98 21.32 13.07
1/11/2023 1:15:00 AM 3.6 38.48 0.158 4.96 24.99 13.09
1/11/2023 1:30:00 AM 3.56 38.408 0.159 4.99 24.42 13.08
1/11/2023 1:45:00 AM 3.53 38.354 0.159 5.03 27.5 13.1
1/11/2023 2:00:00 AM 3.5 38.3 0.159 5.03 23.51 13.13
1/11/2023 2:15:00 AM 3.47 38.246 0.159 5 32.01 13.15
1/11/2023 2:30:00 AM 3.43 38.174 0.159 4.97 23.25 13.13
1/11/2023 2:45:00 AM 3.4 38.12 0.159 4.98 25.94 13.16
1/11/2023 3:00:00 AM 3.37 38.066 0.159 4.91 36.88 13.17
1/11/2023 3:15:00 AM 3.33 37.994 0.159 4.89 27.27 13.2
1/11/2023 3:30:00 AM 3.3 37.94 0.159 4.92 30.13 13.21
1/11/2023 3:45:00 AM 3.27 37.886 0.159 4.97 22.03 13.21
1/11/2023 4:00:00 AM 3.22 37.796 0.159 4.96 29.82 13.25
1/11/2023 4:15:00 AM 3.19 37.742 0.159 4.89 24.84 13.26
1/11/2023 4:30:00 AM 3.16 37.688 0.159 4.88 26.26 13.27
1/11/2023 4:45:00 AM 3.12 37.616 0.16 4.96 24.39 13.28
1/11/2023 5:00:00 AM 3.08 37.544 0.16 4.98 26.62 13.3
1/11/2023 5:15:00 AM 3.04 37.472 0.16 5 28.72 13.32
1/11/2023 5:30:00 AM 3 37.4 0.16 4.9 25.2 13.35
1/11/2023 5:45:00 AM 2.96 37.328 0.16 4.93 26.27 13.36
1/11/2023 6:00:00 AM 2.92 37.256 0.16 4.94 26.05 13.37
1/11/2023 6:15:00 AM 2.88 37.184 0.16 5.05 26.07 13.4
1/11/2023 6:30:00 AM 2.83 37.094 0.16 4.97 21.9 13.43
1/11/2023 6:45:00 AM 2.79 37.022 0.16 5.02 38.46 13.44
1/11/2023 7:00:00 AM 2.75 36.95 0.16 4.97 26.47 13.45
1/11/2023 7:15:00 AM 2.71 36.878 0.16 4.96 29 13.46
1/11/2023 7:30:00 AM 2.67 36.806 0.16 4.38 24.59 13.51
1/11/2023 7:45:00 AM 2.63 36.734 0.16 4.46 28.74 13.53
1/11/2023 8:00:00 AM 2.6 36.68 0.16 4.7 56.57 13.58
1/11/2023 8:15:00 AM 2.57 36.626 0.16 4.76 32.29 13.62
1/11/2023 8:30:00 AM 2.55 36.59 0.16 4.8 23.5 13.67
1/11/2023 8:45:00 AM 2.53 36.554 0.16 4.68 24.56 13.75
1/11/2023 9:00:00 AM 2.53 36.554 0.16 4.76 24.45 13.81
1/11/2023 9:15:00 AM 2.54 36.572 0.16 4.82 27.03 13.88
1/11/2023 9:30:00 AM 2.56 36.608 0.159 4.87 31.77 13.91
1/11/2023 9:45:00 AM 2.59 36.662 0.159 4.87 35.64 13.98
1/11/2023 10:00:00 AM 2.64 36.752 0.159 4.93 25.93 14
1/11/2023 10:15:00 AM 2.69 36.842 0.159 4.94 30.7 14.02
1/11/2023 10:30:00 AM 2.76 36.968 0.159 4.93 32.33 14.04
1/11/2023 10:45:00 AM 2.84 37.112 0.159 4.95 31.78 14.06
1/11/2023 11:00:00 AM 2.94 37.292 0.159 4.97 30.92 14.08
1/11/2023 11:15:00 AM 3.04 37.472 0.159 4.97 30.16 14.1
1/11/2023 11:30:00 AM 3.16 37.688 0.159 4.96 28.57 14.09
1/11/2023 11:45:00 AM 3.26 37.868 0.159 5 25.27 14.1
1/11/2023 12:00:00 PM 3.38 38.084 0.159 5.01 28.56 14.09
1/11/2023 12:15:00 PM 3.52 38.336 0.159 5 29.09 14.08
1/11/2023 12:30:00 PM 3.67 38.606 0.159 4.99 29.28 14.05
1/11/2023 12:45:00 PM 3.78 38.804 0.158 5 29.36 14.02
1/11/2023 1:00:00 PM 3.86 38.948 0.158 4.98 31.56 14
1/11/2023 1:15:00 PM 3.91 39.038 0.159 4.96 26.42 13.98
1/11/2023 1:30:00 PM 3.97 39.146 0.158 5 32.38 13.95
1/11/2023 1:45:00 PM 4.04 39.272 0.158 5.01 28.14 13.92
1/11/2023 2:00:00 PM 4.12 39.416 0.158 5.06 24.72 13.87
1/11/2023 2:15:00 PM 4.18 39.524 0.158 4.97 27.96 13.86
1/11/2023 2:30:00 PM 4.22 39.596 0.158 5.11 24.73 13.83
1/11/2023 2:45:00 PM 4.24 39.632 0.158 5.08 24.47 13.8
1/11/2023 3:00:00 PM 4.28 39.704 0.158 5.1 27.49 13.77
1/11/2023 3:15:00 PM 4.3 39.74 0.158 5.08 30.89 13.76
1/11/2023 3:30:00 PM 4.3 39.74 0.158 5.15 27.93 13.74
1/11/2023 3:45:00 PM 4.29 39.722 0.158 5.08 34.25 13.71
1/11/2023 4:00:00 PM 4.26 39.668 0.158 5.17 33.21 13.66
1/11/2023 4:15:00 PM 4.25 39.65 0.158 5.15 23.44 13.62
1/11/2023 4:30:00 PM 4.23 39.614 0.158 5.07 32.19 13.56
1/11/2023 4:45:00 PM 4.22 39.596 0.158 5.05 25.85 13.49
1/11/2023 5:00:00 PM 4.2 39.56 0.158 5.07 19.34 13.45
1/11/2023 5:15:00 PM 4.18 39.524 0.158 5.04 50.19 13.4
1/11/2023 5:30:00 PM 4.15 39.47 0.158 4.95 24.75 13.37
1/11/2023 5:45:00 PM 4.13 39.434 0.158 4.97 30.55 13.32
1/11/2023 6:00:00 PM 4.11 39.398 0.158 5.02 24.22 13.3
1/11/2023 6:15:00 PM 4.09 39.362 0.158 5.03 35.3 13.27
1/11/2023 6:30:00 PM 4.07 39.326 0.158 5.08 29.3 13.25
1/11/2023 6:45:00 PM 4.06 39.308 0.158 5.02 30.03 13.22
1/11/2023 7:00:00 PM 4.05 39.29 0.158 5.03 25.46 13.22
1/11/2023 7:15:00 PM 4.05 39.29 0.158 5.02 29.44 13.19
1/11/2023 7:30:00 PM 4.05 39.29 0.158 4.99 31.18 13.17
1/11/2023 7:45:00 PM 4.05 39.29 0.158 4.99 30.88 13.16
1/11/2023 8:00:00 PM 4.05 39.29 0.158 5.01 21.51 13.14
1/11/2023 8:15:00 PM 4.06 39.308 0.158 5.01 30.82 13.13
1/11/2023 8:30:00 PM 4.06 39.308 0.158 4.98 30.3 13.11
1/11/2023 8:45:00 PM 4.07 39.326 0.158 4.99 28.57 13.1
1/11/2023 9:00:00 PM 4.08 39.344 0.158 4.98 28.19 13.07
1/11/2023 9:15:00 PM 4.09 39.362 0.158 5.01 40.49 13.05
1/11/2023 9:30:00 PM 4.1 39.38 0.158 5.01 29.01 13.05
1/11/2023 9:45:00 PM 4.12 39.416 0.158 4.97 27.28 13.06
1/11/2023 10:00:00 PM 4.14 39.452 0.158 5.01 32.63 13.04
1/11/2023 10:15:00 PM 4.16 39.488 0.158 5 32.95 13.02
1/11/2023 10:30:00 PM 4.18 39.524 0.158 5.01 31.88 13.01
1/11/2023 10:45:00 PM 4.19 39.542 0.158 5.01 29.6 13
1/11/2023 11:00:00 PM 4.21 39.578 0.158 5 28.29 12.99
1/11/2023 11:15:00 PM 4.23 39.614 0.158 5.04 26.82 12.99
1/11/2023 11:30:00 PM 4.24 39.632 0.158 5.01 26.78 12.97
1/11/2023 11:45:00 PM 4.26 39.668 0.158 4.99 32.34 12.96
1/12/2023 12:00:00 AM 4.28 39.704 0.158 5.01 31.07 12.93
1/12/2023 12:15:00 AM 4.3 39.74 0.158 5.03 28.35 12.94
1/12/2023 12:30:00 AM 4.31 39.758 0.158 5.04 31.24 12.92
1/12/2023 12:45:00 AM 4.33 39.794 0.158 5.07 27.45 12.93
1/12/2023 1:00:00 AM 4.35 39.83 0.158 5.13 27.55 12.93
1/12/2023 1:15:00 AM 4.36 39.848 0.158 5.03 27.7 12.92
1/12/2023 1:30:00 AM 4.38 39.884 0.158 5.08 28.25 12.89
1/12/2023 1:45:00 AM 4.39 39.902 0.158 5.07 30.41 12.87
1/12/2023 2:00:00 AM 4.41 39.938 0.158 5.05 31.27 12.88
1/12/2023 2:15:00 AM 4.42 39.956 0.158 5.06 29.54 12.87
1/12/2023 2:30:00 AM 4.44 39.992 0.158 5.08 53.11 12.87
1/12/2023 2:45:00 AM 4.45 40.01 0.158 5.17 31.58 12.87
1/12/2023 3:00:00 AM 4.46 40.028 0.158 5.08 32.16 12.84
1/12/2023 3:15:00 AM 4.47 40.046 0.158 5.13 34.49 12.85
1/12/2023 3:30:00 AM 4.49 40.082 0.158 5.13 34.04 12.84
1/12/2023 3:45:00 AM 4.5 40.1 0.158 5.19 48.17 12.84
1/12/2023 4:00:00 AM 4.51 40.118 0.158 5.08 34.99 12.84
1/12/2023 4:15:00 AM 4.52 40.136 0.158 5.1 38.16 12.84
1/12/2023 4:30:00 AM 4.53 40.154 0.158 5.2 35.76 12.82
1/12/2023 4:45:00 AM 4.55 40.19 0.158 5.16 36.05 12.83
1/12/2023 5:00:00 AM 4.56 40.208 0.157 5.2 34.34 12.81
1/12/2023 5:15:00 AM 4.57 40.226 0.158 5.22 33.72 12.81
1/12/2023 5:30:00 AM 4.58 40.244 0.158 5.22 30.34 12.79
1/12/2023 5:45:00 AM 4.59 40.262 0.158 5.24 29.74 12.81
1/12/2023 6:00:00 AM 4.6 40.28 0.158 5.21 28.91 12.8
1/12/2023 6:15:00 AM 4.61 40.298 0.158 5.2 28.39 12.8
1/12/2023 6:30:00 AM 4.63 40.334 0.158 5.2 30.56 12.78
1/12/2023 6:45:00 AM 4.64 40.352 0.158 5.2 35.65 12.78
1/12/2023 7:00:00 AM 4.65 40.37 0.158 5.14 27.28 12.77
1/12/2023 7:15:00 AM 4.67 40.406 0.158 5.2 30.28 12.77
1/12/2023 7:30:00 AM 4.68 40.424 0.158 5.11 26.79 12.76
1/12/2023 7:45:00 AM 4.69 40.442 0.158 5.11 37.17 12.76
1/12/2023 8:00:00 AM 4.71 40.478 0.158 5.14 32.64 12.76
1/12/2023 8:15:00 AM 4.73 40.514 0.158 5.13 30.07 12.76
1/12/2023 8:30:00 AM 4.75 40.55 0.158 5.16 34.13 12.8
1/12/2023 8:45:00 AM 4.77 40.586 0.158 5.18 31.08 12.8
1/12/2023 9:00:00 AM 4.8 40.64 0.158 5.14 29.16 12.82
1/12/2023 9:15:00 AM 4.83 40.694 0.158 5.14 33.1 12.85
1/12/2023 9:30:00 AM 4.87 40.766 0.158 5.17 28.74 12.87
1/12/2023 9:45:00 AM 4.91 40.838 0.158 5.16 26.57 12.93
1/12/2023 10:00:00 AM 4.95 40.91 0.158 5.16 27.32 12.95
1/12/2023 10:15:00 AM 5 41 0.157 5.18 28.8 12.97
1/12/2023 10:30:00 AM 5.06 41.108 0.157 5.2 33.93 13
1/12/2023 10:45:00 AM 5.13 41.234 0.157 5.06 35.55 13.01
1/12/2023 11:00:00 AM 5.2 41.36 0.157 5.05 29.9 13.06
1/12/2023 11:15:00 AM 5.27 41.486 0.157 5.17 26.51 13.05
1/12/2023 11:30:00 AM 5.35 41.63 0.157 5.16 35.99 13.08
1/12/2023 11:45:00 AM 5.42 41.756 0.157 5.15 26.2 13.09
1/12/2023 12:00:00 PM 5.48 41.864 0.157 5.09 29.69 13.06
1/12/2023 12:15:00 PM 5.55 41.99 0.157 5.12 31.23 13.07
1/12/2023 12:30:00 PM 5.63 42.134 0.157 5.17 37.14 13.04
1/12/2023 12:45:00 PM 5.72 42.296 0.157 5.09 31.86 13.06
1/12/2023 1:00:00 PM 5.8 42.44 0.157 5.14 44.77 13.05
1/12/2023 1:15:00 PM 5.87 42.566 0.157 5.14 32.79 13.03
1/12/2023 1:30:00 PM 5.94 42.692 0.157 5.18 30.84 13.02
1/12/2023 1:45:00 PM 6.06 42.908 0.157 5.17 32.64 13
1/12/2023 2:00:00 PM 6.14 43.052 0.157 5.1 33.73 13
1/12/2023 2:15:00 PM 6.21 43.178 0.157 5.11 46.75 12.96
1/12/2023 2:30:00 PM 6.25 43.25 0.157 5.09 29.85 12.95
1/12/2023 2:45:00 PM 6.3 43.34 0.157 5.06 44.91 12.9
1/12/2023 3:00:00 PM 6.34 43.412 0.157 4.79 33 12.88
1/12/2023 3:15:00 PM 6.37 43.466 0.156 4.87 30.37 12.81
1/12/2023 3:30:00 PM 6.39 43.502 0.157 4.99 36.36 12.71
1/12/2023 3:45:00 PM 6.41 43.538 0.157 5.05 38.35 12.62
1/12/2023 4:00:00 PM 6.42 43.556 0.157 5.09 31.53 12.57
1/12/2023 4:15:00 PM 6.44 43.592 0.157 5.11 36.65 12.52
1/12/2023 4:30:00 PM 6.45 43.61 0.157 5.12 40.49 12.46
1/12/2023 4:45:00 PM 6.46 43.628 0.157 5.11 37.73 12.41
1/12/2023 5:00:00 PM 6.47 43.646 0.157 5.07 29.66 12.37
1/12/2023 5:15:00 PM 6.48 43.664 0.157 5.16 43.86 12.32
1/12/2023 5:30:00 PM 6.49 43.682 0.157 5.1 40.69 12.27
1/12/2023 5:45:00 PM 6.5 43.7 0.157 5.12 69.14 12.24
1/12/2023 6:00:00 PM 6.52 43.736 0.157 5.12 59.83 12.2
1/12/2023 6:15:00 PM 6.53 43.754 0.157 5.13 47.56 12.15
1/12/2023 6:30:00 PM 6.54 43.772 0.157 5.13 70.89 12.13
1/12/2023 6:45:00 PM 6.55 43.79 0.157 5.14 40.37 12.12
1/12/2023 7:00:00 PM 6.56 43.808 0.157 5.15 78.77 12.08
1/12/2023 7:15:00 PM 6.58 43.844 0.157 5.22 62.96 12.07
1/12/2023 7:30:00 PM 6.59 43.862 0.157 5.12 50.82 12.02
1/12/2023 7:45:00 PM 6.61 43.898 0.157 5.13 68.85 12.02
1/12/2023 8:00:00 PM 6.63 43.934 0.157 5.12 67.86 11.99
1/12/2023 8:15:00 PM 6.65 43.97 0.157 5.12 64.72 11.95
1/12/2023 8:30:00 PM 6.67 44.006 0.157 5.15 68.09 11.95
1/12/2023 8:45:00 PM 6.7 44.06 0.157 5.13 67 11.92
1/12/2023 9:00:00 PM 6.73 44.114 0.157 5.15 60.42 11.91
1/12/2023 9:15:00 PM 6.75 44.15 0.157 5.13 54.91 11.89
1/12/2023 9:30:00 PM 6.78 44.204 0.157 5.17 64.84 11.86
1/12/2023 9:45:00 PM 6.8 44.24 0.157 5.15 67.94 11.84
1/12/2023 10:00:00 PM 6.84 44.312 0.157 5.14 60.76 11.82
1/12/2023 10:15:00 PM 6.86 44.348 0.157 5.17 75.43 11.81
1/12/2023 10:30:00 PM 6.89 44.402 0.156 5.17 48.52 11.79
1/12/2023 10:45:00 PM 6.92 44.456 0.156 5.16 49.14 11.78
1/12/2023 11:00:00 PM 6.94 44.492 0.156 5.18 54.01 11.76
1/12/2023 11:15:00 PM 6.98 44.564 0.156 5.15 45.9 11.75
1/12/2023 11:30:00 PM 7.01 44.618 0.156 5.15 79.13 11.72
1/12/2023 11:45:00 PM 7.04 44.672 0.156 5.18 50.06 11.72
1/13/2023 12:00:00 AM 7.06 44.708 0.155 5.15 57.41 11.7
1/13/2023 12:15:00 AM 7.08 44.744 0.155 5.18 72.29 11.68
1/13/2023 12:30:00 AM 7.1 44.78 0.155 5.16 61.82 11.67
1/13/2023 12:45:00 AM 7.14 44.852 0.155 5.16 45.29 11.65
1/13/2023 1:00:00 AM 7.18 44.924 0.155 5.13 66.48 11.65
1/13/2023 1:15:00 AM 7.21 44.978 0.155 5.13 67.48 11.64
1/13/2023 1:30:00 AM 7.25 45.05 0.155 5.06 63.15 11.63
1/13/2023 1:45:00 AM 7.29 45.122 0.155 5.11 70.51 11.6
1/13/2023 2:00:00 AM 7.32 45.176 0.155 5.09 53 11.59
1/13/2023 2:15:00 AM 7.34 45.212 0.155 5.16 60.86 11.58
1/13/2023 2:30:00 AM 7.37 45.266 0.155 5.13 55.24 11.58
1/13/2023 2:45:00 AM 7.4 45.32 0.154 5.08 61.43 11.56
1/13/2023 3:00:00 AM 7.43 45.374 0.155 5.05 77.63 11.54
1/13/2023 3:15:00 AM 7.46 45.428 0.155 5.11 64.4 11.53
1/13/2023 3:30:00 AM 7.49 45.482 0.155 5.1 51.28 11.53
1/13/2023 3:45:00 AM 7.53 45.554 0.155 5.13 46.34 11.52
1/13/2023 4:00:00 AM 7.55 45.59 0.155 5.11 46.94 11.5
1/13/2023 4:15:00 AM 7.57 45.626 0.154 5.11 73.68 11.49
1/13/2023 4:30:00 AM 7.59 45.662 0.155 5.09 46.07 11.48
1/13/2023 4:45:00 AM 7.61 45.698 0.154 5.11 49.98 11.46
1/13/2023 5:00:00 AM 7.64 45.752 0.154 5.1 59.77 11.44
1/13/2023 5:15:00 AM 7.65 45.77 0.154 5.14 54.35 11.46
1/13/2023 5:30:00 AM 7.67 45.806 0.154 5.14 66.53 11.44
1/13/2023 5:45:00 AM 7.69 45.842 0.154 5.15 50.54 11.44
1/13/2023 6:00:00 AM 7.7 45.86 0.154 5.15 45.76 11.43
1/13/2023 6:15:00 AM 7.72 45.896 0.154 5.17 65.48 11.42
1/13/2023 6:30:00 AM 7.74 45.932 0.154 5.17 63.03 11.42
1/13/2023 6:45:00 AM 7.76 45.968 0.154 5.17 51.72 11.41
1/13/2023 7:00:00 AM 7.76 45.968 0.153 5.17 66.02 11.4
1/13/2023 7:15:00 AM 7.77 45.986 0.153 5.18 78.91 11.41
1/13/2023 7:30:00 AM 7.77 45.986 0.153 5.17 46.46 11.41
1/13/2023 7:45:00 AM 7.77 45.986 0.153 5.16 83.64 11.41
1/13/2023 8:00:00 AM 7.77 45.986 0.154 5.16 62.72 11.41
1/13/2023 8:15:00 AM 7.76 45.968 0.154 5.17 96.7 11.42
1/13/2023 8:30:00 AM 7.75 45.95 0.154 5.15 50.14 11.43
1/13/2023 8:45:00 AM 7.74 45.932 0.154 5.2 114.1 11.45
1/13/2023 9:00:00 AM 7.75 45.95 0.153 5.2 76.5 11.5
1/13/2023 9:15:00 AM 7.76 45.968 0.153 5.21 69.2 11.56
1/13/2023 9:30:00 AM 7.76 45.968 0.153 5.15 54.21 11.61
1/13/2023 9:45:00 AM 7.76 45.968 0.153 5.16 55.28 11.65
1/13/2023 10:00:00 AM 7.75 45.95 0.153 5.18 84.23 11.71
1/13/2023 10:15:00 AM 7.75 45.95 0.153 5.19 50.81 11.73
1/13/2023 10:30:00 AM 7.79 46.022 0.153 5.2 47.45 11.78
1/13/2023 10:45:00 AM 7.81 46.058 0.153 5.19 81.97 11.84
1/13/2023 11:00:00 AM 7.83 46.094 0.153 5.21 65.08 11.86
1/13/2023 11:15:00 AM 7.88 46.184 0.153 5.21 98.19 11.9
1/13/2023 11:30:00 AM 7.93 46.274 0.153 5.21 80.8 11.93
1/13/2023 11:45:00 AM 7.97 46.346 0.153 5.21 85.43 11.94
1/13/2023 12:00:00 PM 8 46.4 0.153 5.21 110.7 11.98
1/13/2023 12:15:00 PM 8.02 46.436 0.153 5.21 95.36 11.98
1/13/2023 12:30:00 PM 8.05 46.49 0.153 5.21 81.52 11.99
1/13/2023 12:45:00 PM 8.08 46.544 0.153 5.22 82.54 12
1/13/2023 1:00:00 PM 8.11 46.598 0.153 5.21 109 12.01
1/13/2023 1:15:00 PM 8.15 46.67 0.153 5.22 122.5 12.03
1/13/2023 1:30:00 PM 8.17 46.706 0.153 5.23 174.3 12.03
1/13/2023 1:45:00 PM 8.17 46.706 0.153 5.24 190 12.03
1/13/2023 2:00:00 PM 8.18 46.724 0.153 5.23 281.9 12.02
1/13/2023 2:15:00 PM 8.16 46.688 0.153 5.14 308.8 12
1/13/2023 2:30:00 PM 8.15 46.67 0.153 5.19 248.9 11.98
1/13/2023 2:45:00 PM 8.12 46.616 0.153 5.17 272.2 11.98
1/13/2023 3:00:00 PM 8.09 46.562 0.153 5.17 216.9 11.97
1/13/2023 3:15:00 PM 8.06 46.508 0.153 5.18 199.2 11.95
1/13/2023 3:30:00 PM 8.03 46.454 0.153 5.21 206 11.92
1/13/2023 3:45:00 PM 7.99 46.382 0.153 5.27 227.4 11.91
1/13/2023 4:00:00 PM 7.95 46.31 0.153 5.3 218.1 11.9
1/13/2023 4:15:00 PM 7.9 46.22 0.153 5.28 189.2 11.88
1/13/2023 4:30:00 PM 7.85 46.13 0.153 5.18 213.5 11.85
1/13/2023 4:45:00 PM 7.8 46.04 0.153 5.18 160.7 11.83
1/13/2023 5:00:00 PM 7.74 45.932 0.153 5.21 207.2 11.8
1/13/2023 5:15:00 PM 7.68 45.824 0.152 5.17 190.2 11.77
1/13/2023 5:30:00 PM 7.62 45.716 0.153 5.17 188.7 11.73
1/13/2023 5:45:00 PM 7.57 45.626 0.153 5.12 161.4 11.71
1/13/2023 6:00:00 PM 7.51 45.518 0.153 5.18 201.1 11.71
1/13/2023 6:15:00 PM 7.46 45.428 0.153 5.15 162.4 11.68
1/13/2023 6:30:00 PM 7.41 45.338 0.153 5.19 156.1 11.7
1/13/2023 6:45:00 PM 7.36 45.248 0.153 5.21 160.3 11.68
1/13/2023 7:00:00 PM 7.31 45.158 0.153 5.18 142.6 11.68
1/13/2023 7:15:00 PM 7.26 45.068 0.154 5.22 140.9 11.68
1/13/2023 7:30:00 PM 7.21 44.978 0.154 5.2 148.4 11.68
1/13/2023 7:45:00 PM 7.17 44.906 0.154 5.19 169.8 11.68
1/13/2023 8:00:00 PM 7.13 44.834 0.153 5.19 171.1 11.68
1/13/2023 8:15:00 PM 7.09 44.762 0.154 5.18 166.5 11.67
1/13/2023 8:30:00 PM 7.05 44.69 0.154 5.17 144.2 11.69
1/13/2023 8:45:00 PM 7 44.6 0.154 5.18 163.8 11.69
1/13/2023 9:00:00 PM 6.95 44.51 0.154 5.19 153.7 11.71
1/13/2023 9:15:00 PM 6.9 44.42 0.154 5.1 157.4 11.72
1/13/2023 9:30:00 PM 6.86 44.348 0.155 5.13 159 11.73
1/13/2023 9:45:00 PM 6.81 44.258 0.155 5.14 185.8 11.73
1/13/2023 10:00:00 PM 6.76 44.168 0.155 5.15 151.2 11.75
1/13/2023 10:15:00 PM 6.7 44.06 0.155 5.18 157.2 11.78
1/13/2023 10:30:00 PM 6.65 43.97 0.155 5.21 148.9 11.77
1/13/2023 10:45:00 PM 6.6 43.88 0.154 5.18 141.5 11.8
1/13/2023 11:00:00 PM 6.55 43.79 0.155 5.06 157.1 11.81
1/13/2023 11:15:00 PM 6.5 43.7 0.155 5.08 154.2 11.82
1/13/2023 11:30:00 PM 6.44 43.592 0.155 5.11 143.8 11.84
1/13/2023 11:45:00 PM 6.38 43.484 0.155 5.17 113.5 11.85
1/14/2023 12:00:00 AM 6.33 43.394 0.155 5.22 128.1 11.89
1/14/2023 12:15:00 AM 6.28 43.304 0.155 5.24 135.5 11.88
1/14/2023 12:30:00 AM 6.22 43.196 0.155 5.06 137.3 11.92
1/14/2023 12:45:00 AM 6.17 43.106 0.155 5.07 139.6 11.94
1/14/2023 1:00:00 AM 6.12 43.016 0.155 5.03 145.9 11.96
1/14/2023 1:15:00 AM 6.06 42.908 0.155 5.12 154.2 11.98
1/14/2023 1:30:00 AM 6.01 42.818 0.155 5.07 150.6 12
1/14/2023 1:45:00 AM 5.94 42.692 0.155 5.14 149.4 12.03
1/14/2023 2:00:00 AM 5.88 42.584 0.155 5.18 137.6 12.05
1/14/2023 2:15:00 AM 5.84 42.512 0.155 5.17 145.4 12.06
1/14/2023 2:30:00 AM 5.79 42.422 0.155 5.21 144.6 12.06
1/14/2023 2:45:00 AM 5.75 42.35 0.155 5.23 160.9 12.09
1/14/2023 3:00:00 AM 5.69 42.242 0.156 5.25 143.3 12.12
1/14/2023 3:15:00 AM 5.64 42.152 0.156 5.24 146.8 12.15
1/14/2023 3:30:00 AM 5.59 42.062 0.156 5.2 160.1 12.18
1/14/2023 3:45:00 AM 5.53 41.954 0.155 5.2 155.1 12.19
1/14/2023 4:00:00 AM 5.48 41.864 0.156 5.25 163.9 12.22
1/14/2023 4:15:00 AM 5.42 41.756 0.155 5.3 147 12.24
1/14/2023 4:30:00 AM 5.38 41.684 0.155 5.27 158.9 12.25
1/14/2023 4:45:00 AM 5.32 41.576 0.156 5.26 144.6 12.29
1/14/2023 5:00:00 AM 5.28 41.504 0.156 5.28 144.5 12.31
1/14/2023 5:15:00 AM 5.22 41.396 0.155 5.3 149.9 12.32
1/14/2023 5:30:00 AM 5.18 41.324 0.156 5.24 152.9 12.33
1/14/2023 5:45:00 AM 5.14 41.252 0.156 5.23 140.4 12.35
1/14/2023 6:00:00 AM 5.09 41.162 0.156 5.23 142.5 12.39
1/14/2023 6:15:00 AM 5.04 41.072 0.156 5.23 149.7 12.4
1/14/2023 6:30:00 AM 5 41 0.156 5.26 141.1 12.41
1/14/2023 6:45:00 AM 4.95 40.91 0.156 5.27 198.8 12.44
1/14/2023 7:00:00 AM 4.89 40.802 0.155 5.27 196.2 12.45
1/14/2023 7:15:00 AM 4.84 40.712 0.155 5.28 192.4 12.49
1/14/2023 7:30:00 AM 4.78 40.604 0.155 5.27 152.1 12.51
1/14/2023 7:45:00 AM 4.73 40.514 0.156 5.28 164.3 12.54
1/14/2023 8:00:00 AM 4.7 40.46 0.155 5.25 165.3 12.56
1/14/2023 8:15:00 AM 4.66 40.388 0.155 5.29 145.5 12.59
1/14/2023 8:30:00 AM 4.61 40.298 0.156 5.28 196.5 12.62
1/14/2023 8:45:00 AM 4.58 40.244 0.156 5.24 187.2 12.67
1/14/2023 9:00:00 AM 4.54 40.172 0.155 5.25 130 12.75
1/14/2023 9:15:00 AM 4.52 40.136 0.155 5.2 144.9 12.8
1/14/2023 9:30:00 AM 4.49 40.082 0.156 5.27 132.6 12.85
1/14/2023 9:45:00 AM 4.46 40.028 0.156 5.3 149.9 12.9
1/14/2023 10:00:00 AM 4.43 39.974 0.156 5.26 140.9 12.94
1/14/2023 10:15:00 AM 4.41 39.938 0.156 5.24 137.8 12.99
1/14/2023 10:30:00 AM 4.39 39.902 0.156 5.24 140.6 13.05
1/14/2023 10:45:00 AM 4.37 39.866 0.156 5.23 140.2 13.08
1/14/2023 11:00:00 AM 4.35 39.83 0.156 5.21 132.4 13.14
1/14/2023 11:15:00 AM 4.32 39.776 0.156 5.24 125.2 13.16
1/14/2023 11:30:00 AM 4.31 39.758 0.156 5.3 142.9 13.17
1/14/2023 11:45:00 AM 4.31 39.758 0.156 5.26 129.2 13.23
1/14/2023 12:00:00 PM 4.31 39.758 0.156 5.25 138.1 13.28
1/14/2023 12:15:00 PM 4.3 39.74 0.156 5.29 132 13.31
1/14/2023 12:30:00 PM 4.29 39.722 0.156 5.33 140.5 13.34
1/14/2023 12:45:00 PM 4.28 39.704 0.156 5.35 141.8 13.35
1/14/2023 1:00:00 PM 4.27 39.686 0.157 5.32 144.4 13.37
1/14/2023 1:15:00 PM 4.26 39.668 0.156 5.27 136.8 13.39
1/14/2023 1:30:00 PM 4.26 39.668 0.155 5.23 125.9 13.41
1/14/2023 1:45:00 PM 4.26 39.668 0.156 5.24 144.6 13.42
1/14/2023 2:00:00 PM 4.25 39.65 0.156 5.29 145.8 13.43
1/14/2023 2:15:00 PM 4.24 39.632 0.156 5.28 142.8 13.45
1/14/2023 2:30:00 PM 4.24 39.632 0.156 5.28 133.3 13.44
1/14/2023 2:45:00 PM 4.23 39.614 0.156 5.27 161.2 13.44
1/14/2023 3:00:00 PM 4.22 39.596 0.156 5.28 129.8 13.45
1/14/2023 3:15:00 PM 4.2 39.56 0.156 5.3 135.8 13.47
1/14/2023 3:30:00 PM 4.2 39.56 0.155 5.21 133.6 13.45
1/14/2023 3:45:00 PM 4.18 39.524 0.155 5.25 141.9 13.47
1/14/2023 4:00:00 PM 4.15 39.47 0.155 5.27 146.9 13.46
1/14/2023 4:15:00 PM 4.11 39.398 0.155 5.27 140.1 13.44
1/14/2023 4:30:00 PM 4.08 39.344 0.156 5.34 137.4 13.4
1/14/2023 4:45:00 PM 4.04 39.272 0.156 5.36 133.8 13.38
1/14/2023 5:00:00 PM 3.99 39.182 0.156 5.28 159.4 13.34
1/14/2023 5:15:00 PM 3.93 39.074 0.156 5.31 135.7 13.31
1/14/2023 5:30:00 PM 3.88 38.984 0.156 5.32 133.1 13.29
1/14/2023 5:45:00 PM 3.83 38.894 0.156 5.34 144.7 13.26
1/14/2023 6:00:00 PM 3.77 38.786 0.157 5.31 137.5 13.24
1/14/2023 6:15:00 PM 3.7 38.66 0.157 5.31 136.6 13.25
1/14/2023 6:30:00 PM 3.64 38.552 0.157 5.29 131.7 13.23
1/14/2023 6:45:00 PM 3.57 38.426 0.157 5.3 138.5 13.23
1/14/2023 7:00:00 PM 3.5 38.3 0.157 5.35 141.6 13.24
1/14/2023 7:15:00 PM 3.46 38.228 0.157 5.4 151.8 13.25
1/14/2023 7:30:00 PM 3.41 38.138 0.157 5.4 145.8 13.27
1/14/2023 7:45:00 PM 3.36 38.048 0.156 5.29 140.8 13.26
1/14/2023 8:00:00 PM 3.29 37.922 0.156 5.28 151.5 13.25
1/14/2023 8:15:00 PM 3.24 37.832 0.156 5.3 144.8 13.28
1/14/2023 8:30:00 PM 3.17 37.706 0.156 5.22 138.2 13.29
1/14/2023 8:45:00 PM 3.11 37.598 0.156 5.38 141.9 13.31
1/14/2023 9:00:00 PM 3.06 37.508 0.156 5.39 140.2 13.31
1/14/2023 9:15:00 PM 3.02 37.436 0.157 5.36 128.5 13.33
1/14/2023 9:30:00 PM 2.97 37.346 0.156 5.32 134 13.34
1/14/2023 9:45:00 PM 2.91 37.238 0.156 5.32 141.4 13.35
1/14/2023 10:00:00 PM 2.86 37.148 0.156 5.35 131.8 13.35
1/14/2023 10:15:00 PM 2.84 37.112 0.157 5.34 141.5 13.38
1/14/2023 10:30:00 PM 2.82 37.076 0.157 5.33 135.8 13.37
1/14/2023 10:45:00 PM 2.79 37.022 0.157 5.36 134 13.4
1/14/2023 11:00:00 PM 2.76 36.968 0.157 5.37 209.3 13.41
1/14/2023 11:15:00 PM 2.75 36.95 0.157 5.37 144.5 13.44
1/14/2023 11:30:00 PM 2.72 36.896 0.157 5.38 125.8 13.43
1/14/2023 11:45:00 PM 2.68 36.824 0.156 5.39 127.5 13.46
1/15/2023 12:00:00 AM 2.65 36.77 0.157 5.29 141.8 13.48
1/15/2023 12:15:00 AM 2.6 36.68 0.157 5.2 150.5 13.5
1/15/2023 12:30:00 AM 2.56 36.608 0.157 5.27 132 13.52
1/15/2023 12:45:00 AM 2.5 36.5 0.157 5.32 140.5 13.52
1/15/2023 1:00:00 AM 2.46 36.428 0.157 5.3 133.2 13.55
1/15/2023 1:15:00 AM 2.42 36.356 0.157 5.27 127.6 13.54
1/15/2023 1:30:00 AM 2.37 36.266 0.157 5.31 131.9 13.57
1/15/2023 1:45:00 AM 2.32 36.176 0.157 5.32 137.6 13.6
1/15/2023 2:00:00 AM 2.27 36.086 0.157 5.25 129.9 13.62
1/15/2023 2:15:00 AM 2.21 35.978 0.157 5.29 144.6 13.65
1/15/2023 2:30:00 AM 2.18 35.924 0.157 5.27 137.9 13.66
1/15/2023 2:45:00 AM 2.13 35.834 0.157 5.29 138.5 13.69
1/15/2023 3:00:00 AM 2.1 35.78 0.157 5.27 133.5 13.72
1/15/2023 3:15:00 AM 2.05 35.69 0.157 5.28 136.9 13.73
1/15/2023 3:30:00 AM 2 35.6 0.158 5.26 127 13.76
1/15/2023 3:45:00 AM 1.96 35.528 0.157 5.32 128.8 13.76
1/15/2023 4:00:00 AM 1.92 35.456 0.157 5.36 136 13.8
1/15/2023 4:15:00 AM 1.87 35.366 0.157 5.31 138.1 13.82
1/15/2023 4:30:00 AM 1.83 35.294 0.157 5.24 132.8 13.85
1/15/2023 4:45:00 AM 1.78 35.204 0.158 5.24 163.1 13.88
1/15/2023 5:00:00 AM 1.74 35.132 0.158 5.2 139.5 13.9
1/15/2023 5:15:00 AM 1.71 35.078 0.158 5.2 137.7 13.9
1/15/2023 5:30:00 AM 1.66 34.988 0.158 5.19 128.1 13.92
1/15/2023 5:45:00 AM 1.64 34.952 0.158 5.24 138.4 13.93
1/15/2023 6:00:00 AM 1.6 34.88 0.158 5.23 144.7 13.95
1/15/2023 6:15:00 AM 1.56 34.808 0.159 5.26 145.8 13.96
1/15/2023 6:30:00 AM 1.54 34.772 0.159 5.21 139.3 14
1/15/2023 6:45:00 AM 1.52 34.736 0.159 5.2 134 14.01
1/15/2023 7:00:00 AM 1.5 34.7 0.159 5.2 147.3 14.04
1/15/2023 7:15:00 AM 1.47 34.646 0.159 5.29 165.2 14.04
1/15/2023 7:30:00 AM 1.45 34.61 0.159 5.21 165.3 14.08
1/15/2023 7:45:00 AM 1.42 34.556 0.159 5.13 162.6 14.09
1/15/2023 8:00:00 AM 1.4 34.52 0.159 5.19 158.3 14.12
1/15/2023 8:15:00 AM 1.38 34.484 0.159 5.18 151.7 14.17
1/15/2023 8:30:00 AM 1.36 34.448 0.158 5.26 163.3 14.21
1/15/2023 8:45:00 AM 1.35 34.43 0.158 5.25 146.7 14.23
1/15/2023 9:00:00 AM 1.34 34.412 0.158 5.19 149.6 14.27
1/15/2023 9:15:00 AM 1.32 34.376 0.158 5.23 160.1 14.3
1/15/2023 9:30:00 AM 1.32 34.376 0.158 5.24 161.7 14.37
1/15/2023 9:45:00 AM 1.33 34.394 0.158 5.24 155.6 14.39
1/15/2023 10:00:00 AM 1.34 34.412 0.158 5.24 138.9 14.42
1/15/2023 10:15:00 AM 1.37 34.466 0.157 5.26 139.6 14.46
1/15/2023 10:30:00 AM 1.43 34.574 0.158 5.25 276.4 14.49
1/15/2023 10:45:00 AM 1.49 34.682 0.158 5.21 197.3 14.5
1/15/2023 11:00:00 AM 1.6 34.88 0.158 5.17 136.1 14.5
1/15/2023 11:15:00 AM 1.74 35.132 0.158 5.15 145.8 14.52
1/15/2023 11:30:00 AM 1.85 35.33 0.158 5.22 142.6 14.52
1/15/2023 11:45:00 AM 2 35.6 0.158 5.22 145.5 14.51
1/15/2023 12:00:00 PM 2.11 35.798 0.158 5.13 160.1 14.49
1/15/2023 12:15:00 PM 2.24 36.032 0.158 5.17 149.8 14.47
1/15/2023 12:30:00 PM 2.36 36.248 0.158 5.15 146.8 14.44
1/15/2023 12:45:00 PM 2.51 36.518 0.158 5.2 133 14.42
1/15/2023 1:00:00 PM 2.7 36.86 0.158 5.14 144.9 14.38
1/15/2023 1:15:00 PM 2.85 37.13 0.158 5.22 199.5 14.35
1/15/2023 1:30:00 PM 2.98 37.364 0.158 5.15 145.6 14.32
1/15/2023 1:45:00 PM 3.06 37.508 0.157 5.14 152.6 14.29
1/15/2023 2:00:00 PM 3.11 37.598 0.157 5.2 130.3 14.25
1/15/2023 2:15:00 PM 3.14 37.652 0.156 5.17 127.4 14.21
1/15/2023 2:30:00 PM 3.13 37.634 0.157 5.22 116.7 14.18
1/15/2023 2:45:00 PM 3.15 37.67 0.157 5.22 123.9 14.14
1/15/2023 3:00:00 PM 3.16 37.688 0.157 5.21 147.3 14.13
1/15/2023 3:15:00 PM 3.1 37.58 0.157 5.17 180.2 14.12
1/15/2023 3:30:00 PM 3.05 37.49 0.157 5.22 122.7 14.06
1/15/2023 3:45:00 PM 2.99 37.382 0.157 5.27 127.9 14.03
1/15/2023 4:00:00 PM 2.94 37.292 0.156 5.22 133.2 14.02
1/15/2023 4:15:00 PM 2.88 37.184 0.156 5.23 113.5 14
1/15/2023 4:30:00 PM 2.83 37.094 0.156 5.24 123.4 13.99
1/15/2023 4:45:00 PM 2.78 37.004 0.156 5.21 120.3 13.97
1/15/2023 5:00:00 PM 2.72 36.896 0.156 5.22 124.7 13.96
1/15/2023 5:15:00 PM 2.66 36.788 0.156 5.25 151.4 13.93
1/15/2023 5:30:00 PM 2.6 36.68 0.156 5.25 120.1 13.92
1/15/2023 5:45:00 PM 2.55 36.59 0.156 5.3 119.3 13.9
1/15/2023 6:00:00 PM 2.5 36.5 0.157 5.26 116.8 13.88
1/15/2023 6:15:00 PM 2.46 36.428 0.157 5.3 136.3 13.86
1/15/2023 6:30:00 PM 2.42 36.356 0.157 5.29 151.7 13.84
1/15/2023 6:45:00 PM 2.38 36.284 0.157 5.27 120 13.83
1/15/2023 7:00:00 PM 2.35 36.23 0.157 5.29 120.7 13.83
1/15/2023 7:15:00 PM 2.32 36.176 0.156 5.29 129.9 13.83
1/15/2023 7:30:00 PM 2.29 36.122 0.157 5.36 148.5 13.83
1/15/2023 7:45:00 PM 2.27 36.086 0.156 5.35 142.8 13.83
1/15/2023 8:00:00 PM 2.24 36.032 0.157 5.36 157.5 13.82
1/15/2023 8:15:00 PM 2.21 35.978 0.157 5.35 133.7 13.82
1/15/2023 8:30:00 PM 2.19 35.942 0.157 5.37 146.4 13.8
1/15/2023 8:45:00 PM 2.16 35.888 0.157 5.38 120.3 13.8
1/15/2023 9:00:00 PM 2.14 35.852 0.157 5.39 126 13.81
1/15/2023 9:15:00 PM 2.12 35.816 0.157 5.36 130.5 13.8
1/15/2023 9:30:00 PM 2.1 35.78 0.157 5.36 129 13.82
1/15/2023 9:45:00 PM 2.07 35.726 0.157 5.4 139.5 13.82
1/15/2023 10:00:00 PM 2.05 35.69 0.157 5.3 138 13.82
1/15/2023 10:15:00 PM 2.04 35.672 0.158 5.39 142.8 13.83
1/15/2023 10:30:00 PM 2.02 35.636 0.158 5.37 142.1 13.81
1/15/2023 10:45:00 PM 2 35.6 0.157 5.37 131.3 13.84
1/15/2023 11:00:00 PM 1.98 35.564 0.158 5.38 152.2 13.83
1/15/2023 11:15:00 PM 1.97 35.546 0.158 5.41 149 13.84
1/15/2023 11:30:00 PM 1.95 35.51 0.158 5.41 212.4 13.83
1/15/2023 11:45:00 PM 1.93 35.474 0.158 5.42 178.1 13.85
1/16/2023 12:00:00 AM 1.91 35.438 0.158 5.39 144.8 13.86
1/16/2023 12:15:00 AM 1.9 35.42 0.158 5.37 147 13.85
1/16/2023 12:30:00 AM 1.88 35.384 0.158 5.36 136 13.86
1/16/2023 12:45:00 AM 1.86 35.348 0.158 5.4 135.9 13.86
1/16/2023 1:00:00 AM 1.85 35.33 0.157 5.4 136 13.88
1/16/2023 1:15:00 AM 1.83 35.294 0.157 5.39 121.3 13.89
1/16/2023 1:30:00 AM 1.81 35.258 0.158 5.42 121.2 13.88
1/16/2023 1:45:00 AM 1.79 35.222 0.158 5.41 121.6 13.9
1/16/2023 2:00:00 AM 1.77 35.186 0.158 5.42 132 13.89
1/16/2023 2:15:00 AM 1.74 35.132 0.158 5.43 98.72 13.92
1/16/2023 2:30:00 AM 1.71 35.078 0.158 5.41 111.6 13.9
1/16/2023 2:45:00 AM 1.68 35.024 0.158 5.35 131.1 13.94
1/16/2023 3:00:00 AM 1.65 34.97 0.158 5.37 109.1 13.94
1/16/2023 3:15:00 AM 1.63 34.934 0.158 5.39 118 13.94
1/16/2023 3:30:00 AM 1.59 34.862 0.158 5.36 98.51 13.96
1/16/2023 3:45:00 AM 1.55 34.79 0.158 5.37 110.7 13.98
1/16/2023 4:00:00 AM 1.52 34.736 0.159 5.37 116.6 14
1/16/2023 4:15:00 AM 1.48 34.664 0.158 5.38 119.4 14.01
1/16/2023 4:30:00 AM 1.45 34.61 0.158 5.39 123.1 14.04
1/16/2023 4:45:00 AM 1.42 34.556 0.158 5.38 109.4 14.06
1/16/2023 5:00:00 AM 1.38 34.484 0.158 5.39 120.9 14.06
1/16/2023 5:15:00 AM 1.35 34.43 0.158 5.38 112.8 14.07
1/16/2023 5:30:00 AM 1.31 34.358 0.159 5.34 107.7 14.1
1/16/2023 5:45:00 AM 1.28 34.304 0.159 5.35 113 14.11
1/16/2023 6:00:00 AM 1.26 34.268 0.159 5.39 125.1 14.14
1/16/2023 6:15:00 AM 1.24 34.232 0.159 5.35 110.1 14.13
1/16/2023 6:30:00 AM 1.24 34.232 0.159 5.31 115.3 14.15
1/16/2023 6:45:00 AM 1.21 34.178 0.159 5.26 131.4 14.16
1/16/2023 7:00:00 AM 1.2 34.16 0.159 5.23 110 14.18
1/16/2023 7:15:00 AM 1.18 34.124 0.159 5.3 125.4 14.17
1/16/2023 7:30:00 AM 1.17 34.106 0.159 5.1 103.3 14.19
1/16/2023 7:45:00 AM 1.16 34.088 0.158 5.01 120.7 14.21
1/16/2023 8:00:00 AM